Darstellungsparameter: Aktuell verwendete Einstellungen:
Skalierung der Graphiken ... ?
xyx+y,   Skalierungsfaktor:      Skalierung: Modus: x, Faktor: 1
Darstellungszeitraum ... ?
Vom - - bis: - -   Zeitraum: 03.05.2009 - 23.05.2009
Min/Max/Avg-Anzeige ... ?
Zeige MMA aktuell
Zeige MMA Monat
Zeige MMA alles
Zeige --A aktuell
Zeige --A Monat
Zeige --A alles
Keine MMA-Anzeige
MMA:
Keine MMA-Graphiken
MMA-Basis: 03.05.2009 - 23.05.2009
Quicknavigation für Darstellung... ?
Tage:      1T, 2T, 3T, 5T -1T -2T -3T -5T +1T +2T +3T +5T
Wochen: 1W, 2W, 3W -1W -2W -3W +1W +2W +3W
Monate: 1M, 3M, 6M -1M -3M -6M +1M +3M +6M
Jahre:    1J, 3J, 5J, 10J -1J -3J -5J -10J +1J +3J +5J +10J
Nutze für die Darstellung ... ?
Originaldaten oder Mittelwerte auf ...
Stundenbasis Tagesbasis Wochenbasis
Monatsbasis Jahresbasis      Datenbasis: Original-Daten
Darstellen als:
Statistik (Auto) Statistik J:M      Darstellung:
Zur Graphik,    zurück zur Übersicht aller Sensoren.
 
Tabellarische Datenbersicht: ?
 
Sensor: Nr:Datum:Temp:Abs-Feuchte:Windchill:Wind:
Aussen-T/F 1 03-05-2009 00:05:22 14.9 C 6.75 g/m*3 14.9 C 0 km/h
2 03-05-2009 00:17:22 14.6 C 6.88 g/m*3 14.6 C 0 km/h
3 03-05-2009 00:29:22 14.4 C 6.92 g/m*3 14.4 C 0 km/h
4 03-05-2009 00:41:22 13.9 C 7.07 g/m*3 13.9 C 0 km/h
5 03-05-2009 00:53:22 13.2 C 7 g/m*3 13.2 C 0 km/h
6 03-05-2009 01:05:22 13.2 C 7.12 g/m*3 13.2 C 0 km/h
7 03-05-2009 01:17:22 13.2 C 7.23 g/m*3 13.2 C 0 km/h
8 03-05-2009 01:29:22 12.9 C 7.33 g/m*3 12.9 C 0 km/h
9 03-05-2009 01:41:22 12.6 C 7.3 g/m*3 12.6 C 0 km/h
10 03-05-2009 01:53:23 12.4 C 7.32 g/m*3 12.4 C 0 km/h
11 03-05-2009 02:05:23 12.2 C 7.34 g/m*3 12.2 C 0 km/h
12 03-05-2009 02:17:23 12.2 C 7.34 g/m*3 12.2 C 0 km/h
13 03-05-2009 02:29:23 12 C 7.35 g/m*3 12 C 0 km/h
14 03-05-2009 02:41:23 11.8 C 7.37 g/m*3 11.8 C 0 km/h
15 03-05-2009 02:53:23 11.8 C 7.47 g/m*3 11.8 C 0 km/h
16 03-05-2009 03:05:23 11.4 C 7.39 g/m*3 11.4 C 0 km/h
17 03-05-2009 03:17:23 11.2 C 7.4 g/m*3 11.2 C 0 km/h
18 03-05-2009 03:29:23 10.9 C 7.36 g/m*3 10.9 C 0 km/h
19 03-05-2009 03:41:23 10.8 C 7.41 g/m*3 10.8 C 0 km/h
20 03-05-2009 03:53:23 10.6 C 7.42 g/m*3 10.6 C 0 km/h
21 03-05-2009 04:05:23 10.5 C 7.37 g/m*3 10.5 C 0 km/h
22 03-05-2009 04:17:23 10.2 C 7.33 g/m*3 10.2 C 0 km/h
23 03-05-2009 04:29:23 9.9 C 7.38 g/m*3 9.9 C 0 km/h
24 03-05-2009 04:41:23 9.9 C 7.38 g/m*3 9.9 C 0 km/h
25 03-05-2009 04:53:23 9.8 C 7.33 g/m*3 9.8 C 0 km/h
Sensor: Nr:Datum:Temp:Abs-Feuchte:Windchill:Wind:
Aussen-T/F 26 03-05-2009 05:05:23 9.7 C 7.38 g/m*3 9.7 C 0 km/h
27 03-05-2009 05:17:23 9.3 C 7.19 g/m*3 9.3 C 0 km/h
28 03-05-2009 05:29:23 9.1 C 7.19 g/m*3 9.1 C 0 km/h
29 03-05-2009 05:41:23 9.1 C 7.19 g/m*3 9.1 C 0 km/h
30 03-05-2009 05:53:24 9 C 7.23 g/m*3 9 C 0 km/h
31 03-05-2009 06:05:24 9.1 C 7.28 g/m*3 9.1 C 0 km/h
32 03-05-2009 06:17:24 9.5 C 7.46 g/m*3 9.5 C 0 km/h
33 03-05-2009 06:29:24 9.6 C 7.42 g/m*3 9.6 C 0 km/h
34 03-05-2009 06:41:24 9.5 C 7.28 g/m*3 9.5 C 0 km/h
35 03-05-2009 06:53:24 9.6 C 7.42 g/m*3 9.6 C 0 km/h
36 03-05-2009 07:05:24 9.8 C 7.42 g/m*3 9.8 C 0 km/h
37 03-05-2009 07:17:24 10.1 C 7.38 g/m*3 10.1 C 0 km/h
38 03-05-2009 07:29:24 9.9 C 7.38 g/m*3 9.9 C 0 km/h
39 03-05-2009 07:41:24 9.9 C 7.47 g/m*3 9.9 C 0 km/h
40 03-05-2009 07:53:24 10.3 C 7.47 g/m*3 10.3 C 0 km/h
41 03-05-2009 08:05:21 10.6 C 7.52 g/m*3 10.6 C 0 km/h
42 03-05-2009 08:17:20 11.1 C 7.55 g/m*3 11.1 C 0 km/h
43 03-05-2009 08:29:20 11.5 C 7.54 g/m*3 11.5 C 0 km/h
44 03-05-2009 08:41:20 11.6 C 7.59 g/m*3 11.6 C 0 km/h
45 03-05-2009 08:53:21 12 C 7.57 g/m*3 12 C 0 km/h
46 03-05-2009 09:05:20 12.2 C 7.66 g/m*3 12.2 C 0 km/h
47 03-05-2009 09:17:20 12.9 C 7.89 g/m*3 12.9 C 0 km/h
48 03-05-2009 09:29:20 13.1 C 7.76 g/m*3 13.1 C 0 km/h
49 03-05-2009 09:41:21 13.7 C 7.93 g/m*3 13.7 C 0 km/h
50 03-05-2009 09:53:20 14.1 C 8.01 g/m*3 14.1 C 0 km/h
Sensor: Nr:Datum:Temp:Abs-Feuchte:Windchill:Wind:
Aussen-T/F 51 03-05-2009 10:05:20 14.6 C 8.01 g/m*3 14.6 C 0 km/h
52 03-05-2009 10:17:20 14.9 C 8.03 g/m*3 14.9 C 0 km/h
53 03-05-2009 10:29:20 15.4 C 8.15 g/m*3 15.4 C 0 km/h
54 03-05-2009 10:41:20 16.8 C 8.44 g/m*3 16.8 C 0 km/h
55 03-05-2009 10:53:19 17.3 C 8.1 g/m*3 17.3 C 0 km/h
56 03-05-2009 11:05:20 17.5 C 8.05 g/m*3 17.5 C 0 km/h
57 03-05-2009 11:17:19 17.8 C 8.04 g/m*3 17.8 C 0 km/h
58 03-05-2009 11:29:19 18.4 C 8.02 g/m*3 18.4 C 0 km/h
59 03-05-2009 11:41:19 18.9 C 7.78 g/m*3 18.9 C 0 km/h
60 03-05-2009 11:53:18 19 C 7.99 g/m*3 19 C 0 km/h
61 03-05-2009 12:05:19 19.4 C 7.67 g/m*3 19.4 C 0 km/h
62 03-05-2009 12:17:19 19.9 C 7.56 g/m*3 19.9 C 0 km/h
63 03-05-2009 12:29:19 20.2 C 7.52 g/m*3 20.2 C 0 km/h
64 03-05-2009 12:41:18 20.7 C 7.56 g/m*3 20.7 C 0 km/h
65 03-05-2009 12:53:19 21.4 C 7.5 g/m*3 21.4 C 0 km/h
66 03-05-2009 13:05:18 22.5 C 7.59 g/m*3 22.5 C 0 km/h
67 03-05-2009 13:17:18 23.3 C 7.32 g/m*3 23.3 C 0 km/h
68 03-05-2009 13:29:18 21.7 C 7.44 g/m*3 21.7 C 0 km/h
69 03-05-2009 13:41:18 22.2 C 7.66 g/m*3 22.2 C 0 km/h
70 03-05-2009 13:53:18 21.1 C 7.74 g/m*3 21.1 C 0 km/h
71 03-05-2009 14:05:18 20.6 C 8.23 g/m*3 20.6 C 0 km/h
72 03-05-2009 14:17:17 19.8 C 8.03 g/m*3 19.8 C 0 km/h
73 03-05-2009 14:29:17 16.8 C 9.44 g/m*3 16.8 C 0 km/h
74 03-05-2009 14:41:18 17.3 C 9.72 g/m*3 17.3 C 0 km/h
75 03-05-2009 14:53:17 18.3 C 8.29 g/m*3 18.3 C 0 km/h
Sensor: Nr:Datum:Temp:Abs-Feuchte:Windchill:Wind:
Aussen-T/F 76 03-05-2009 15:05:17 19 C 8.15 g/m*3 19 C 0 km/h
77 03-05-2009 15:17:17 18.8 C 7.57 g/m*3 18.8 C 0 km/h
78 03-05-2009 15:29:17 20.6 C 7.87 g/m*3 20.6 C 0 km/h
79 03-05-2009 15:41:17 20.9 C 7.47 g/m*3 20.9 C 0 km/h
80 03-05-2009 15:53:17 20.4 C 7.25 g/m*3 20.4 C 0 km/h
81 03-05-2009 16:05:02 21.5 C 7.35 g/m*3 21.5 C 0 km/h
82 03-05-2009 16:17:02 19.9 C 6.53 g/m*3 19.9 C 0 km/h
83 03-05-2009 16:29:02 17.1 C 5.68 g/m*3 17.1 C 0 km/h
84 03-05-2009 16:41:02 16.9 C 5.9 g/m*3 16.9 C 0 km/h
85 03-05-2009 16:53:02 16.1 C 5.76 g/m*3 16.1 C 0 km/h
86 03-05-2009 17:05:01 16.2 C 5.79 g/m*3 16.2 C 0 km/h
87 03-05-2009 17:17:02 16.1 C 5.76 g/m*3 16.1 C 0 km/h
88 03-05-2009 17:29:02 16.4 C 6.28 g/m*3 16.4 C 0 km/h
89 03-05-2009 17:41:01 16.4 C 6.28 g/m*3 16.4 C 0 km/h
90 03-05-2009 17:53:01 16.3 C 5.83 g/m*3 16.3 C 0 km/h
91 03-05-2009 18:05:01 16.6 C 5.93 g/m*3 16.6 C 0 km/h
92 03-05-2009 18:17:01 16.6 C 5.51 g/m*3 16.6 C 0 km/h
93 03-05-2009 18:29:01 17.1 C 5.24 g/m*3 17.1 C 0 km/h
94 03-05-2009 18:41:01 16.5 C 5.34 g/m*3 16.5 C 0 km/h
95 03-05-2009 18:53:01 16.5 C 5.34 g/m*3 16.5 C 0 km/h
96 03-05-2009 19:05:01 17.3 C 5.45 g/m*3 17.3 C 0 km/h
97 03-05-2009 19:17:00 16.4 C 5.44 g/m*3 16.4 C 0 km/h
98 03-05-2009 19:29:00 16.1 C 5.62 g/m*3 16.1 C 0 km/h
99 03-05-2009 19:41:00 16.8 C 5.72 g/m*3 16.8 C 0 km/h
100 03-05-2009 19:53:00 16.8 C 5.72 g/m*3 16.8 C 0 km/h
Sensor: Nr:Datum:Temp:Abs-Feuchte:Windchill:Wind:
Aussen-T/F 101 03-05-2009 20:05:00 16.1 C 5.35 g/m*3 16.1 C 0 km/h
102 03-05-2009 20:17:59 15.4 C 5.39 g/m*3 15.4 C 0 km/h
103 03-05-2009 20:29:59 14.8 C 5.7 g/m*3 14.8 C 0 km/h
104 03-05-2009 20:41:00 14.5 C 5.72 g/m*3 14.5 C 0 km/h
105 03-05-2009 20:53:59 14.5 C 5.85 g/m*3 14.5 C 0 km/h
106 03-05-2009 21:05:59 14.4 C 5.93 g/m*3 14.4 C 0 km/h
107 03-05-2009 21:17:59 14.2 C 5.74 g/m*3 14.2 C 0 km/h
108 03-05-2009 21:29:59 14 C 5.79 g/m*3 14 C 0 km/h
109 03-05-2009 21:41:59 13.6 C 5.77 g/m*3 13.6 C 0 km/h
110 03-05-2009 21:53:58 13.5 C 5.61 g/m*3 13.5 C 0 km/h
111 03-05-2009 22:05:59 13.1 C 5.36 g/m*3 13.1 C 0 km/h
112 03-05-2009 22:17:59 12.9 C 5.3 g/m*3 12.9 C 0 km/h
113 03-05-2009 22:29:59 12.7 C 5.12 g/m*3 12.7 C 0 km/h
114 03-05-2009 22:41:58 12.5 C 5.06 g/m*3 12.5 C 0 km/h
115 03-05-2009 22:53:59 12.3 C 5.1 g/m*3 12.3 C 0 km/h
116 03-05-2009 23:05:58 12.2 C 5.07 g/m*3 12.2 C 0 km/h
117 03-05-2009 23:17:58 12.1 C 5.15 g/m*3 12.1 C 0 km/h
118 03-05-2009 23:29:58 11.8 C 5.16 g/m*3 11.8 C 0 km/h
119 03-05-2009 23:41:58 11.7 C 5.23 g/m*3 11.7 C 0 km/h
120 03-05-2009 23:53:58 11.8 C 5.37 g/m*3 11.8 C 0 km/h
121 04-05-2009 00:06:59 11.8 C 5.47 g/m*3 11.8 C 0 km/h
122 04-05-2009 00:18:59 11.5 C 5.47 g/m*3 11.5 C 0 km/h
123 04-05-2009 00:30:59 11.5 C 5.47 g/m*3 11.5 C 0 km/h
124 04-05-2009 00:42:59 11.2 C 5.37 g/m*3 11.2 C 0 km/h
125 04-05-2009 00:54:59 11 C 5.1 g/m*3 11 C 0 km/h
Sensor: Nr:Datum:Temp:Abs-Feuchte:Windchill:Wind:
Aussen-T/F 126 04-05-2009 01:06:59 10.7 C 5.11 g/m*3 10.7 C 0 km/h
127 04-05-2009 01:18:59 10.6 C 5.17 g/m*3 10.6 C 0 km/h
128 04-05-2009 01:30:59 10.5 C 4.95 g/m*3 10.5 C 0 km/h
129 04-05-2009 01:42:59 10.4 C 4.72 g/m*3 10.4 C 0 km/h
130 04-05-2009 01:54:59 10.2 C 4.66 g/m*3 10.2 C 0 km/h
131 04-05-2009 02:06:59 10 C 4.51 g/m*3 10 C 0 km/h
132 04-05-2009 02:18:59 9.8 C 4.55 g/m*3 9.8 C 0 km/h
133 04-05-2009 02:30:59 9.7 C 4.61 g/m*3 9.7 C 0 km/h
134 04-05-2009 02:42:59 9.3 C 4.49 g/m*3 9.3 C 0 km/h
135 04-05-2009 03:05:59 8.9 C 4.56 g/m*3 8.9 C 0 km/h
136 04-05-2009 03:17:59 8.6 C 4.55 g/m*3 8.6 C 0 km/h
137 04-05-2009 03:30:00 8.5 C 4.61 g/m*3 8.5 C 0 km/h
138 04-05-2009 03:42:00 8.3 C 4.64 g/m*3 8.3 C 0 km/h
139 04-05-2009 03:54:00 8.2 C 4.69 g/m*3 8.2 C 0 km/h
140 04-05-2009 04:06:00 8.2 C 4.69 g/m*3 8.2 C 0 km/h
141 04-05-2009 04:18:00 7.9 C 4.68 g/m*3 7.9 C 0 km/h
142 04-05-2009 04:30:00 7.8 C 4.82 g/m*3 7.8 C 0 km/h
143 04-05-2009 04:42:00 7.5 C 4.8 g/m*3 7.5 C 0 km/h
144 04-05-2009 04:54:00 7.2 C 4.79 g/m*3 7.2 C 0 km/h
145 04-05-2009 05:06:00 7 C 4.88 g/m*3 7 C 0 km/h
146 04-05-2009 05:18:00 6.9 C 4.93 g/m*3 6.9 C 0 km/h
147 04-05-2009 05:30:00 6.8 C 5.05 g/m*3 6.8 C 0 km/h
148 04-05-2009 05:42:00 7 C 4.96 g/m*3 7 C 0 km/h
149 04-05-2009 05:54:00 7.3 C 5.06 g/m*3 7.3 C 0 km/h
150 04-05-2009 06:06:00 7.4 C 5.01 g/m*3 7.4 C 0 km/h
Sensor: Nr:Datum:Temp:Abs-Feuchte:Windchill:Wind:
Aussen-T/F 151 04-05-2009 06:18:00 7.1 C 4.99 g/m*3 7.1 C 0 km/h
152 04-05-2009 06:30:00 6.9 C 5.16 g/m*3 6.9 C 0 km/h
153 04-05-2009 06:42:00 6.7 C 5.17 g/m*3 6.7 C 0 km/h
154 04-05-2009 06:54:00 6.5 C 5.17 g/m*3 6.5 C 0 km/h
155 04-05-2009 07:06:00 6.4 C 5.22 g/m*3 6.4 C 0 km/h
156 04-05-2009 07:18:00 7.1 C 5.46 g/m*3 7.1 C 0 km/h
157 04-05-2009 07:30:00 7.1 C 5.38 g/m*3 7.1 C 0 km/h
158 04-05-2009 07:30:58 7 C 5.27 g/m*3 7 C 0 km/h
159 04-05-2009 07:42:58 7.1 C 5.3 g/m*3 7.1 C 0 km/h
160 04-05-2009 07:54:58 8.1 C 5.41 g/m*3 8.1 C 0 km/h
161 04-05-2009 08:06:57 7.9 C 5.42 g/m*3 7.9 C 0 km/h
162 04-05-2009 08:18:58 7.8 C 5.47 g/m*3 7.8 C 0 km/h
163 04-05-2009 08:30:58 7.9 C 5.5 g/m*3 7.9 C 0 km/h
164 04-05-2009 08:42:58 8 C 5.37 g/m*3 8 C 0 km/h
165 04-05-2009 08:54:57 8.1 C 5.41 g/m*3 8.1 C 0 km/h
166 04-05-2009 09:06:57 8.3 C 5.31 g/m*3 8.3 C 0 km/h
167 04-05-2009 09:18:58 8.6 C 5.07 g/m*3 8.6 C 0 km/h
168 04-05-2009 09:30:57 9 C 5.2 g/m*3 9 C 0 km/h
169 04-05-2009 09:42:57 9.6 C 5.04 g/m*3 9.6 C 0 km/h
170 04-05-2009 09:54:57 9.3 C 4.76 g/m*3 9.3 C 0 km/h
171 04-05-2009 10:06:57 9.7 C 4.98 g/m*3 9.7 C 0 km/h
172 04-05-2009 10:18:57 10.8 C 4.65 g/m*3 10.8 C 0 km/h
173 04-05-2009 10:30:56 10.9 C 4.48 g/m*3 10.9 C 0 km/h
174 04-05-2009 10:42:56 10.8 C 4.55 g/m*3 10.8 C 0 km/h
175 04-05-2009 10:54:56 10.3 C 4.12 g/m*3 10.3 C 0 km/h
Sensor: Nr:Datum:Temp:Abs-Feuchte:Windchill:Wind:
Aussen-T/F 176 04-05-2009 11:06:56 11.3 C 4.49 g/m*3 11.3 C 0 km/h
177 04-05-2009 11:18:56 11.9 C 4.45 g/m*3 11.9 C 0 km/h
178 04-05-2009 11:30:56 13.4 C 4.42 g/m*3 13.4 C 0 km/h
179 04-05-2009 11:42:56 11.7 C 3.97 g/m*3 11.7 C 0 km/h
180 04-05-2009 11:54:56 12.4 C 3.93 g/m*3 12.4 C 0 km/h
181 04-05-2009 12:06:56 12.6 C 3.98 g/m*3 12.6 C 0 km/h
182 04-05-2009 12:18:55 13.2 C 4.02 g/m*3 13.2 C 0 km/h
183 04-05-2009 12:30:55 13.8 C 4.05 g/m*3 13.8 C 0 km/h
184 04-05-2009 12:42:55 14 C 3.62 g/m*3 14 C 0 km/h
185 04-05-2009 12:54:55 14 C 3.74 g/m*3 14 C 0 km/h
186 04-05-2009 13:06:55 14.6 C 3.5 g/m*3 14.6 C 0 km/h
187 04-05-2009 13:18:54 15.4 C 3.28 g/m*3 15.4 C 0 km/h
188 04-05-2009 13:30:55 15.6 C 3.46 g/m*3 15.6 C 0 km/h
189 04-05-2009 13:42:55 15.4 C 3.28 g/m*3 15.4 C 0 km/h
190 04-05-2009 13:54:54 16.2 C 2.9 g/m*3 16.2 C 0 km/h
191 04-05-2009 14:06:54 15.5 C 2.64 g/m*3 15.5 C 0 km/h
192 04-05-2009 14:18:55 15.9 C 3.25 g/m*3 15.9 C 0 km/h
193 04-05-2009 14:30:54 15.6 C 2.66 g/m*3 15.6 C 0 km/h
194 04-05-2009 14:42:54 16.8 C 3 g/m*3 16.8 C 0 km/h
195 04-05-2009 14:54:54 16.8 C 2.86 g/m*3 16.8 C 0 km/h
196 04-05-2009 15:06:54 15 C 2.56 g/m*3 15 C 0 km/h
197 04-05-2009 15:18:54 14.6 C 3.25 g/m*3 14.6 C 0 km/h
198 04-05-2009 15:30:54 16.2 C 3.31 g/m*3 16.2 C 0 km/h
199 04-05-2009 15:42:54 17.1 C 2.91 g/m*3 17.1 C 0 km/h
200 04-05-2009 15:54:54 15.2 C 2.86 g/m*3 15.2 C 0 km/h
Sensor: Nr:Datum:Temp:Abs-Feuchte:Windchill:Wind:
Aussen-T/F 201 04-05-2009 16:06:54 15.8 C 2.96 g/m*3 15.8 C 0 km/h
202 04-05-2009 16:18:53 16.8 C 3.15 g/m*3 16.8 C 0 km/h
203 04-05-2009 16:30:53 16.6 C 2.83 g/m*3 16.6 C 0 km/h
204 04-05-2009 16:42:53 15.8 C 2.96 g/m*3 15.8 C 0 km/h
205 04-05-2009 16:54:53 16.2 C 3.17 g/m*3 16.2 C 0 km/h
206 04-05-2009 17:06:53 15 C 3.08 g/m*3 15 C 0 km/h
207 04-05-2009 17:18:52 17 C 2.89 g/m*3 17 C 0 km/h
208 04-05-2009 17:30:53 16 C 2.72 g/m*3 16 C 0 km/h
209 04-05-2009 17:42:53 15.4 C 3.02 g/m*3 15.4 C 0 km/h
210 04-05-2009 17:54:53 16 C 3.13 g/m*3 16 C 0 km/h
211 04-05-2009 18:06:52 16.4 C 3.07 g/m*3 16.4 C 0 km/h
212 04-05-2009 18:18:52 17.3 C 2.95 g/m*3 17.3 C 0 km/h
213 04-05-2009 18:30:51 17.5 C 2.98 g/m*3 17.5 C 0 km/h
214 04-05-2009 18:42:51 18.7 C 3.2 g/m*3 18.7 C 0 km/h
215 04-05-2009 18:54:52 18 C 3.07 g/m*3 18 C 0 km/h
216 04-05-2009 19:06:51 18.1 C 3.09 g/m*3 18.1 C 0 km/h
217 04-05-2009 19:18:51 18.9 C 3.24 g/m*3 18.9 C 0 km/h
218 04-05-2009 19:30:52 17.9 C 3.05 g/m*3 17.9 C 0 km/h
219 04-05-2009 19:42:52 17.7 C 3.02 g/m*3 17.7 C 0 km/h
220 04-05-2009 19:54:51 16.1 C 3.56 g/m*3 16.1 C 0 km/h
221 04-05-2009 20:06:51 14.8 C 3.8 g/m*3 14.8 C 0 km/h
222 04-05-2009 20:18:51 13.8 C 3.93 g/m*3 13.8 C 0 km/h
223 04-05-2009 20:30:51 12.8 C 3.92 g/m*3 12.8 C 0 km/h
224 04-05-2009 20:42:52 12.6 C 3.98 g/m*3 12.6 C 0 km/h
225 04-05-2009 20:54:50 12.7 C 4.01 g/m*3 12.7 C 0 km/h
Sensor: Nr:Datum:Temp:Abs-Feuchte:Windchill:Wind:
Aussen-T/F 226 04-05-2009 21:06:51 12.8 C 4.03 g/m*3 12.8 C 0 km/h
227 04-05-2009 21:18:50 12.8 C 4.03 g/m*3 12.8 C 0 km/h
228 04-05-2009 21:30:50 12.8 C 4.14 g/m*3 12.8 C 0 km/h
229 04-05-2009 21:42:50 12.7 C 4.34 g/m*3 12.7 C 0 km/h
230 04-05-2009 21:54:50 12.3 C 4.34 g/m*3 12.3 C 0 km/h
231 04-05-2009 22:07:51 12.1 C 4.61 g/m*3 12.1 C 0 km/h
232 04-05-2009 22:19:51 11.9 C 4.77 g/m*3 11.9 C 0 km/h
233 04-05-2009 22:31:51 11.7 C 4.71 g/m*3 11.7 C 0 km/h
234 04-05-2009 22:43:51 11.8 C 4.74 g/m*3 11.8 C 0 km/h
235 04-05-2009 22:55:52 11.8 C 4.63 g/m*3 11.8 C 0 km/h
236 04-05-2009 23:07:52 11.7 C 4.81 g/m*3 11.7 C 0 km/h
237 04-05-2009 23:19:52 11.5 C 4.85 g/m*3 11.5 C 0 km/h
238 04-05-2009 23:31:52 11.4 C 4.72 g/m*3 11.4 C 0 km/h
239 04-05-2009 23:43:52 11.1 C 4.73 g/m*3 11.1 C 0 km/h
240 04-05-2009 23:55:52 10.8 C 4.74 g/m*3 10.8 C 0 km/h
241 05-05-2009 00:07:52 10.5 C 4.66 g/m*3 10.5 C 0 km/h
242 05-05-2009 00:19:52 10 C 4.6 g/m*3 10 C 0 km/h
243 05-05-2009 00:31:52 9.6 C 4.67 g/m*3 9.6 C 0 km/h
244 05-05-2009 00:43:52 9.3 C 4.67 g/m*3 9.3 C 0 km/h
245 05-05-2009 00:55:52 9.1 C 4.79 g/m*3 9.1 C 0 km/h
246 05-05-2009 01:07:52 8.9 C 4.73 g/m*3 8.9 C 0 km/h
247 05-05-2009 01:19:52 8.7 C 4.93 g/m*3 8.7 C 0 km/h
248 05-05-2009 01:31:52 8.4 C 5.01 g/m*3 8.4 C 0 km/h
249 05-05-2009 01:43:52 8.1 C 4.99 g/m*3 8.1 C 0 km/h
250 05-05-2009 01:55:52 8 C 4.96 g/m*3 8 C 0 km/h
Sensor: Nr:Datum:Temp:Abs-Feuchte:Windchill:Wind:
Aussen-T/F 251 05-05-2009 02:07:52 8.2 C 5.19 g/m*3 8.2 C 0 km/h
252 05-05-2009 02:19:52 8.2 C 5.28 g/m*3 8.2 C 0 km/h
253 05-05-2009 02:31:52 8.2 C 5.28 g/m*3 8.2 C 0 km/h
254 05-05-2009 02:43:52 8.2 C 5.28 g/m*3 8.2 C 0 km/h
255 05-05-2009 02:55:53 8.2 C 5.28 g/m*3 8.2 C 0 km/h
256 05-05-2009 03:07:53 7.9 C 5.42 g/m*3 7.9 C 0 km/h
257 05-05-2009 03:19:53 7.9 C 5.42 g/m*3 7.9 C 0 km/h
258 05-05-2009 03:31:53 7.8 C 5.39 g/m*3 7.8 C 0 km/h
259 05-05-2009 03:43:53 7.9 C 5.26 g/m*3 7.9 C 0 km/h
260 05-05-2009 03:55:53 7.9 C 5.17 g/m*3 7.9 C 0 km/h
261 05-05-2009 04:07:53 8 C 4.96 g/m*3 8 C 0 km/h
262 05-05-2009 04:19:53 7.9 C 5.09 g/m*3 7.9 C 0 km/h
263 05-05-2009 04:31:53 7.8 C 5.22 g/m*3 7.8 C 0 km/h
264 05-05-2009 04:43:53 7.9 C 5.17 g/m*3 7.9 C 0 km/h
265 05-05-2009 04:55:53 7.9 C 5.17 g/m*3 7.9 C 0 km/h
266 05-05-2009 05:07:53 7.9 C 5.34 g/m*3 7.9 C 0 km/h
267 05-05-2009 05:19:53 7.8 C 5.39 g/m*3 7.8 C 0 km/h
268 05-05-2009 05:31:53 7.8 C 5.47 g/m*3 7.8 C 0 km/h
269 05-05-2009 05:43:53 7.7 C 5.43 g/m*3 7.7 C 0 km/h
270 05-05-2009 05:55:53 7.9 C 5.42 g/m*3 7.9 C 0 km/h
271 05-05-2009 06:07:53 8 C 5.29 g/m*3 8 C 0 km/h
272 05-05-2009 06:19:53 8 C 5.29 g/m*3 8 C 0 km/h
273 05-05-2009 06:31:53 8.1 C 5.33 g/m*3 8.1 C 0 km/h
274 05-05-2009 06:43:53 8.2 C 5.36 g/m*3 8.2 C 0 km/h
275 05-05-2009 06:55:54 8.3 C 5.39 g/m*3 8.3 C 0 km/h
Sensor: Nr:Datum:Temp:Abs-Feuchte:Windchill:Wind:
Aussen-T/F 276 05-05-2009 07:07:54 8.5 C 5.46 g/m*3 8.5 C 0 km/h
277 05-05-2009 07:19:54 8.6 C 5.41 g/m*3 8.6 C 0 km/h
278 05-05-2009 07:31:54 8.9 C 5.43 g/m*3 8.9 C 0 km/h
279 05-05-2009 07:43:54 9.2 C 5.36 g/m*3 9.2 C 0 km/h
280 05-05-2009 07:55:54 9.4 C 5.43 g/m*3 9.4 C 0 km/h
281 05-05-2009 08:07:54 9.5 C 5.28 g/m*3 9.5 C 0 km/h
282 05-05-2009 08:19:54 9.6 C 5.13 g/m*3 9.6 C 0 km/h
283 05-05-2009 08:31:54 9.8 C 5.1 g/m*3 9.8 C 0 km/h
284 05-05-2009 08:43:54 9.9 C 5.14 g/m*3 9.9 C 0 km/h
285 05-05-2009 08:55:50 10.4 C 5.3 g/m*3 10.4 C 0 km/h
286 05-05-2009 09:07:50 10.5 C 5.14 g/m*3 10.5 C 0 km/h
287 05-05-2009 09:19:50 10.4 C 5.3 g/m*3 10.4 C 0 km/h
288 05-05-2009 09:31:50 10.6 C 5.56 g/m*3 10.6 C 0 km/h
289 05-05-2009 09:43:50 10.8 C 5.54 g/m*3 10.8 C 0 km/h
290 05-05-2009 09:55:49 11 C 5.51 g/m*3 11 C 0 km/h
291 05-05-2009 10:07:50 11.2 C 5.57 g/m*3 11.2 C 0 km/h
292 05-05-2009 10:19:50 11.3 C 5.51 g/m*3 11.3 C 0 km/h
293 05-05-2009 10:31:49 11.4 C 5.44 g/m*3 11.4 C 0 km/h
294 05-05-2009 10:43:49 12 C 5.44 g/m*3 12 C 0 km/h
295 05-05-2009 10:55:50 12 C 5.44 g/m*3 12 C 0 km/h
296 05-05-2009 11:07:49 12.4 C 5.57 g/m*3 12.4 C 0 km/h
297 05-05-2009 11:19:49 12.6 C 5.64 g/m*3 12.6 C 0 km/h
298 05-05-2009 11:31:48 12.7 C 5.9 g/m*3 12.7 C 0 km/h
299 05-05-2009 11:43:48 12.7 C 6.01 g/m*3 12.7 C 0 km/h
300 05-05-2009 11:55:49 12.8 C 6.27 g/m*3 12.8 C 0 km/h
Sensor: Nr:Datum:Temp:Abs-Feuchte:Windchill:Wind:
Aussen-T/F 301 05-05-2009 12:07:48 12.7 C 6.12 g/m*3 12.7 C 0 km/h
302 05-05-2009 12:19:48 12.9 C 6.42 g/m*3 12.9 C 0 km/h
303 05-05-2009 12:31:49 12.5 C 6.49 g/m*3 12.5 C 0 km/h
304 05-05-2009 12:43:49 12.4 C 6.66 g/m*3 12.4 C 0 km/h
305 05-05-2009 12:55:48 11.8 C 6.84 g/m*3 11.8 C 0 km/h
306 05-05-2009 13:07:48 11.8 C 6.95 g/m*3 11.8 C 0 km/h
307 05-05-2009 13:19:48 11.8 C 6.74 g/m*3 11.8 C 0 km/h
308 05-05-2009 13:31:48 12 C 6.5 g/m*3 12 C 0 km/h
309 05-05-2009 13:43:48 12.1 C 6.54 g/m*3 12.1 C 0 km/h
310 05-05-2009 13:55:47 12.6 C 6.64 g/m*3 12.6 C 0 km/h
311 05-05-2009 14:07:48 12.8 C 6.61 g/m*3 12.8 C 0 km/h
312 05-05-2009 14:19:47 12.5 C 6.6 g/m*3 12.5 C 0 km/h
313 05-05-2009 14:31:47 12.3 C 6.62 g/m*3 12.3 C 0 km/h
314 05-05-2009 14:43:47 12.4 C 6.77 g/m*3 12.4 C 0 km/h
315 05-05-2009 14:55:47 13.1 C 6.73 g/m*3 13.1 C 0 km/h
316 05-05-2009 15:07:47 13.4 C 6.74 g/m*3 13.4 C 0 km/h
317 05-05-2009 15:19:47 13.4 C 6.74 g/m*3 13.4 C 0 km/h
318 05-05-2009 15:31:46 13.1 C 6.85 g/m*3 13.1 C 0 km/h
319 05-05-2009 15:43:46 12.2 C 7.34 g/m*3 12.2 C 0 km/h
320 05-05-2009 15:55:47 11.6 C 7.8 g/m*3 11.6 C 0 km/h
321 05-05-2009 16:07:46 11.2 C 7.91 g/m*3 11.2 C 0 km/h
322 05-05-2009 16:19:46 11.2 C 8.11 g/m*3 11.2 C 0 km/h
323 05-05-2009 16:31:46 11.5 C 8.37 g/m*3 11.5 C 0 km/h
324 05-05-2009 16:43:46 11.7 C 8.26 g/m*3 11.7 C 0 km/h
325 05-05-2009 16:55:46 11.8 C 8.31 g/m*3 11.8 C 0 km/h
Sensor: Nr:Datum:Temp:Abs-Feuchte:Windchill:Wind:
Aussen-T/F 326 05-05-2009 17:07:45 11.6 C 8.21 g/m*3 11.6 C 0 km/h
327 05-05-2009 17:19:46 11.7 C 8.37 g/m*3 11.7 C 0 km/h
328 05-05-2009 17:31:46 11.8 C 8.31 g/m*3 11.8 C 0 km/h
329 05-05-2009 17:43:46 12 C 8.42 g/m*3 12 C 0 km/h
330 05-05-2009 17:55:45 11.8 C 8.42 g/m*3 11.8 C 0 km/h
331 05-05-2009 18:07:44 11.6 C 8.52 g/m*3 11.6 C 0 km/h
332 05-05-2009 18:19:45 11.5 C 8.57 g/m*3 11.5 C 0 km/h
333 05-05-2009 18:31:45 11.3 C 8.57 g/m*3 11.3 C 0 km/h
334 05-05-2009 18:43:45 11.2 C 8.72 g/m*3 11.2 C 0 km/h
335 05-05-2009 18:55:45 11.2 C 8.72 g/m*3 11.2 C 0 km/h
336 05-05-2009 19:07:45 11.2 C 8.82 g/m*3 11.2 C 0 km/h
337 05-05-2009 19:19:44 11.2 C 8.92 g/m*3 11.2 C 0 km/h
338 05-05-2009 19:31:44 11.2 C 8.92 g/m*3 11.2 C 0 km/h
339 05-05-2009 19:43:44 11.1 C 8.96 g/m*3 11.1 C 0 km/h
340 05-05-2009 19:55:44 11.1 C 8.96 g/m*3 11.1 C 0 km/h
341 05-05-2009 20:07:44 11.1 C 9.07 g/m*3 11.1 C 0 km/h
342 05-05-2009 20:19:43 11 C 9.01 g/m*3 11 C 0 km/h
343 05-05-2009 20:31:44 11.1 C 9.07 g/m*3 11.1 C 0 km/h
344 05-05-2009 20:43:44 11.1 C 9.17 g/m*3 11.1 C 0 km/h
345 05-05-2009 20:55:43 11 C 9.11 g/m*3 11 C 0 km/h
346 05-05-2009 21:07:43 11.1 C 9.17 g/m*3 11.1 C 0 km/h
347 05-05-2009 21:19:43 11.1 C 9.27 g/m*3 11.1 C 0 km/h
348 05-05-2009 21:31:43 11.2 C 9.33 g/m*3 11.2 C 0 km/h
349 05-05-2009 21:43:43 11.2 C 9.33 g/m*3 11.2 C 0 km/h
350 05-05-2009 21:55:43 11.2 C 9.33 g/m*3 11.2 C 0 km/h
Sensor: Nr:Datum:Temp:Abs-Feuchte:Windchill:Wind:
Aussen-T/F 351 05-05-2009 22:07:42 11.2 C 9.33 g/m*3 11.2 C 0 km/h
352 05-05-2009 22:19:43 11.2 C 9.33 g/m*3 11.2 C 0 km/h
353 05-05-2009 22:31:43 11.3 C 9.38 g/m*3 11.3 C 0 km/h
354 05-05-2009 22:43:43 11.4 C 9.44 g/m*3 11.4 C 0 km/h
355 05-05-2009 22:55:42 11.3 C 9.38 g/m*3 11.3 C 0 km/h
356 05-05-2009 23:07:43 11.4 C 9.44 g/m*3 11.4 C 0 km/h
357 05-05-2009 23:19:42 11.4 C 9.44 g/m*3 11.4 C 0 km/h
358 05-05-2009 23:32:43 11.4 C 9.44 g/m*3 11.4 C 0 km/h
359 05-05-2009 23:44:43 11.3 C 9.38 g/m*3 11.3 C 0 km/h
360 05-05-2009 23:56:43 11.4 C 9.44 g/m*3 11.4 C 0 km/h
361 06-05-2009 00:08:43 11.8 C 9.58 g/m*3 11.8 C 0 km/h
362 06-05-2009 00:20:43 11.9 C 9.43 g/m*3 11.9 C 0 km/h
363 06-05-2009 00:32:43 12 C 9.27 g/m*3 12 C 0 km/h
364 06-05-2009 00:44:43 12 C 9.06 g/m*3 12 C 0 km/h
365 06-05-2009 00:56:43 12.1 C 9.01 g/m*3 12.1 C 0 km/h
366 06-05-2009 01:08:43 12.2 C 8.96 g/m*3 12.2 C 0 km/h
367 06-05-2009 01:20:43 12.2 C 8.85 g/m*3 12.2 C 0 km/h
368 06-05-2009 01:32:44 12.1 C 8.79 g/m*3 12.1 C 0 km/h
369 06-05-2009 01:44:44 12.1 C 8.79 g/m*3 12.1 C 0 km/h
370 06-05-2009 01:56:44 12.1 C 8.79 g/m*3 12.1 C 0 km/h
371 06-05-2009 02:08:44 12.3 C 8.8 g/m*3 12.3 C 0 km/h
372 06-05-2009 02:20:44 12.4 C 8.74 g/m*3 12.4 C 0 km/h
373 06-05-2009 02:32:44 12.4 C 8.74 g/m*3 12.4 C 0 km/h
374 06-05-2009 02:44:44 12.4 C 8.63 g/m*3 12.4 C 0 km/h
375 06-05-2009 02:56:44 12.4 C 8.63 g/m*3 12.4 C 0 km/h
Sensor: Nr:Datum:Temp:Abs-Feuchte:Windchill:Wind:
Aussen-T/F 376 06-05-2009 03:08:44 12.2 C 8.63 g/m*3 12.2 C 0 km/h
377 06-05-2009 03:20:44 12.2 C 8.52 g/m*3 12.2 C 0 km/h
378 06-05-2009 03:32:44 12.4 C 8.3 g/m*3 12.4 C 0 km/h
379 06-05-2009 03:44:44 12.4 C 8.3 g/m*3 12.4 C 0 km/h
380 06-05-2009 03:56:44 12.4 C 8.3 g/m*3 12.4 C 0 km/h
381 06-05-2009 04:08:44 12.4 C 8.09 g/m*3 12.4 C 0 km/h
382 06-05-2009 04:20:44 12.4 C 7.98 g/m*3 12.4 C 0 km/h
383 06-05-2009 04:32:44 12.2 C 7.99 g/m*3 12.2 C 0 km/h
384 06-05-2009 04:44:44 12 C 7.99 g/m*3 12 C 0 km/h
385 06-05-2009 04:56:44 12 C 7.99 g/m*3 12 C 0 km/h
386 06-05-2009 05:08:44 12 C 7.78 g/m*3 12 C 0 km/h
387 06-05-2009 05:20:44 12 C 7.57 g/m*3 12 C 0 km/h
388 06-05-2009 05:32:45 11.9 C 7.41 g/m*3 11.9 C 0 km/h
389 06-05-2009 05:44:45 11.8 C 7.26 g/m*3 11.8 C 0 km/h
390 06-05-2009 05:56:45 11.8 C 7.05 g/m*3 11.8 C 0 km/h
391 06-05-2009 06:08:45 11.8 C 6.95 g/m*3 11.8 C 0 km/h
392 06-05-2009 06:20:45 11.8 C 7.05 g/m*3 11.8 C 0 km/h
393 06-05-2009 06:32:45 11.8 C 7.05 g/m*3 11.8 C 0 km/h
394 06-05-2009 06:44:45 11.8 C 7.16 g/m*3 11.8 C 0 km/h
395 06-05-2009 06:56:45 11.8 C 7.16 g/m*3 11.8 C 0 km/h
396 06-05-2009 07:08:45 11.8 C 6.95 g/m*3 11.8 C 0 km/h
397 06-05-2009 07:20:45 11.9 C 6.99 g/m*3 11.9 C 0 km/h
398 06-05-2009 07:32:45 12 C 6.71 g/m*3 12 C 0 km/h
399 06-05-2009 07:44:45 12.2 C 6.91 g/m*3 12.2 C 0 km/h
400 06-05-2009 07:56:45 12.3 C 6.84 g/m*3 12.3 C 0 km/h
Sensor: Nr:Datum:Temp:Abs-Feuchte:Windchill:Wind:
Aussen-T/F 401 06-05-2009 08:08:43 12.3 C 6.73 g/m*3 12.3 C 0 km/h
402 06-05-2009 08:20:43 12.3 C 6.73 g/m*3 12.3 C 0 km/h
403 06-05-2009 08:32:43 12.2 C 6.69 g/m*3 12.2 C 0 km/h
404 06-05-2009 08:44:43 12.2 C 6.69 g/m*3 12.2 C 0 km/h
405 06-05-2009 08:56:43 12.4 C 6.88 g/m*3 12.4 C 0 km/h
406 06-05-2009 09:08:42 12.3 C 6.41 g/m*3 12.3 C 0 km/h
407 06-05-2009 09:20:43 12.5 C 6.38 g/m*3 12.5 C 0 km/h
408 06-05-2009 09:32:42 13.1 C 6.73 g/m*3 13.1 C 0 km/h
409 06-05-2009 09:44:42 13.2 C 6.54 g/m*3 13.2 C 0 km/h
410 06-05-2009 09:56:43 13.7 C 6.16 g/m*3 13.7 C 0 km/h
411 06-05-2009 10:08:42 14.1 C 6.31 g/m*3 14.1 C 0 km/h
412 06-05-2009 10:20:42 14 C 6.03 g/m*3 14 C 0 km/h
413 06-05-2009 10:32:42 14.4 C 6.18 g/m*3 14.4 C 0 km/h
414 06-05-2009 10:44:41 14.1 C 5.95 g/m*3 14.1 C 0 km/h
415 06-05-2009 10:56:41 14.4 C 5.93 g/m*3 14.4 C 0 km/h
416 06-05-2009 11:08:42 14.7 C 5.92 g/m*3 14.7 C 0 km/h
417 06-05-2009 11:20:41 14.7 C 5.79 g/m*3 14.7 C 0 km/h
418 06-05-2009 11:32:41 15.2 C 5.84 g/m*3 15.2 C 0 km/h
419 06-05-2009 11:44:41 15.4 C 5.78 g/m*3 15.4 C 0 km/h
420 06-05-2009 11:56:41 15.5 C 5.82 g/m*3 15.5 C 0 km/h
421 06-05-2009 12:08:41 15.8 C 5.79 g/m*3 15.8 C 0 km/h
422 06-05-2009 12:20:40 16.2 C 5.79 g/m*3 16.2 C 0 km/h
423 06-05-2009 12:32:41 16.2 C 5.65 g/m*3 16.2 C 0 km/h
424 06-05-2009 12:44:40 16.2 C 5.93 g/m*3 16.2 C 0 km/h
425 06-05-2009 12:56:40 15.4 C 5.91 g/m*3 15.4 C 0 km/h
Sensor: Nr:Datum:Temp:Abs-Feuchte:Windchill:Wind:
Aussen-T/F 426 06-05-2009 13:08:40 15.4 C 5.91 g/m*3 15.4 C 0 km/h
427 06-05-2009 13:20:41 15.3 C 6.14 g/m*3 15.3 C 0 km/h
428 06-05-2009 13:32:40 15.4 C 6.18 g/m*3 15.4 C 0 km/h
429 06-05-2009 13:44:40 15.6 C 6.25 g/m*3 15.6 C 0 km/h
430 06-05-2009 13:56:40 15.9 C 6.23 g/m*3 15.9 C 0 km/h
431 06-05-2009 14:08:40 16 C 6.4 g/m*3 16 C 0 km/h
432 06-05-2009 14:20:40 16 C 6.13 g/m*3 16 C 0 km/h
433 06-05-2009 14:32:39 15.8 C 6.33 g/m*3 15.8 C 0 km/h
434 06-05-2009 14:44:40 15.6 C 6.38 g/m*3 15.6 C 0 km/h
435 06-05-2009 14:56:40 15.5 C 6.48 g/m*3 15.5 C 0 km/h
436 06-05-2009 15:08:39 15.4 C 6.57 g/m*3 15.4 C 0 km/h
437 06-05-2009 15:20:39 15.5 C 6.61 g/m*3 15.5 C 0 km/h
438 06-05-2009 15:32:39 15.4 C 6.57 g/m*3 15.4 C 0 km/h
439 06-05-2009 15:44:39 15.6 C 6.78 g/m*3 15.6 C 0 km/h
440 06-05-2009 15:56:39 15.7 C 6.69 g/m*3 15.7 C 0 km/h
441 06-05-2009 16:02:38 15.7 C 6.82 g/m*3 15.7 C 0 km/h
442 06-05-2009 16:17:39 15.6 C 6.78 g/m*3 15.6 C 0 km/h
443 06-05-2009 16:32:38 15.6 C 6.78 g/m*3 15.6 C 0 km/h
444 06-05-2009 16:47:38 15.7 C 6.96 g/m*3 15.7 C 0 km/h
445 06-05-2009 17:02:38 15.9 C 7.04 g/m*3 15.9 C 0 km/h
446 06-05-2009 17:17:38 15.8 C 7 g/m*3 15.8 C 0 km/h
447 06-05-2009 17:32:38 15.7 C 7.09 g/m*3 15.7 C 0 km/h
448 06-05-2009 17:47:38 15.8 C 7.13 g/m*3 15.8 C 0 km/h
449 06-05-2009 18:02:38 16 C 6.81 g/m*3 16 C 0 km/h
450 06-05-2009 18:17:37 16 C 6.81 g/m*3 16 C 0 km/h
Sensor: Nr:Datum:Temp:Abs-Feuchte:Windchill:Wind:
Aussen-T/F 451 06-05-2009 18:32:37 15.8 C 7 g/m*3 15.8 C 0 km/h
452 06-05-2009 18:47:37 15.7 C 7.09 g/m*3 15.7 C 0 km/h
453 06-05-2009 19:02:37 15.7 C 7.09 g/m*3 15.7 C 0 km/h
454 06-05-2009 19:17:36 15.6 C 7.31 g/m*3 15.6 C 0 km/h
455 06-05-2009 19:32:36 15.5 C 7.27 g/m*3 15.5 C 0 km/h
456 06-05-2009 19:47:36 15.3 C 7.18 g/m*3 15.3 C 0 km/h
457 06-05-2009 20:02:36 15.2 C 7.14 g/m*3 15.2 C 0 km/h
458 06-05-2009 20:17:36 15.1 C 7.22 g/m*3 15.1 C 0 km/h
459 06-05-2009 20:32:36 15 C 7.31 g/m*3 15 C 0 km/h
460 06-05-2009 20:47:36 14.8 C 7.35 g/m*3 14.8 C 0 km/h
461 06-05-2009 21:02:36 14.7 C 7.3 g/m*3 14.7 C 0 km/h
462 06-05-2009 21:17:01 14.6 C 7.26 g/m*3 14.6 C 0 km/h
463 06-05-2009 21:33:36 14.5 C 7.21 g/m*3 14.5 C 0 km/h
464 06-05-2009 21:48:36 14.4 C 7.17 g/m*3 14.4 C 0 km/h
465 06-05-2009 22:03:36 14.2 C 7.2 g/m*3 14.2 C 0 km/h
466 06-05-2009 22:18:36 14.3 C 7.25 g/m*3 14.3 C 0 km/h
467 06-05-2009 22:33:36 14.1 C 7.16 g/m*3 14.1 C 0 km/h
468 06-05-2009 22:48:36 14.1 C 7.16 g/m*3 14.1 C 0 km/h
469 06-05-2009 23:03:36 14 C 7.12 g/m*3 14 C 0 km/h
470 06-05-2009 23:18:36 13.9 C 7.19 g/m*3 13.9 C 0 km/h
471 06-05-2009 23:33:36 13.7 C 7.1 g/m*3 13.7 C 0 km/h
472 06-05-2009 23:48:37 13.6 C 7.06 g/m*3 13.6 C 0 km/h
473 07-05-2009 00:03:37 13.5 C 7.13 g/m*3 13.5 C 0 km/h
474 07-05-2009 00:18:37 13.4 C 7.09 g/m*3 13.4 C 0 km/h
475 07-05-2009 00:33:37 13.1 C 7.19 g/m*3 13.1 C 0 km/h
Sensor: Nr:Datum:Temp:Abs-Feuchte:Windchill:Wind:
Aussen-T/F 476 07-05-2009 00:48:37 12.8 C 7.28 g/m*3 12.8 C 0 km/h
477 07-05-2009 01:03:37 12.4 C 7.21 g/m*3 12.4 C 0 km/h
478 07-05-2009 01:18:37 12.1 C 7.29 g/m*3 12.1 C 0 km/h
479 07-05-2009 01:33:37 11.8 C 7.37 g/m*3 11.8 C 0 km/h
480 07-05-2009 01:48:37 11.6 C 7.38 g/m*3 11.6 C 0 km/h
481 07-05-2009 02:03:37 11.3 C 7.34 g/m*3 11.3 C 0 km/h
482 07-05-2009 02:18:37 11 C 7.31 g/m*3 11 C 0 km/h
483 07-05-2009 02:33:37 11 C 7.41 g/m*3 11 C 0 km/h
484 07-05-2009 02:48:37 10.9 C 7.46 g/m*3 10.9 C 0 km/h
485 07-05-2009 03:03:37 10.8 C 7.41 g/m*3 10.8 C 0 km/h
486 07-05-2009 03:18:37 10.7 C 7.37 g/m*3 10.7 C 0 km/h
487 07-05-2009 03:33:37 10.5 C 7.37 g/m*3 10.5 C 0 km/h
488 07-05-2009 03:48:37 10.3 C 7.28 g/m*3 10.3 C 0 km/h
489 07-05-2009 04:03:37 10.2 C 7.23 g/m*3 10.2 C 0 km/h
490 07-05-2009 04:18:37 10.2 C 7.33 g/m*3 10.2 C 0 km/h
491 07-05-2009 04:33:38 9.7 C 7.19 g/m*3 9.7 C 0 km/h
492 07-05-2009 04:48:38 9.3 C 7.1 g/m*3 9.3 C 0 km/h
493 07-05-2009 05:03:38 8.9 C 7.01 g/m*3 8.9 C 0 km/h
494 07-05-2009 05:18:38 8.7 C 7.01 g/m*3 8.7 C 0 km/h
495 07-05-2009 05:33:38 8.5 C 7 g/m*3 8.5 C 0 km/h
496 07-05-2009 05:48:38 8.4 C 7.04 g/m*3 8.4 C 0 km/h
497 07-05-2009 06:03:38 8.3 C 7.08 g/m*3 8.3 C 0 km/h
498 07-05-2009 06:18:38 8.2 C 7.03 g/m*3 8.2 C 0 km/h
499 07-05-2009 06:33:38 8.2 C 7.03 g/m*3 8.2 C 0 km/h
500 07-05-2009 06:48:38 8.3 C 7.16 g/m*3 8.3 C 0 km/h
Sensor: Nr:Datum:Temp:Abs-Feuchte:Windchill:Wind:
Aussen-T/F 501 07-05-2009 07:03:36 8.5 C 7.26 g/m*3 8.5 C 0 km/h
502 07-05-2009 07:18:36 8.6 C 7.39 g/m*3 8.6 C 0 km/h
503 07-05-2009 07:33:35 9.2 C 7.59 g/m*3 9.2 C 0 km/h
504 07-05-2009 07:48:36 9.9 C 7.84 g/m*3 9.9 C 0 km/h
505 07-05-2009 08:03:35 10.1 C 7.47 g/m*3 10.1 C 0 km/h
506 07-05-2009 08:18:35 10.2 C 7.52 g/m*3 10.2 C 0 km/h
507 07-05-2009 08:33:35 10.7 C 7.66 g/m*3 10.7 C 0 km/h
508 07-05-2009 08:56:02 11.4 C 7.6 g/m*3 11.4 C 0 km/h
509 07-05-2009 09:11:02 11.9 C 7.63 g/m*3 11.9 C 0 km/h
510 07-05-2009 09:26:02 12.5 C 7.48 g/m*3 12.5 C 0 km/h
511 07-05-2009 09:41:02 13 C 7.37 g/m*3 13 C 0 km/h
512 07-05-2009 09:56:02 13.5 C 7.49 g/m*3 13.5 C 0 km/h
513 07-05-2009 10:11:02 13.8 C 7.51 g/m*3 13.8 C 0 km/h
514 07-05-2009 10:26:02 14.6 C 7.38 g/m*3 14.6 C 0 km/h
515 07-05-2009 10:41:02 15 C 7.05 g/m*3 15 C 0 km/h
516 07-05-2009 10:56:02 15.4 C 7.36 g/m*3 15.4 C 0 km/h
517 07-05-2009 11:11:03 16.1 C 6.99 g/m*3 16.1 C 0 km/h
518 07-05-2009 11:26:03 16.4 C 6.98 g/m*3 16.4 C 0 km/h
519 07-05-2009 11:41:03 16.7 C 7.11 g/m*3 16.7 C 0 km/h
520 07-05-2009 11:56:03 17 C 6.66 g/m*3 17 C 0 km/h
521 07-05-2009 12:11:03 17.6 C 6.45 g/m*3 17.6 C 0 km/h
522 07-05-2009 12:26:03 17.7 C 6.49 g/m*3 17.7 C 0 km/h
523 07-05-2009 12:41:03 17.2 C 6.3 g/m*3 17.2 C 0 km/h
524 07-05-2009 12:56:03 18.5 C 6.65 g/m*3 18.5 C 0 km/h
525 07-05-2009 13:11:03 19.3 C 6.47 g/m*3 19.3 C 0 km/h
Sensor: Nr:Datum:Temp:Abs-Feuchte:Windchill:Wind:
Aussen-T/F 526 07-05-2009 13:26:03 19.7 C 6.28 g/m*3 19.7 C 0 km/h
527 07-05-2009 13:41:03 20.5 C 5.69 g/m*3 20.5 C 0 km/h
528 07-05-2009 13:56:03 20.5 C 5.69 g/m*3 20.5 C 0 km/h
529 07-05-2009 14:11:03 20.5 C 5.52 g/m*3 20.5 C 0 km/h
530 07-05-2009 14:26:03 20.3 C 5.45 g/m*3 20.3 C 0 km/h
531 07-05-2009 14:41:03 20.9 C 5.83 g/m*3 20.9 C 0 km/h
532 07-05-2009 14:56:03 21.5 C 5.85 g/m*3 21.5 C 0 km/h
533 07-05-2009 15:11:03 21.9 C 5.79 g/m*3 21.9 C 0 km/h
534 07-05-2009 15:26:03 22.7 C 5.66 g/m*3 22.7 C 0 km/h
535 07-05-2009 15:41:03 23.1 C 5.17 g/m*3 23.1 C 0 km/h
536 07-05-2009 15:56:04 24.1 C 5.47 g/m*3 24.1 C 0 km/h
537 07-05-2009 16:11:04 23.6 C 5.1 g/m*3 23.6 C 0 km/h
538 07-05-2009 16:26:04 24.5 C 5.6 g/m*3 24.5 C 0 km/h
539 07-05-2009 16:41:04 24.5 C 5.6 g/m*3 24.5 C 0 km/h
540 07-05-2009 16:56:04 24.1 C 5.47 g/m*3 24.1 C 0 km/h
541 07-05-2009 17:11:04 25.1 C 5.56 g/m*3 25.1 C 0 km/h
542 07-05-2009 17:26:04 25.4 C 5.41 g/m*3 25.4 C 0 km/h
543 07-05-2009 17:41:04 24.9 C 5.72 g/m*3 24.9 C 0 km/h
544 07-05-2009 17:56:04 26.4 C 5.73 g/m*3 26.4 C 0 km/h
545 07-05-2009 18:11:04 26 C 5.11 g/m*3 26 C 0 km/h
546 07-05-2009 18:26:04 25.5 C 4.97 g/m*3 25.5 C 0 km/h
547 07-05-2009 18:41:04 25.1 C 5.09 g/m*3 25.1 C 0 km/h
548 07-05-2009 18:56:04 25 C 5.29 g/m*3 25 C 0 km/h
549 07-05-2009 19:11:04 25.7 C 5.99 g/m*3 25.7 C 0 km/h
550 07-05-2009 19:26:04 26.4 C 5.73 g/m*3 26.4 C 0 km/h
Sensor: Nr:Datum:Temp:Abs-Feuchte:Windchill:Wind:
Aussen-T/F 551 07-05-2009 19:41:04 25.9 C 5.57 g/m*3 25.9 C 0 km/h
552 07-05-2009 19:56:04 25.5 C 5.92 g/m*3 25.5 C 0 km/h
553 07-05-2009 20:11:04 25.1 C 6.48 g/m*3 25.1 C 0 km/h
554 07-05-2009 20:26:04 24.1 C 6.56 g/m*3 24.1 C 0 km/h
555 07-05-2009 20:41:04 22.4 C 6.55 g/m*3 22.4 C 0 km/h
556 07-05-2009 20:56:04 20.8 C 6.88 g/m*3 20.8 C 0 km/h
557 07-05-2009 21:11:05 19.9 C 7.39 g/m*3 19.9 C 0 km/h
558 07-05-2009 21:26:05 19.3 C 7.3 g/m*3 19.3 C 0 km/h
559 07-05-2009 21:41:05 18.9 C 7.29 g/m*3 18.9 C 0 km/h
560 07-05-2009 21:56:05 18.6 C 7.32 g/m*3 18.6 C 0 km/h
561 07-05-2009 22:11:05 18.1 C 7.26 g/m*3 18.1 C 0 km/h
562 07-05-2009 22:26:05 17.7 C 7.39 g/m*3 17.7 C 0 km/h
563 07-05-2009 22:41:05 17.2 C 7.47 g/m*3 17.2 C 0 km/h
564 07-05-2009 22:56:05 16.8 C 7.43 g/m*3 16.8 C 0 km/h
565 07-05-2009 23:11:05 16.6 C 7.49 g/m*3 16.6 C 0 km/h
566 07-05-2009 23:26:05 16.4 C 7.68 g/m*3 16.4 C 0 km/h
567 07-05-2009 23:41:05 16 C 7.49 g/m*3 16 C 0 km/h
568 07-05-2009 23:56:05 15.7 C 7.63 g/m*3 15.7 C 0 km/h
569 08-05-2009 00:11:05 15.4 C 7.75 g/m*3 15.4 C 0 km/h
570 08-05-2009 00:26:05 14.8 C 7.85 g/m*3 14.8 C 0 km/h
571 08-05-2009 00:41:05 14.6 C 7.88 g/m*3 14.6 C 0 km/h
572 08-05-2009 00:56:05 14.4 C 7.79 g/m*3 14.4 C 0 km/h
573 08-05-2009 01:11:05 14.2 C 7.94 g/m*3 14.2 C 0 km/h
574 08-05-2009 01:26:05 13.9 C 8.15 g/m*3 13.9 C 0 km/h
575 08-05-2009 01:41:05 14 C 7.96 g/m*3 14 C 0 km/h
Sensor: Nr:Datum:Temp:Abs-Feuchte:Windchill:Wind:
Aussen-T/F 576 08-05-2009 01:56:05 13.6 C 8 g/m*3 13.6 C 0 km/h
577 08-05-2009 02:11:06 13.2 C 7.92 g/m*3 13.2 C 0 km/h
578 08-05-2009 02:26:06 13.1 C 7.99 g/m*3 13.1 C 0 km/h
579 08-05-2009 02:41:06 12.8 C 8.06 g/m*3 12.8 C 0 km/h
580 08-05-2009 02:56:06 12.7 C 8.01 g/m*3 12.7 C 0 km/h
581 08-05-2009 03:11:06 12.5 C 8.03 g/m*3 12.5 C 0 km/h
582 08-05-2009 03:26:06 12.4 C 8.09 g/m*3 12.4 C 0 km/h
583 08-05-2009 03:41:06 12.2 C 8.09 g/m*3 12.2 C 0 km/h
584 08-05-2009 03:56:06 12.4 C 8.09 g/m*3 12.4 C 0 km/h
585 08-05-2009 04:11:06 12.1 C 8.04 g/m*3 12.1 C 0 km/h
586 08-05-2009 04:26:06 12.1 C 8.04 g/m*3 12.1 C 0 km/h
587 08-05-2009 04:41:06 12.4 C 8.19 g/m*3 12.4 C 0 km/h
588 08-05-2009 04:56:06 12.2 C 8.2 g/m*3 12.2 C 0 km/h
589 08-05-2009 05:11:06 11.5 C 8.57 g/m*3 11.5 C 0 km/h
590 08-05-2009 05:26:06 11.7 C 9.2 g/m*3 11.7 C 0 km/h
591 08-05-2009 05:41:06 12 C 9.48 g/m*3 12 C 0 km/h
592 08-05-2009 05:56:06 12.6 C 10.07 g/m*3 12.6 C 0 km/h
593 08-05-2009 06:11:06 13.3 C 10.4 g/m*3 13.3 C 0 km/h
594 08-05-2009 06:26:06 13.5 C 10.18 g/m*3 13.5 C 0 km/h
595 08-05-2009 06:41:06 13.3 C 9.94 g/m*3 13.3 C 0 km/h
596 08-05-2009 06:56:06 13.2 C 9.99 g/m*3 13.2 C 0 km/h
597 08-05-2009 07:11:06 13 C 9.98 g/m*3 13 C 0 km/h
598 08-05-2009 07:26:07 13.1 C 10.16 g/m*3 13.1 C 0 km/h
599 08-05-2009 07:41:07 12.6 C 10.07 g/m*3 12.6 C 0 km/h
600 08-05-2009 07:56:07 13.4 C 10.58 g/m*3 13.4 C 0 km/h
Sensor: Nr:Datum:Temp:Abs-Feuchte:Windchill:Wind:
Aussen-T/F 601 08-05-2009 08:11:07 13.9 C 10.91 g/m*3 13.9 C 0 km/h
602 08-05-2009 08:26:07 14.4 C 11.13 g/m*3 14.4 C 0 km/h
603 08-05-2009 08:41:07 15 C 11.28 g/m*3 15 C 0 km/h
604 08-05-2009 08:56:07 15.5 C 11.24 g/m*3 15.5 C 0 km/h
605 08-05-2009 09:11:07 16.2 C 11.17 g/m*3 16.2 C 0 km/h
606 08-05-2009 09:26:07 16.6 C 11.3 g/m*3 16.6 C 0 km/h
607 08-05-2009 09:41:07 15.2 C 10.12 g/m*3 15.2 C 0 km/h
608 08-05-2009 09:56:07 15.1 C 10.45 g/m*3 15.1 C 0 km/h
609 08-05-2009 10:11:07 16 C 10.63 g/m*3 16 C 0 km/h
610 08-05-2009 10:26:07 16.3 C 10.41 g/m*3 16.3 C 0 km/h
611 08-05-2009 10:41:07 17 C 10.56 g/m*3 17 C 0 km/h
612 08-05-2009 10:56:07 18.1 C 10.35 g/m*3 18.1 C 0 km/h
613 08-05-2009 11:11:07 18.4 C 10.38 g/m*3 18.4 C 0 km/h
614 08-05-2009 11:26:07 18.9 C 10.04 g/m*3 18.9 C 0 km/h
615 08-05-2009 11:41:07 19.4 C 9.51 g/m*3 19.4 C 0 km/h
616 08-05-2009 11:56:07 19.5 C 9.4 g/m*3 19.5 C 0 km/h
617 08-05-2009 12:11:07 19.9 C 9.45 g/m*3 19.9 C 0 km/h
618 08-05-2009 12:26:08 20.5 C 9.25 g/m*3 20.5 C 0 km/h
619 08-05-2009 12:41:08 20 C 9.16 g/m*3 20 C 0 km/h
620 08-05-2009 12:56:08 20.1 C 9.04 g/m*3 20.1 C 0 km/h
621 08-05-2009 13:11:08 20 C 8.99 g/m*3 20 C 0 km/h
622 08-05-2009 13:26:08 20.2 C 8.92 g/m*3 20.2 C 0 km/h
623 08-05-2009 13:41:08 19.9 C 9.11 g/m*3 19.9 C 0 km/h
624 08-05-2009 13:56:08 21 C 8.98 g/m*3 21 C 0 km/h
625 08-05-2009 14:11:08 21 C 8.79 g/m*3 21 C 0 km/h
Sensor: Nr:Datum:Temp:Abs-Feuchte:Windchill:Wind:
Aussen-T/F 626 08-05-2009 14:26:08 21.2 C 8.52 g/m*3 21.2 C 0 km/h
627 08-05-2009 14:41:08 22.3 C 8.49 g/m*3 22.3 C 0 km/h
628 08-05-2009 14:56:08 22 C 8.15 g/m*3 22 C 0 km/h
629 08-05-2009 15:11:08 21.9 C 8.1 g/m*3 21.9 C 0 km/h
630 08-05-2009 15:26:08 22 C 7.96 g/m*3 22 C 0 km/h
631 08-05-2009 15:41:08 21.9 C 7.72 g/m*3 21.9 C 0 km/h
632 08-05-2009 15:56:08 21.1 C 7 g/m*3 21.1 C 0 km/h
633 08-05-2009 16:11:08 21.8 C 7.1 g/m*3 21.8 C 0 km/h
634 08-05-2009 16:26:08 21.3 C 6.71 g/m*3 21.3 C 0 km/h
635 08-05-2009 16:41:08 22.4 C 6.36 g/m*3 22.4 C 0 km/h
636 08-05-2009 16:56:08 22.2 C 6.48 g/m*3 22.2 C 0 km/h
637 08-05-2009 17:11:08 21.5 C 6.03 g/m*3 21.5 C 0 km/h
638 08-05-2009 17:26:08 20.9 C 6.37 g/m*3 20.9 C 0 km/h
639 08-05-2009 17:41:09 20.8 C 6.52 g/m*3 20.8 C 0 km/h
640 08-05-2009 17:56:09 21.1 C 6.45 g/m*3 21.1 C 0 km/h
641 08-05-2009 18:11:09 21.7 C 6.29 g/m*3 21.7 C 0 km/h
642 08-05-2009 18:26:09 21.4 C 6.37 g/m*3 21.4 C 0 km/h
643 08-05-2009 18:41:09 20.7 C 6.3 g/m*3 20.7 C 0 km/h
644 08-05-2009 18:56:09 19.6 C 6.42 g/m*3 19.6 C 0 km/h
645 08-05-2009 19:11:09 20.2 C 6.47 g/m*3 20.2 C 0 km/h
646 08-05-2009 19:26:09 20 C 6.39 g/m*3 20 C 0 km/h
647 08-05-2009 19:41:09 19.1 C 6.23 g/m*3 19.1 C 0 km/h
648 08-05-2009 19:56:09 18.3 C 5.79 g/m*3 18.3 C 0 km/h
649 08-05-2009 20:11:09 17.8 C 5.01 g/m*3 17.8 C 0 km/h
650 08-05-2009 20:26:09 17.7 C 5.28 g/m*3 17.7 C 0 km/h
Sensor: Nr:Datum:Temp:Abs-Feuchte:Windchill:Wind:
Aussen-T/F 651 08-05-2009 20:41:09 17.3 C 5.6 g/m*3 17.3 C 0 km/h
652 08-05-2009 20:56:09 16.9 C 5.75 g/m*3 16.9 C 0 km/h
653 08-05-2009 21:11:09 16.3 C 5.83 g/m*3 16.3 C 0 km/h
654 08-05-2009 21:26:09 15.8 C 6.19 g/m*3 15.8 C 0 km/h
655 08-05-2009 21:41:09 15.4 C 6.44 g/m*3 15.4 C 0 km/h
656 08-05-2009 21:56:09 14.7 C 6.55 g/m*3 14.7 C 0 km/h
657 08-05-2009 22:11:09 14.3 C 6.76 g/m*3 14.3 C 0 km/h
658 08-05-2009 22:26:10 14.1 C 6.67 g/m*3 14.1 C 0 km/h
659 08-05-2009 22:41:10 14.2 C 6.47 g/m*3 14.2 C 0 km/h
660 08-05-2009 22:56:10 13.9 C 6.23 g/m*3 13.9 C 0 km/h
661 08-05-2009 23:11:10 13.5 C 6.55 g/m*3 13.5 C 0 km/h
662 08-05-2009 23:26:10 13 C 6.24 g/m*3 13 C 0 km/h
663 08-05-2009 23:41:10 12.7 C 6.23 g/m*3 12.7 C 0 km/h
664 08-05-2009 23:56:10 12.4 C 6.12 g/m*3 12.4 C 0 km/h
665 09-05-2009 00:11:10 12.1 C 6.11 g/m*3 12.1 C 0 km/h
666 09-05-2009 00:26:10 11.7 C 6.38 g/m*3 11.7 C 0 km/h
667 09-05-2009 00:41:10 11.4 C 6.57 g/m*3 11.4 C 0 km/h
668 09-05-2009 00:56:10 11 C 6.71 g/m*3 11 C 0 km/h
669 09-05-2009 01:11:10 10.8 C 6.72 g/m*3 10.8 C 0 km/h
670 09-05-2009 01:26:10 10.5 C 6.6 g/m*3 10.5 C 0 km/h
671 09-05-2009 01:41:10 10.2 C 6.66 g/m*3 10.2 C 0 km/h
672 09-05-2009 01:56:10 9.9 C 6.82 g/m*3 9.9 C 0 km/h
673 09-05-2009 02:11:10 9.7 C 6.82 g/m*3 9.7 C 0 km/h
674 09-05-2009 02:26:10 9.5 C 6.83 g/m*3 9.5 C 0 km/h
675 09-05-2009 02:41:10 9.3 C 6.74 g/m*3 9.3 C 0 km/h
Sensor: Nr:Datum:Temp:Abs-Feuchte:Windchill:Wind:
Aussen-T/F 676 09-05-2009 02:56:10 9.1 C 6.65 g/m*3 9.1 C 0 km/h
677 09-05-2009 03:11:11 8.9 C 6.75 g/m*3 8.9 C 0 km/h
678 09-05-2009 03:26:11 8.6 C 6.7 g/m*3 8.6 C 0 km/h
679 09-05-2009 03:41:11 8.4 C 6.7 g/m*3 8.4 C 0 km/h
680 09-05-2009 03:56:11 8.1 C 6.57 g/m*3 8.1 C 0 km/h
681 09-05-2009 04:11:11 8 C 6.53 g/m*3 8 C 0 km/h
682 09-05-2009 04:26:11 7.9 C 6.65 g/m*3 7.9 C 0 km/h
683 09-05-2009 04:41:11 7.8 C 6.61 g/m*3 7.8 C 0 km/h
684 09-05-2009 04:56:11 7.5 C 6.64 g/m*3 7.5 C 0 km/h
685 09-05-2009 05:11:11 7.4 C 6.6 g/m*3 7.4 C 0 km/h
686 09-05-2009 05:26:11 7.5 C 6.64 g/m*3 7.5 C 0 km/h
687 09-05-2009 05:41:11 7.4 C 6.68 g/m*3 7.4 C 0 km/h
688 09-05-2009 05:56:11 7.2 C 6.59 g/m*3 7.2 C 0 km/h
689 09-05-2009 06:11:11 7.1 C 6.55 g/m*3 7.1 C 0 km/h
690 09-05-2009 06:26:11 7.2 C 6.59 g/m*3 7.2 C 0 km/h
691 09-05-2009 06:41:11 7.3 C 6.64 g/m*3 7.3 C 0 km/h
692 09-05-2009 06:56:11 7.7 C 6.81 g/m*3 7.7 C 0 km/h
693 09-05-2009 07:11:11 7.8 C 6.77 g/m*3 7.8 C 0 km/h
694 09-05-2009 07:26:11 8 C 6.78 g/m*3 8 C 0 km/h
695 09-05-2009 07:41:11 7.8 C 6.77 g/m*3 7.8 C 0 km/h
696 09-05-2009 07:56:12 8.3 C 6.91 g/m*3 8.3 C 0 km/h
697 09-05-2009 08:11:12 9 C 6.96 g/m*3 9 C 0 km/h
698 09-05-2009 08:26:12 9.5 C 6.92 g/m*3 9.5 C 0 km/h
699 09-05-2009 08:41:12 10.2 C 6.95 g/m*3 10.2 C 0 km/h
700 09-05-2009 08:56:12 10.7 C 6.97 g/m*3 10.7 C 0 km/h
Sensor: Nr:Datum:Temp:Abs-Feuchte:Windchill:Wind:
Aussen-T/F 701 09-05-2009 09:11:12 11.4 C 7.19 g/m*3 11.4 C 0 km/h
702 09-05-2009 09:26:12 12.1 C 7.18 g/m*3 12.1 C 0 km/h
703 09-05-2009 09:41:12 11.9 C 7.1 g/m*3 11.9 C 0 km/h
704 09-05-2009 09:56:12 12.6 C 7.3 g/m*3 12.6 C 0 km/h
705 09-05-2009 10:11:12 13.5 C 7.25 g/m*3 13.5 C 0 km/h
706 09-05-2009 10:26:12 14.3 C 7.25 g/m*3 14.3 C 0 km/h
707 09-05-2009 10:41:12 15 C 7.31 g/m*3 15 C 0 km/h
708 09-05-2009 10:56:12 16.1 C 7.26 g/m*3 16.1 C 0 km/h
709 09-05-2009 11:11:12 16.4 C 6.98 g/m*3 16.4 C 0 km/h
710 09-05-2009 11:26:12 17.3 C 6.78 g/m*3 17.3 C 0 km/h
711 09-05-2009 11:41:12 18 C 6.6 g/m*3 18 C 0 km/h
712 09-05-2009 11:56:12 18.6 C 6.53 g/m*3 18.6 C 0 km/h
713 09-05-2009 12:11:12 18.4 C 6.76 g/m*3 18.4 C 0 km/h
714 09-05-2009 12:26:12 18.7 C 6.72 g/m*3 18.7 C 0 km/h
715 09-05-2009 12:41:12 19.5 C 7.05 g/m*3 19.5 C 0 km/h
716 09-05-2009 12:56:13 19.3 C 6.47 g/m*3 19.3 C 0 km/h
717 09-05-2009 13:11:13 19.5 C 6.71 g/m*3 19.5 C 0 km/h
718 09-05-2009 13:26:13 20.1 C 6.43 g/m*3 20.1 C 0 km/h
719 09-05-2009 13:41:13 20.4 C 6.55 g/m*3 20.4 C 0 km/h
720 09-05-2009 13:56:13 21.1 C 6.45 g/m*3 21.1 C 0 km/h
721 09-05-2009 14:11:13 20.1 C 6.43 g/m*3 20.1 C 0 km/h
722 09-05-2009 14:26:13 19.8 C 7 g/m*3 19.8 C 0 km/h
723 09-05-2009 14:41:13 20.6 C 6.62 g/m*3 20.6 C 0 km/h
724 09-05-2009 14:56:13 21.1 C 6.63 g/m*3 21.1 C 0 km/h
725 09-05-2009 15:11:13 20.8 C 6.7 g/m*3 20.8 C 0 km/h
Sensor: Nr:Datum:Temp:Abs-Feuchte:Windchill:Wind:
Aussen-T/F 726 09-05-2009 15:26:13 20.4 C 6.9 g/m*3 20.4 C 0 km/h
727 09-05-2009 15:41:13 20.1 C 6.95 g/m*3 20.1 C 0 km/h
728 09-05-2009 15:56:13 20.8 C 7.06 g/m*3 20.8 C 0 km/h
729 09-05-2009 16:11:13 22.6 C 7.23 g/m*3 22.6 C 0 km/h
730 09-05-2009 16:26:13 22.7 C 7.07 g/m*3 22.7 C 0 km/h
731 09-05-2009 16:41:13 22.7 C 7.07 g/m*3 22.7 C 0 km/h
732 09-05-2009 16:56:13 22.6 C 7.63 g/m*3 22.6 C 0 km/h
733 09-05-2009 17:11:13 23.4 C 7.36 g/m*3 23.4 C 0 km/h
734 09-05-2009 17:26:13 23.5 C 6.98 g/m*3 23.5 C 0 km/h
735 09-05-2009 17:41:13 23.2 C 7.28 g/m*3 23.2 C 0 km/h
736 09-05-2009 17:56:14 22.4 C 7.35 g/m*3 22.4 C 0 km/h
737 09-05-2009 18:11:14 21.2 C 7.78 g/m*3 21.2 C 0 km/h
738 09-05-2009 18:26:14 21.3 C 8.2 g/m*3 21.3 C 0 km/h
739 09-05-2009 18:41:14 21.8 C 7.87 g/m*3 21.8 C 0 km/h
740 09-05-2009 18:56:14 20.9 C 8.2 g/m*3 20.9 C 0 km/h
741 09-05-2009 19:11:14 20.1 C 8.69 g/m*3 20.1 C 0 km/h
742 09-05-2009 19:26:14 17.8 C 10.47 g/m*3 17.8 C 0 km/h
743 09-05-2009 19:41:14 17 C 10.56 g/m*3 17 C 0 km/h
744 09-05-2009 19:56:14 17 C 10.56 g/m*3 17 C 0 km/h
745 09-05-2009 20:11:14 16.8 C 10.72 g/m*3 16.8 C 0 km/h
746 09-05-2009 20:26:14 15.6 C 10.91 g/m*3 15.6 C 0 km/h
747 09-05-2009 20:41:14 15.3 C 11.1 g/m*3 15.3 C 0 km/h
748 09-05-2009 20:56:14 14.9 C 11.22 g/m*3 14.9 C 0 km/h
749 09-05-2009 21:11:14 13.9 C 10.67 g/m*3 13.9 C 0 km/h
750 09-05-2009 21:26:14 13.4 C 10.46 g/m*3 13.4 C 0 km/h
Sensor: Nr:Datum:Temp:Abs-Feuchte:Windchill:Wind:
Aussen-T/F 751 09-05-2009 21:41:14 13.4 C 10.69 g/m*3 13.4 C 0 km/h
752 09-05-2009 21:56:14 13.4 C 10.81 g/m*3 13.4 C 0 km/h
753 09-05-2009 22:11:14 13.5 C 10.88 g/m*3 13.5 C 0 km/h
754 09-05-2009 22:26:14 13.5 C 10.88 g/m*3 13.5 C 0 km/h
755 09-05-2009 22:41:14 13 C 10.55 g/m*3 13 C 0 km/h
756 09-05-2009 22:56:15 13.3 C 10.86 g/m*3 13.3 C 0 km/h
757 09-05-2009 23:11:15 13.2 C 10.79 g/m*3 13.2 C 0 km/h
758 09-05-2009 23:26:15 13.1 C 10.73 g/m*3 13.1 C 0 km/h
759 09-05-2009 23:41:15 13.1 C 10.73 g/m*3 13.1 C 0 km/h
760 09-05-2009 23:56:15 13.2 C 10.79 g/m*3 13.2 C 0 km/h
761 10-05-2009 00:11:15 13.1 C 10.73 g/m*3 13.1 C 0 km/h
762 10-05-2009 00:26:15 13 C 10.66 g/m*3 13 C 0 km/h
763 10-05-2009 00:41:15 13 C 10.66 g/m*3 13 C 0 km/h
764 10-05-2009 00:56:15 13 C 10.66 g/m*3 13 C 0 km/h
765 10-05-2009 01:11:15 13 C 10.66 g/m*3 13 C 0 km/h
766 10-05-2009 01:26:15 12.9 C 10.71 g/m*3 12.9 C 0 km/h
767 10-05-2009 01:41:15 12.9 C 10.71 g/m*3 12.9 C 0 km/h
768 10-05-2009 01:56:15 12.9 C 10.71 g/m*3 12.9 C 0 km/h
769 10-05-2009 02:11:15 12.8 C 10.64 g/m*3 12.8 C 0 km/h
770 10-05-2009 02:26:15 12.6 C 10.51 g/m*3 12.6 C 0 km/h
771 10-05-2009 02:41:15 12.6 C 10.51 g/m*3 12.6 C 0 km/h
772 10-05-2009 02:56:15 12.5 C 10.44 g/m*3 12.5 C 0 km/h
773 10-05-2009 03:11:15 12.5 C 10.44 g/m*3 12.5 C 0 km/h
774 10-05-2009 03:26:15 12.5 C 10.44 g/m*3 12.5 C 0 km/h
775 10-05-2009 03:41:15 12.3 C 10.32 g/m*3 12.3 C 0 km/h
Sensor: Nr:Datum:Temp:Abs-Feuchte:Windchill:Wind:
Aussen-T/F 776 10-05-2009 03:56:16 12.2 C 10.25 g/m*3 12.2 C 0 km/h
777 10-05-2009 04:11:16 12.2 C 10.25 g/m*3 12.2 C 0 km/h
778 10-05-2009 04:26:16 12.3 C 10.32 g/m*3 12.3 C 0 km/h
779 10-05-2009 04:41:16 12.2 C 10.25 g/m*3 12.2 C 0 km/h
780 10-05-2009 04:56:16 12.2 C 10.25 g/m*3 12.2 C 0 km/h
781 10-05-2009 05:11:16 12.2 C 10.25 g/m*3 12.2 C 0 km/h
782 10-05-2009 05:26:16 12 C 10.12 g/m*3 12 C 0 km/h
783 10-05-2009 05:41:16 11.8 C 10 g/m*3 11.8 C 0 km/h
784 10-05-2009 05:56:16 12 C 10.12 g/m*3 12 C 0 km/h
785 10-05-2009 06:11:16 12 C 10.12 g/m*3 12 C 0 km/h
786 10-05-2009 06:26:16 12.2 C 10.25 g/m*3 12.2 C 0 km/h
787 10-05-2009 06:41:16 12.4 C 10.38 g/m*3 12.4 C 0 km/h
788 10-05-2009 06:56:16 12.7 C 10.58 g/m*3 12.7 C 0 km/h
789 10-05-2009 07:11:16 12.9 C 10.71 g/m*3 12.9 C 0 km/h
790 10-05-2009 07:26:16 13.1 C 10.84 g/m*3 13.1 C 0 km/h
791 10-05-2009 07:41:16 13.1 C 10.84 g/m*3 13.1 C 0 km/h
792 10-05-2009 07:56:16 13.1 C 10.84 g/m*3 13.1 C 0 km/h
793 10-05-2009 08:11:16 13.3 C 10.98 g/m*3 13.3 C 0 km/h
794 10-05-2009 08:26:16 13.3 C 10.86 g/m*3 13.3 C 0 km/h
795 10-05-2009 08:41:16 13.4 C 10.81 g/m*3 13.4 C 0 km/h
796 10-05-2009 08:56:17 13.8 C 10.84 g/m*3 13.8 C 0 km/h
797 10-05-2009 09:11:17 14.4 C 10.38 g/m*3 14.4 C 0 km/h
798 10-05-2009 09:26:17 14.5 C 9.83 g/m*3 14.5 C 0 km/h
799 10-05-2009 09:41:17 15.4 C 9.99 g/m*3 15.4 C 0 km/h
800 10-05-2009 09:56:17 15.5 C 9.78 g/m*3 15.5 C 0 km/h
Sensor: Nr:Datum:Temp:Abs-Feuchte:Windchill:Wind:
Aussen-T/F 801 10-05-2009 10:11:17 15.5 C 9.78 g/m*3 15.5 C 0 km/h
802 10-05-2009 10:26:17 15.8 C 9.83 g/m*3 15.8 C 0 km/h
803 10-05-2009 10:41:17 16.3 C 9.99 g/m*3 16.3 C 0 km/h
804 10-05-2009 10:56:17 16.8 C 9.58 g/m*3 16.8 C 0 km/h
805 10-05-2009 11:11:17 17.5 C 9.69 g/m*3 17.5 C 0 km/h
806 10-05-2009 11:26:17 17.7 C 8.75 g/m*3 17.7 C 0 km/h
807 10-05-2009 11:41:17 18.5 C 7.28 g/m*3 18.5 C 0 km/h
808 10-05-2009 11:56:17 18.9 C 6.32 g/m*3 18.9 C 0 km/h
809 10-05-2009 12:11:17 19.3 C 5.97 g/m*3 19.3 C 0 km/h
810 10-05-2009 12:26:17 19.9 C 6.01 g/m*3 19.9 C 0 km/h
811 10-05-2009 12:41:17 20.8 C 5.79 g/m*3 20.8 C 0 km/h
812 10-05-2009 12:56:17 21.6 C 5.5 g/m*3 21.6 C 0 km/h
813 10-05-2009 13:11:17 22.2 C 4.91 g/m*3 22.2 C 0 km/h
814 10-05-2009 13:26:17 22.6 C 5.22 g/m*3 22.6 C 0 km/h
815 10-05-2009 13:41:17 22.5 C 5.19 g/m*3 22.5 C 0 km/h
816 10-05-2009 13:56:18 21.8 C 5.76 g/m*3 21.8 C 0 km/h
817 10-05-2009 14:11:18 22.4 C 5.76 g/m*3 22.4 C 0 km/h
818 10-05-2009 14:26:18 23.4 C 5.89 g/m*3 23.4 C 0 km/h
819 10-05-2009 14:41:18 23.5 C 5.5 g/m*3 23.5 C 0 km/h
820 10-05-2009 14:56:18 23.9 C 5.62 g/m*3 23.9 C 0 km/h
821 10-05-2009 15:11:18 24.9 C 5.72 g/m*3 24.9 C 0 km/h
822 10-05-2009 15:26:18 25.3 C 5.15 g/m*3 25.3 C 0 km/h
823 10-05-2009 15:41:18 25.4 C 5.41 g/m*3 25.4 C 0 km/h
824 10-05-2009 15:56:18 26.3 C 5.2 g/m*3 26.3 C 0 km/h
825 10-05-2009 16:11:18 25.8 C 4.82 g/m*3 25.8 C 0 km/h
Sensor: Nr:Datum:Temp:Abs-Feuchte:Windchill:Wind:
Aussen-T/F 826 10-05-2009 16:26:18 26.8 C 5.09 g/m*3 26.8 C 0 km/h
827 10-05-2009 16:41:18 27.9 C 5.41 g/m*3 27.9 C 0 km/h
828 10-05-2009 16:56:18 28.1 C 5.47 g/m*3 28.1 C 0 km/h
829 10-05-2009 17:11:18 28.3 C 5.53 g/m*3 28.3 C 0 km/h
830 10-05-2009 17:26:18 27.7 C 5.35 g/m*3 27.7 C 0 km/h
831 10-05-2009 17:41:18 27.4 C 5.26 g/m*3 27.4 C 0 km/h
832 10-05-2009 17:56:18 27.5 C 5.29 g/m*3 27.5 C 0 km/h
833 10-05-2009 18:11:18 26.6 C 5.03 g/m*3 26.6 C 0 km/h
834 10-05-2009 18:26:18 25.5 C 5.92 g/m*3 25.5 C 0 km/h
835 10-05-2009 18:41:19 24.6 C 6.98 g/m*3 24.6 C 0 km/h
836 10-05-2009 18:56:19 24.5 C 6.71 g/m*3 24.5 C 0 km/h
837 10-05-2009 19:11:19 23.4 C 6.94 g/m*3 23.4 C 0 km/h
838 10-05-2009 19:26:19 22.5 C 7.39 g/m*3 22.5 C 0 km/h
839 10-05-2009 19:41:19 21.5 C 7.73 g/m*3 21.5 C 0 km/h
840 10-05-2009 19:56:19 20.8 C 7.79 g/m*3 20.8 C 0 km/h
841 10-05-2009 20:11:19 20.1 C 7.65 g/m*3 20.1 C 0 km/h
842 10-05-2009 20:26:19 19.6 C 7.6 g/m*3 19.6 C 0 km/h
843 10-05-2009 20:41:19 19.2 C 7.75 g/m*3 19.2 C 0 km/h
844 10-05-2009 20:56:19 19.1 C 7.7 g/m*3 19.1 C 0 km/h
845 10-05-2009 21:11:19 18.9 C 7.78 g/m*3 18.9 C 0 km/h
846 10-05-2009 21:26:19 18.1 C 8.03 g/m*3 18.1 C 0 km/h
847 10-05-2009 21:41:19 18.3 C 8.29 g/m*3 18.3 C 0 km/h
848 10-05-2009 21:56:19 16.7 C 9.81 g/m*3 16.7 C 0 km/h
849 10-05-2009 22:11:19 15.7 C 10.44 g/m*3 15.7 C 0 km/h
850 10-05-2009 22:26:19 15.7 C 11.24 g/m*3 15.7 C 0 km/h
Sensor: Nr:Datum:Temp:Abs-Feuchte:Windchill:Wind:
Aussen-T/F 851 10-05-2009 22:41:19 15.6 C 11.57 g/m*3 15.6 C 0 km/h
852 10-05-2009 22:56:19 15.6 C 11.84 g/m*3 15.6 C 0 km/h
853 10-05-2009 23:11:19 15.4 C 11.82 g/m*3 15.4 C 0 km/h
854 10-05-2009 23:26:20 15.4 C 11.96 g/m*3 15.4 C 0 km/h
855 10-05-2009 23:41:20 15.2 C 11.81 g/m*3 15.2 C 0 km/h
856 10-05-2009 23:56:20 15.1 C 11.74 g/m*3 15.1 C 0 km/h
857 11-05-2009 00:11:20 15.1 C 11.87 g/m*3 15.1 C 0 km/h
858 11-05-2009 00:26:20 15.2 C 11.94 g/m*3 15.2 C 0 km/h
859 11-05-2009 00:41:20 14.8 C 11.78 g/m*3 14.8 C 0 km/h
860 11-05-2009 00:56:20 14.7 C 11.71 g/m*3 14.7 C 0 km/h
861 11-05-2009 01:11:20 14.5 C 11.57 g/m*3 14.5 C 0 km/h
862 11-05-2009 01:26:20 14.6 C 11.64 g/m*3 14.6 C 0 km/h
863 11-05-2009 01:41:20 14.6 C 11.64 g/m*3 14.6 C 0 km/h
864 11-05-2009 01:56:20 14.6 C 11.64 g/m*3 14.6 C 0 km/h
865 11-05-2009 02:11:20 14.5 C 11.57 g/m*3 14.5 C 0 km/h
866 11-05-2009 02:26:20 14.5 C 11.57 g/m*3 14.5 C 0 km/h
867 11-05-2009 02:41:20 14.4 C 11.5 g/m*3 14.4 C 0 km/h
868 11-05-2009 02:56:20 14.3 C 11.43 g/m*3 14.3 C 0 km/h
869 11-05-2009 03:11:20 14.4 C 11.5 g/m*3 14.4 C 0 km/h
870 11-05-2009 03:26:20 14.4 C 11.5 g/m*3 14.4 C 0 km/h
871 11-05-2009 03:41:20 14.4 C 11.62 g/m*3 14.4 C 0 km/h
872 11-05-2009 03:56:20 14 C 11.22 g/m*3 14 C 0 km/h
873 11-05-2009 04:11:20 13.7 C 11.13 g/m*3 13.7 C 0 km/h
874 11-05-2009 04:26:21 13.5 C 10.99 g/m*3 13.5 C 0 km/h
875 11-05-2009 04:41:21 13.5 C 10.99 g/m*3 13.5 C 0 km/h
Sensor: Nr:Datum:Temp:Abs-Feuchte:Windchill:Wind:
Aussen-T/F 876 11-05-2009 04:56:21 13.4 C 10.93 g/m*3 13.4 C 0 km/h
877 11-05-2009 05:11:21 13.5 C 10.99 g/m*3 13.5 C 0 km/h
878 11-05-2009 05:26:21 13.7 C 11.25 g/m*3 13.7 C 0 km/h
879 11-05-2009 05:41:21 13.6 C 11.18 g/m*3 13.6 C 0 km/h
880 11-05-2009 05:56:21 13.2 C 10.79 g/m*3 13.2 C 0 km/h
881 11-05-2009 06:11:21 13.1 C 10.73 g/m*3 13.1 C 0 km/h
882 11-05-2009 06:26:21 13.4 C 11.04 g/m*3 13.4 C 0 km/h
883 11-05-2009 06:41:21 13.3 C 10.98 g/m*3 13.3 C 0 km/h
884 11-05-2009 06:56:21 13.4 C 11.04 g/m*3 13.4 C 0 km/h
885 11-05-2009 07:11:21 13.4 C 11.04 g/m*3 13.4 C 0 km/h
886 11-05-2009 07:26:21 13.5 C 11.11 g/m*3 13.5 C 0 km/h
887 11-05-2009 07:41:21 13.7 C 11.25 g/m*3 13.7 C 0 km/h
888 11-05-2009 07:56:21 13.6 C 11.18 g/m*3 13.6 C 0 km/h
889 11-05-2009 08:11:21 13.6 C 11.18 g/m*3 13.6 C 0 km/h
890 11-05-2009 08:26:21 13.7 C 11.25 g/m*3 13.7 C 0 km/h
891 11-05-2009 08:41:21 13.6 C 11.18 g/m*3 13.6 C 0 km/h
892 11-05-2009 08:56:21 13.5 C 11.11 g/m*3 13.5 C 0 km/h
893 11-05-2009 09:11:21 13.7 C 11.25 g/m*3 13.7 C 0 km/h
894 11-05-2009 09:26:21 14 C 11.46 g/m*3 14 C 0 km/h
895 11-05-2009 09:41:22 14.1 C 11.53 g/m*3 14.1 C 0 km/h
896 11-05-2009 09:56:22 14.1 C 11.53 g/m*3 14.1 C 0 km/h
897 11-05-2009 10:11:22 14.2 C 11.6 g/m*3 14.2 C 0 km/h
898 11-05-2009 10:26:22 14.5 C 11.82 g/m*3 14.5 C 0 km/h
899 11-05-2009 10:41:22 14.1 C 11.53 g/m*3 14.1 C 0 km/h
900 11-05-2009 10:56:22 14 C 11.46 g/m*3 14 C 0 km/h
Sensor: Nr:Datum:Temp:Abs-Feuchte:Windchill:Wind:
Aussen-T/F 901 11-05-2009 11:11:22 14.4 C 11.74 g/m*3 14.4 C 0 km/h
902 11-05-2009 11:26:22 14.4 C 11.74 g/m*3 14.4 C 0 km/h
903 11-05-2009 11:41:22 14.5 C 11.82 g/m*3 14.5 C 0 km/h
904 11-05-2009 11:56:22 14.6 C 11.89 g/m*3 14.6 C 0 km/h
905 11-05-2009 12:11:22 14.6 C 11.76 g/m*3 14.6 C 0 km/h
906 11-05-2009 12:26:22 14.5 C 11.69 g/m*3 14.5 C 0 km/h
907 11-05-2009 12:41:22 14.5 C 11.69 g/m*3 14.5 C 0 km/h
908 11-05-2009 12:56:22 14.3 C 11.43 g/m*3 14.3 C 0 km/h
909 11-05-2009 13:11:22 14.1 C 11.41 g/m*3 14.1 C 0 km/h
910 11-05-2009 13:26:22 13.7 C 11.13 g/m*3 13.7 C 0 km/h
911 11-05-2009 13:41:22 13.8 C 11.2 g/m*3 13.8 C 0 km/h
912 11-05-2009 13:56:22 13.8 C 11.2 g/m*3 13.8 C 0 km/h
913 11-05-2009 14:11:22 14 C 11.34 g/m*3 14 C 0 km/h
914 11-05-2009 14:26:22 13.8 C 11.2 g/m*3 13.8 C 0 km/h
915 11-05-2009 14:41:23 13.9 C 11.27 g/m*3 13.9 C 0 km/h
916 11-05-2009 14:56:23 13.7 C 11.13 g/m*3 13.7 C 0 km/h
917 11-05-2009 15:11:23 13.5 C 10.99 g/m*3 13.5 C 0 km/h
918 11-05-2009 15:26:23 13.3 C 10.74 g/m*3 13.3 C 0 km/h
919 11-05-2009 15:41:23 13.3 C 10.74 g/m*3 13.3 C 0 km/h
920 11-05-2009 15:56:23 13.2 C 10.68 g/m*3 13.2 C 0 km/h
921 11-05-2009 16:11:23 13.4 C 10.81 g/m*3 13.4 C 0 km/h
922 11-05-2009 16:26:23 13.6 C 10.95 g/m*3 13.6 C 0 km/h
923 11-05-2009 16:41:23 13.7 C 11.01 g/m*3 13.7 C 0 km/h
924 11-05-2009 16:56:23 13.6 C 10.95 g/m*3 13.6 C 0 km/h
925 11-05-2009 17:11:23 13.5 C 10.88 g/m*3 13.5 C 0 km/h
Sensor: Nr:Datum:Temp:Abs-Feuchte:Windchill:Wind:
Aussen-T/F 926 11-05-2009 17:26:23 13.5 C 10.88 g/m*3 13.5 C 0 km/h
927 11-05-2009 17:41:23 13.4 C 10.93 g/m*3 13.4 C 0 km/h
928 11-05-2009 17:56:23 13.1 C 10.73 g/m*3 13.1 C 0 km/h
929 11-05-2009 18:11:23 13.2 C 10.79 g/m*3 13.2 C 0 km/h
930 11-05-2009 18:26:23 13.2 C 10.79 g/m*3 13.2 C 0 km/h
931 11-05-2009 18:41:23 13.2 C 10.79 g/m*3 13.2 C 0 km/h
932 11-05-2009 18:56:23 13 C 10.66 g/m*3 13 C 0 km/h
933 11-05-2009 19:11:23 13 C 10.66 g/m*3 13 C 0 km/h
934 11-05-2009 19:26:23 13 C 10.66 g/m*3 13 C 0 km/h
935 11-05-2009 19:41:24 12.8 C 10.64 g/m*3 12.8 C 0 km/h
936 11-05-2009 19:56:24 12.7 C 10.58 g/m*3 12.7 C 0 km/h
937 11-05-2009 20:11:24 12.3 C 10.32 g/m*3 12.3 C 0 km/h
938 11-05-2009 20:26:24 12.3 C 10.32 g/m*3 12.3 C 0 km/h
939 11-05-2009 20:41:24 12.4 C 10.38 g/m*3 12.4 C 0 km/h
940 11-05-2009 20:56:24 12.5 C 10.44 g/m*3 12.5 C 0 km/h
941 11-05-2009 21:11:24 12.6 C 10.51 g/m*3 12.6 C 0 km/h
942 11-05-2009 21:26:24 12.6 C 10.51 g/m*3 12.6 C 0 km/h
943 11-05-2009 21:41:24 12.4 C 10.38 g/m*3 12.4 C 0 km/h
944 11-05-2009 21:56:24 12.3 C 10.32 g/m*3 12.3 C 0 km/h
945 11-05-2009 22:11:24 12.1 C 10.19 g/m*3 12.1 C 0 km/h
946 11-05-2009 22:26:24 12.1 C 10.19 g/m*3 12.1 C 0 km/h
947 11-05-2009 22:41:24 12 C 10.12 g/m*3 12 C 0 km/h
948 11-05-2009 22:56:24 11.9 C 10.06 g/m*3 11.9 C 0 km/h
949 11-05-2009 23:11:24 12 C 10.12 g/m*3 12 C 0 km/h
950 11-05-2009 23:26:24 12 C 10.12 g/m*3 12 C 0 km/h
Sensor: Nr:Datum:Temp:Abs-Feuchte:Windchill:Wind:
Aussen-T/F 951 11-05-2009 23:41:24 12 C 10.12 g/m*3 12 C 0 km/h
952 11-05-2009 23:56:24 12 C 10.12 g/m*3 12 C 0 km/h
953 12-05-2009 00:11:24 11.8 C 10 g/m*3 11.8 C 0 km/h
954 12-05-2009 00:26:24 11.8 C 10 g/m*3 11.8 C 0 km/h
955 12-05-2009 00:41:25 11.8 C 10 g/m*3 11.8 C 0 km/h
956 12-05-2009 00:56:25 11.8 C 10 g/m*3 11.8 C 0 km/h
957 12-05-2009 01:11:25 11.7 C 9.94 g/m*3 11.7 C 0 km/h
958 12-05-2009 01:26:25 11.8 C 10 g/m*3 11.8 C 0 km/h
959 12-05-2009 01:41:25 11.7 C 9.94 g/m*3 11.7 C 0 km/h
960 12-05-2009 01:56:25 11.7 C 9.83 g/m*3 11.7 C 0 km/h
961 12-05-2009 02:11:25 11.7 C 9.83 g/m*3 11.7 C 0 km/h
962 12-05-2009 02:26:25 11.6 C 9.67 g/m*3 11.6 C 0 km/h
963 12-05-2009 02:41:25 11.6 C 9.56 g/m*3 11.6 C 0 km/h
964 12-05-2009 02:56:25 11.5 C 9.5 g/m*3 11.5 C 0 km/h
965 12-05-2009 03:11:25 11.5 C 9.4 g/m*3 11.5 C 0 km/h
966 12-05-2009 03:26:25 11.4 C 9.34 g/m*3 11.4 C 0 km/h
967 12-05-2009 03:41:25 11.4 C 9.14 g/m*3 11.4 C 0 km/h
968 12-05-2009 03:56:25 11.3 C 8.98 g/m*3 11.3 C 0 km/h
969 12-05-2009 04:11:25 11.2 C 8.82 g/m*3 11.2 C 0 km/h
970 12-05-2009 04:26:25 11.1 C 8.66 g/m*3 11.1 C 0 km/h
971 12-05-2009 04:41:25 11.1 C 8.56 g/m*3 11.1 C 0 km/h
972 12-05-2009 04:56:25 11 C 8.41 g/m*3 11 C 0 km/h
973 12-05-2009 05:11:25 11 C 8.31 g/m*3 11 C 0 km/h
974 12-05-2009 05:26:26 10.9 C 8.16 g/m*3 10.9 C 0 km/h
975 12-05-2009 05:41:26 10.8 C 8.01 g/m*3 10.8 C 0 km/h
Sensor: Nr:Datum:Temp:Abs-Feuchte:Windchill:Wind:
Aussen-T/F 976 12-05-2009 05:56:26 10.6 C 8 g/m*3 10.6 C 0 km/h
977 12-05-2009 06:11:26 10.6 C 8 g/m*3 10.6 C 0 km/h
978 12-05-2009 06:26:26 10.7 C 8.05 g/m*3 10.7 C 0 km/h
979 12-05-2009 06:41:26 10.9 C 8.06 g/m*3 10.9 C 0 km/h
980 12-05-2009 06:56:26 11.1 C 8.06 g/m*3 11.1 C 0 km/h
981 12-05-2009 07:11:26 11.4 C 8.11 g/m*3 11.4 C 0 km/h
982 12-05-2009 07:26:26 11.5 C 8.06 g/m*3 11.5 C 0 km/h
983 12-05-2009 07:41:26 11.7 C 8.05 g/m*3 11.7 C 0 km/h
984 12-05-2009 07:56:26 12.1 C 8.04 g/m*3 12.1 C 0 km/h
985 12-05-2009 08:11:26 12.2 C 7.99 g/m*3 12.2 C 0 km/h
986 12-05-2009 08:26:26 12.3 C 7.93 g/m*3 12.3 C 0 km/h
987 12-05-2009 08:41:26 12.6 C 7.97 g/m*3 12.6 C 0 km/h
988 12-05-2009 08:56:26 12.7 C 8.01 g/m*3 12.7 C 0 km/h
989 12-05-2009 09:11:26 12.9 C 8 g/m*3 12.9 C 0 km/h
990 12-05-2009 09:26:26 13.5 C 7.95 g/m*3 13.5 C 0 km/h
991 12-05-2009 09:41:26 14.1 C 7.77 g/m*3 14.1 C 0 km/h
992 12-05-2009 09:56:26 13.6 C 7.77 g/m*3 13.6 C 0 km/h
993 12-05-2009 10:11:27 13.5 C 7.95 g/m*3 13.5 C 0 km/h
994 12-05-2009 10:26:27 13.2 C 7.92 g/m*3 13.2 C 0 km/h
995 12-05-2009 10:41:27 12.5 C 8.36 g/m*3 12.5 C 0 km/h
996 12-05-2009 10:56:27 12 C 8.53 g/m*3 12 C 0 km/h
997 12-05-2009 11:11:27 11.4 C 8.93 g/m*3 11.4 C 0 km/h
998 12-05-2009 11:26:27 11.4 C 9.24 g/m*3 11.4 C 0 km/h
999 12-05-2009 11:41:27 11.6 C 9.46 g/m*3 11.6 C 0 km/h
1000 12-05-2009 11:56:27 11.7 C 9.52 g/m*3 11.7 C 0 km/h
Sensor: Nr:Datum:Temp:Abs-Feuchte:Windchill:Wind:
Aussen-T/F 1001 12-05-2009 12:11:27 11.8 C 9.68 g/m*3 11.8 C 0 km/h
1002 12-05-2009 12:26:27 11.9 C 9.74 g/m*3 11.9 C 0 km/h
1003 12-05-2009 12:41:27 11.7 C 9.62 g/m*3 11.7 C 0 km/h
1004 12-05-2009 12:56:27 11.8 C 9.68 g/m*3 11.8 C 0 km/h
1005 12-05-2009 13:11:27 12.1 C 9.87 g/m*3 12.1 C 0 km/h
1006 12-05-2009 13:26:27 12 C 9.8 g/m*3 12 C 0 km/h
1007 12-05-2009 13:41:27 11.8 C 9.79 g/m*3 11.8 C 0 km/h
1008 12-05-2009 13:56:27 12.1 C 9.97 g/m*3 12.1 C 0 km/h
1009 12-05-2009 14:11:27 12.3 C 10.1 g/m*3 12.3 C 0 km/h
1010 12-05-2009 14:26:27 12 C 9.91 g/m*3 12 C 0 km/h
1011 12-05-2009 14:41:27 11.8 C 9.79 g/m*3 11.8 C 0 km/h
1012 12-05-2009 14:56:28 12.2 C 10.04 g/m*3 12.2 C 0 km/h
1013 12-05-2009 15:11:28 12.3 C 9.99 g/m*3 12.3 C 0 km/h
1014 12-05-2009 15:26:28 12.5 C 9.89 g/m*3 12.5 C 0 km/h
1015 12-05-2009 15:41:28 12.6 C 9.51 g/m*3 12.6 C 0 km/h
1016 12-05-2009 15:56:28 12.5 C 9.35 g/m*3 12.5 C 0 km/h
1017 12-05-2009 16:11:28 12.4 C 9.18 g/m*3 12.4 C 0 km/h
1018 12-05-2009 16:26:28 12.2 C 9.17 g/m*3 12.2 C 0 km/h
1019 12-05-2009 16:41:28 12 C 9.17 g/m*3 12 C 0 km/h
1020 12-05-2009 16:56:28 12 C 9.38 g/m*3 12 C 0 km/h
1021 12-05-2009 17:11:28 11.9 C 9.43 g/m*3 11.9 C 0 km/h
1022 12-05-2009 17:26:28 11.8 C 9.47 g/m*3 11.8 C 0 km/h
1023 12-05-2009 17:41:28 12.1 C 9.54 g/m*3 12.1 C 0 km/h
1024 12-05-2009 17:56:28 12.4 C 9.72 g/m*3 12.4 C 0 km/h
1025 12-05-2009 18:11:28 12.4 C 9.51 g/m*3 12.4 C 0 km/h
Sensor: Nr:Datum:Temp:Abs-Feuchte:Windchill:Wind:
Aussen-T/F 1026 12-05-2009 18:26:28 11.8 C 9.16 g/m*3 11.8 C 0 km/h
1027 12-05-2009 18:41:28 11.7 C 9.31 g/m*3 11.7 C 0 km/h
1028 12-05-2009 18:56:28 11.6 C 9.46 g/m*3 11.6 C 0 km/h
1029 12-05-2009 19:11:28 11.7 C 9.62 g/m*3 11.7 C 0 km/h
1030 12-05-2009 19:26:29 12 C 9.8 g/m*3 12 C 0 km/h
1031 12-05-2009 19:41:29 12.2 C 9.82 g/m*3 12.2 C 0 km/h
1032 12-05-2009 19:56:29 12.3 C 9.88 g/m*3 12.3 C 0 km/h
1033 12-05-2009 20:11:29 12.2 C 9.82 g/m*3 12.2 C 0 km/h
1034 12-05-2009 20:26:29 12.1 C 9.76 g/m*3 12.1 C 0 km/h
1035 12-05-2009 20:41:29 12.1 C 9.65 g/m*3 12.1 C 0 km/h
1036 12-05-2009 20:56:29 11.9 C 9.64 g/m*3 11.9 C 0 km/h
1037 12-05-2009 21:11:29 12 C 9.59 g/m*3 12 C 0 km/h
1038 12-05-2009 21:26:29 11.7 C 9.52 g/m*3 11.7 C 0 km/h
1039 12-05-2009 21:41:29 11.6 C 9.46 g/m*3 11.6 C 0 km/h
1040 12-05-2009 21:56:29 11.6 C 9.46 g/m*3 11.6 C 0 km/h
1041 12-05-2009 22:11:29 11.4 C 9.34 g/m*3 11.4 C 0 km/h
1042 12-05-2009 22:26:29 11.4 C 9.44 g/m*3 11.4 C 0 km/h
1043 12-05-2009 22:41:29 11.4 C 9.44 g/m*3 11.4 C 0 km/h
1044 12-05-2009 22:56:29 11.3 C 9.38 g/m*3 11.3 C 0 km/h
1045 12-05-2009 23:11:29 11.2 C 9.33 g/m*3 11.2 C 0 km/h
1046 12-05-2009 23:26:29 11.1 C 9.27 g/m*3 11.1 C 0 km/h
1047 12-05-2009 23:41:29 11.1 C 9.27 g/m*3 11.1 C 0 km/h
1048 12-05-2009 23:56:29 11 C 9.21 g/m*3 11 C 0 km/h
1049 13-05-2009 00:11:30 11 C 9.21 g/m*3 11 C 0 km/h
1050 13-05-2009 00:26:30 11 C 9.21 g/m*3 11 C 0 km/h
Sensor: Nr:Datum:Temp:Abs-Feuchte:Windchill:Wind:
Aussen-T/F 1051 13-05-2009 00:41:30 10.9 C 9.15 g/m*3 10.9 C 0 km/h
1052 13-05-2009 00:56:30 10.9 C 9.15 g/m*3 10.9 C 0 km/h
1053 13-05-2009 01:11:30 10.8 C 8.99 g/m*3 10.8 C 0 km/h
1054 13-05-2009 01:26:30 10.8 C 8.9 g/m*3 10.8 C 0 km/h
1055 13-05-2009 01:41:30 10.7 C 8.84 g/m*3 10.7 C 0 km/h
1056 13-05-2009 01:56:30 10.7 C 8.84 g/m*3 10.7 C 0 km/h
1057 13-05-2009 02:11:30 10.6 C 8.59 g/m*3 10.6 C 0 km/h
1058 13-05-2009 02:26:30 10.5 C 8.53 g/m*3 10.5 C 0 km/h
1059 13-05-2009 02:41:30 10.5 C 8.53 g/m*3 10.5 C 0 km/h
1060 13-05-2009 02:56:30 10.4 C 8.48 g/m*3 10.4 C 0 km/h
1061 13-05-2009 03:11:30 10.2 C 8.37 g/m*3 10.2 C 0 km/h
1062 13-05-2009 03:26:30 10.2 C 8.28 g/m*3 10.2 C 0 km/h
1063 13-05-2009 03:41:30 10.1 C 8.23 g/m*3 10.1 C 0 km/h
1064 13-05-2009 03:56:30 10.1 C 8.13 g/m*3 10.1 C 0 km/h
1065 13-05-2009 04:11:30 10.2 C 8.18 g/m*3 10.2 C 0 km/h
1066 13-05-2009 04:26:30 10.2 C 8.18 g/m*3 10.2 C 0 km/h
1067 13-05-2009 04:41:30 10.1 C 8.13 g/m*3 10.1 C 0 km/h
1068 13-05-2009 04:56:31 10.1 C 8.13 g/m*3 10.1 C 0 km/h
1069 13-05-2009 05:11:31 10.1 C 8.13 g/m*3 10.1 C 0 km/h
1070 13-05-2009 05:26:31 10.2 C 8.18 g/m*3 10.2 C 0 km/h
1071 13-05-2009 05:41:31 10.1 C 8.13 g/m*3 10.1 C 0 km/h
1072 13-05-2009 05:56:31 10.2 C 8.18 g/m*3 10.2 C 0 km/h
1073 13-05-2009 06:11:31 10.2 C 8.18 g/m*3 10.2 C 0 km/h
1074 13-05-2009 06:26:31 10.3 C 8.24 g/m*3 10.3 C 0 km/h
1075 13-05-2009 06:41:31 10.5 C 8.34 g/m*3 10.5 C 0 km/h
Sensor: Nr:Datum:Temp:Abs-Feuchte:Windchill:Wind:
Aussen-T/F 1076 13-05-2009 06:56:31 10.7 C 8.45 g/m*3 10.7 C 0 km/h
1077 13-05-2009 07:11:31 11 C 8.51 g/m*3 11 C 0 km/h
1078 13-05-2009 07:26:31 11.2 C 8.51 g/m*3 11.2 C 0 km/h
1079 13-05-2009 07:41:31 11.8 C 8.53 g/m*3 11.8 C 0 km/h
1080 13-05-2009 07:56:31 12.4 C 7.65 g/m*3 12.4 C 0 km/h
1081 13-05-2009 08:11:31 12.9 C 7.66 g/m*3 12.9 C 0 km/h
1082 13-05-2009 08:26:31 13 C 7.48 g/m*3 13 C 0 km/h
1083 13-05-2009 08:41:31 13.4 C 7.79 g/m*3 13.4 C 0 km/h
1084 13-05-2009 08:56:31 13.3 C 7.51 g/m*3 13.3 C 0 km/h
1085 13-05-2009 09:11:31 13.4 C 7.56 g/m*3 13.4 C 0 km/h
1086 13-05-2009 09:26:31 13.6 C 7.65 g/m*3 13.6 C 0 km/h
1087 13-05-2009 09:41:32 13.8 C 7.51 g/m*3 13.8 C 0 km/h
1088 13-05-2009 09:56:32 14.1 C 7.4 g/m*3 14.1 C 0 km/h
1089 13-05-2009 10:11:32 15.3 C 7.44 g/m*3 15.3 C 0 km/h
1090 13-05-2009 10:26:32 15.8 C 7.54 g/m*3 15.8 C 0 km/h
1091 13-05-2009 10:41:32 15.9 C 7.31 g/m*3 15.9 C 0 km/h
1092 13-05-2009 10:56:32 16.7 C 7.53 g/m*3 16.7 C 0 km/h
1093 13-05-2009 11:11:32 17.4 C 7.56 g/m*3 17.4 C 0 km/h
1094 13-05-2009 11:26:32 18.8 C 7.73 g/m*3 18.8 C 0 km/h
1095 13-05-2009 11:41:32 19.3 C 7.46 g/m*3 19.3 C 0 km/h
1096 13-05-2009 11:56:32 19.1 C 7.87 g/m*3 19.1 C 0 km/h
1097 13-05-2009 12:11:32 19.5 C 7.72 g/m*3 19.5 C 0 km/h
1098 13-05-2009 12:26:32 20.1 C 7.82 g/m*3 20.1 C 0 km/h
1099 13-05-2009 12:41:32 20.5 C 7.83 g/m*3 20.5 C 0 km/h
1100 13-05-2009 12:56:32 21.1 C 7.55 g/m*3 21.1 C 0 km/h
Sensor: Nr:Datum:Temp:Abs-Feuchte:Windchill:Wind:
Aussen-T/F 1101 13-05-2009 13:11:32 21.3 C 7.83 g/m*3 21.3 C 0 km/h
1102 13-05-2009 13:26:32 21.1 C 7.55 g/m*3 21.1 C 0 km/h
1103 13-05-2009 13:41:32 21.4 C 7.87 g/m*3 21.4 C 0 km/h
1104 13-05-2009 13:56:32 22 C 7.38 g/m*3 22 C 0 km/h
1105 13-05-2009 14:11:32 22.2 C 7.85 g/m*3 22.2 C 0 km/h
1106 13-05-2009 14:26:33 22.4 C 7.94 g/m*3 22.4 C 0 km/h
1107 13-05-2009 14:41:33 22.9 C 7.97 g/m*3 22.9 C 0 km/h
1108 13-05-2009 14:56:33 22.7 C 8.28 g/m*3 22.7 C 0 km/h
1109 13-05-2009 15:11:33 23.3 C 7.74 g/m*3 23.3 C 0 km/h
1110 13-05-2009 15:26:33 22.7 C 8.08 g/m*3 22.7 C 0 km/h
1111 13-05-2009 15:41:33 22.7 C 8.28 g/m*3 22.7 C 0 km/h
1112 13-05-2009 15:56:33 21.7 C 8.2 g/m*3 21.7 C 0 km/h
1113 13-05-2009 16:11:33 22 C 7.96 g/m*3 22 C 0 km/h
1114 13-05-2009 16:26:33 21.1 C 8.48 g/m*3 21.1 C 0 km/h
1115 13-05-2009 16:41:33 20.7 C 9.36 g/m*3 20.7 C 0 km/h
1116 13-05-2009 16:56:33 20.4 C 9.91 g/m*3 20.4 C 0 km/h
1117 13-05-2009 17:11:33 20.2 C 8.74 g/m*3 20.2 C 0 km/h
1118 13-05-2009 17:26:33 19.7 C 9.68 g/m*3 19.7 C 0 km/h
1119 13-05-2009 17:41:33 19.3 C 9.62 g/m*3 19.3 C 0 km/h
1120 13-05-2009 17:56:33 19.1 C 9.18 g/m*3 19.1 C 0 km/h
1121 13-05-2009 18:11:33 19.1 C 9.34 g/m*3 19.1 C 0 km/h
1122 13-05-2009 18:26:33 18.7 C 9.29 g/m*3 18.7 C 0 km/h
1123 13-05-2009 18:41:33 18.3 C 9.22 g/m*3 18.3 C 0 km/h
1124 13-05-2009 18:56:33 18.3 C 9.54 g/m*3 18.3 C 0 km/h
1125 13-05-2009 19:11:34 18.3 C 9.54 g/m*3 18.3 C 0 km/h
Sensor: Nr:Datum:Temp:Abs-Feuchte:Windchill:Wind:
Aussen-T/F 1126 13-05-2009 19:26:34 18.4 C 9.91 g/m*3 18.4 C 0 km/h
1127 13-05-2009 19:41:34 18.5 C 9.97 g/m*3 18.5 C 0 km/h
1128 13-05-2009 19:56:34 18.4 C 10.22 g/m*3 18.4 C 0 km/h
1129 13-05-2009 20:11:34 17.9 C 10.38 g/m*3 17.9 C 0 km/h
1130 13-05-2009 20:26:34 17.5 C 10.29 g/m*3 17.5 C 0 km/h
1131 13-05-2009 20:41:34 17.1 C 10.34 g/m*3 17.1 C 0 km/h
1132 13-05-2009 20:56:34 16.8 C 10.29 g/m*3 16.8 C 0 km/h
1133 13-05-2009 21:11:34 16.2 C 10.07 g/m*3 16.2 C 0 km/h
1134 13-05-2009 21:26:34 15.9 C 10.16 g/m*3 15.9 C 0 km/h
1135 13-05-2009 21:41:34 15.6 C 10.11 g/m*3 15.6 C 0 km/h
1136 13-05-2009 21:56:34 15.1 C 9.93 g/m*3 15.1 C 0 km/h
1137 13-05-2009 22:11:34 14.8 C 10.01 g/m*3 14.8 C 0 km/h
1138 13-05-2009 22:26:34 14.6 C 10.01 g/m*3 14.6 C 0 km/h
1139 13-05-2009 22:41:34 14.5 C 9.95 g/m*3 14.5 C 0 km/h
1140 13-05-2009 22:56:34 14.4 C 10.01 g/m*3 14.4 C 0 km/h
1141 13-05-2009 23:11:34 14.4 C 10.01 g/m*3 14.4 C 0 km/h
1142 13-05-2009 23:26:34 14.2 C 9.89 g/m*3 14.2 C 0 km/h
1143 13-05-2009 23:41:34 14 C 9.89 g/m*3 14 C 0 km/h
1144 13-05-2009 23:56:34 14.1 C 9.95 g/m*3 14.1 C 0 km/h
1145 14-05-2009 00:11:35 14 C 10.01 g/m*3 14 C 0 km/h
1146 14-05-2009 00:26:35 14 C 10.01 g/m*3 14 C 0 km/h
1147 14-05-2009 00:41:35 13.8 C 9.89 g/m*3 13.8 C 0 km/h
1148 14-05-2009 00:56:35 13.8 C 9.89 g/m*3 13.8 C 0 km/h
1149 14-05-2009 01:11:35 13.7 C 9.83 g/m*3 13.7 C 0 km/h
1150 14-05-2009 01:26:35 13.5 C 9.71 g/m*3 13.5 C 0 km/h
Sensor: Nr:Datum:Temp:Abs-Feuchte:Windchill:Wind:
Aussen-T/F 1151 14-05-2009 01:41:35 13.4 C 9.65 g/m*3 13.4 C 0 km/h
1152 14-05-2009 01:56:35 13.2 C 9.53 g/m*3 13.2 C 0 km/h
1153 14-05-2009 02:11:35 13.1 C 9.59 g/m*3 13.1 C 0 km/h
1154 14-05-2009 02:26:35 13 C 9.53 g/m*3 13 C 0 km/h
1155 14-05-2009 02:41:35 12.9 C 9.58 g/m*3 12.9 C 0 km/h
1156 14-05-2009 02:56:35 13 C 9.53 g/m*3 13 C 0 km/h
1157 14-05-2009 03:11:35 13.3 C 9.7 g/m*3 13.3 C 0 km/h
1158 14-05-2009 03:26:35 13.4 C 9.65 g/m*3 13.4 C 0 km/h
1159 14-05-2009 03:41:35 13.2 C 9.42 g/m*3 13.2 C 0 km/h
1160 14-05-2009 03:56:35 13.1 C 9.36 g/m*3 13.1 C 0 km/h
1161 14-05-2009 04:11:35 13.1 C 9.13 g/m*3 13.1 C 0 km/h
1162 14-05-2009 04:26:35 13.2 C 8.84 g/m*3 13.2 C 0 km/h
1163 14-05-2009 04:41:35 13.4 C 8.6 g/m*3 13.4 C 0 km/h
1164 14-05-2009 04:56:36 13.4 C 8.49 g/m*3 13.4 C 0 km/h
1165 14-05-2009 05:11:36 13.5 C 8.66 g/m*3 13.5 C 0 km/h
1166 14-05-2009 05:26:36 13.5 C 8.54 g/m*3 13.5 C 0 km/h
1167 14-05-2009 05:41:36 13.4 C 8.72 g/m*3 13.4 C 0 km/h
1168 14-05-2009 05:56:36 13.3 C 8.66 g/m*3 13.3 C 0 km/h
1169 14-05-2009 06:11:36 13.2 C 8.73 g/m*3 13.2 C 0 km/h
1170 14-05-2009 06:26:36 13.3 C 8.66 g/m*3 13.3 C 0 km/h
1171 14-05-2009 06:41:36 13.4 C 8.6 g/m*3 13.4 C 0 km/h
1172 14-05-2009 06:56:36 13.6 C 8.36 g/m*3 13.6 C 0 km/h
1173 14-05-2009 07:11:36 13.7 C 8.64 g/m*3 13.7 C 0 km/h
1174 14-05-2009 07:26:36 13.8 C 8.82 g/m*3 13.8 C 0 km/h
1175 14-05-2009 07:41:36 13.8 C 8.82 g/m*3 13.8 C 0 km/h
Sensor: Nr:Datum:Temp:Abs-Feuchte:Windchill:Wind:
Aussen-T/F 1176 14-05-2009 07:56:36 13.7 C 8.76 g/m*3 13.7 C 0 km/h
1177 14-05-2009 08:11:36 13.7 C 8.76 g/m*3 13.7 C 0 km/h
1178 14-05-2009 08:26:36 13.9 C 8.75 g/m*3 13.9 C 0 km/h
1179 14-05-2009 08:41:36 14.4 C 8.53 g/m*3 14.4 C 0 km/h
1180 14-05-2009 08:56:36 14.5 C 8.71 g/m*3 14.5 C 0 km/h
1181 14-05-2009 09:11:36 14.7 C 8.81 g/m*3 14.7 C 0 km/h
1182 14-05-2009 09:26:36 15 C 8.59 g/m*3 15 C 0 km/h
1183 14-05-2009 09:41:37 15.1 C 7.74 g/m*3 15.1 C 0 km/h
1184 14-05-2009 09:56:37 15.5 C 8.06 g/m*3 15.5 C 0 km/h
1185 14-05-2009 10:11:37 15.5 C 8.06 g/m*3 15.5 C 0 km/h
1186 14-05-2009 10:26:37 15.5 C 8.46 g/m*3 15.5 C 0 km/h
1187 14-05-2009 10:41:37 15.6 C 8.11 g/m*3 15.6 C 0 km/h
1188 14-05-2009 10:56:37 15.6 C 7.98 g/m*3 15.6 C 0 km/h
1189 14-05-2009 11:11:37 15.8 C 7.94 g/m*3 15.8 C 0 km/h
1190 14-05-2009 11:26:37 16.3 C 8.19 g/m*3 16.3 C 0 km/h
1191 14-05-2009 11:41:37 16.9 C 8.2 g/m*3 16.9 C 0 km/h
1192 14-05-2009 11:56:37 17.2 C 8.2 g/m*3 17.2 C 0 km/h
1193 14-05-2009 12:11:37 17 C 8.39 g/m*3 17 C 0 km/h
1194 14-05-2009 12:26:37 17 C 8.54 g/m*3 17 C 0 km/h
1195 14-05-2009 12:41:37 17.4 C 8.45 g/m*3 17.4 C 0 km/h
1196 14-05-2009 12:56:37 17.5 C 8.8 g/m*3 17.5 C 0 km/h
1197 14-05-2009 13:11:37 17.5 C 8.65 g/m*3 17.5 C 0 km/h
1198 14-05-2009 13:26:37 17.9 C 8.7 g/m*3 17.9 C 0 km/h
1199 14-05-2009 13:41:37 18.4 C 8.65 g/m*3 18.4 C 0 km/h
1200 14-05-2009 13:56:37 18.9 C 8.59 g/m*3 18.9 C 0 km/h
Sensor: Nr:Datum:Temp:Abs-Feuchte:Windchill:Wind:
Aussen-T/F 1201 14-05-2009 14:11:37 19.9 C 8.42 g/m*3 19.9 C 0 km/h
1202 14-05-2009 14:26:38 21.1 C 8.29 g/m*3 21.1 C 0 km/h
1203 14-05-2009 14:41:38 21.5 C 8.11 g/m*3 21.5 C 0 km/h
1204 14-05-2009 14:56:38 22.3 C 7.9 g/m*3 22.3 C 0 km/h
1205 14-05-2009 15:11:38 21.2 C 8.34 g/m*3 21.2 C 0 km/h
1206 14-05-2009 15:26:38 21.1 C 8.29 g/m*3 21.1 C 0 km/h
1207 14-05-2009 15:41:38 22 C 8.54 g/m*3 22 C 0 km/h
1208 14-05-2009 15:56:38 24.9 C 8.01 g/m*3 24.9 C 0 km/h
1209 14-05-2009 16:11:38 25.4 C 7.53 g/m*3 25.4 C 0 km/h
1210 14-05-2009 16:26:38 23 C 7.81 g/m*3 23 C 0 km/h
1211 14-05-2009 16:41:38 21.8 C 8.44 g/m*3 21.8 C 0 km/h
1212 14-05-2009 16:56:38 20.5 C 8.54 g/m*3 20.5 C 0 km/h
1213 14-05-2009 17:11:38 20.2 C 8.57 g/m*3 20.2 C 0 km/h
1214 14-05-2009 17:26:38 19.6 C 8.95 g/m*3 19.6 C 0 km/h
1215 14-05-2009 17:41:38 19.6 C 8.95 g/m*3 19.6 C 0 km/h
1216 14-05-2009 17:56:38 19.3 C 9.29 g/m*3 19.3 C 0 km/h
1217 14-05-2009 18:11:38 19.1 C 9.51 g/m*3 19.1 C 0 km/h
1218 14-05-2009 18:26:38 19 C 9.13 g/m*3 19 C 0 km/h
1219 14-05-2009 18:41:38 18.9 C 9.56 g/m*3 18.9 C 0 km/h
1220 14-05-2009 18:56:38 18.7 C 9.77 g/m*3 18.7 C 0 km/h
1221 14-05-2009 19:11:39 18.3 C 9.38 g/m*3 18.3 C 0 km/h
1222 14-05-2009 19:26:39 18 C 9.52 g/m*3 18 C 0 km/h
1223 14-05-2009 19:41:39 17.4 C 9.93 g/m*3 17.4 C 0 km/h
1224 14-05-2009 19:56:39 16.4 C 10.61 g/m*3 16.4 C 0 km/h
1225 14-05-2009 20:11:39 16 C 11.04 g/m*3 16 C 0 km/h
Sensor: Nr:Datum:Temp:Abs-Feuchte:Windchill:Wind:
Aussen-T/F 1226 14-05-2009 20:26:39 15.6 C 11.3 g/m*3 15.6 C 0 km/h
1227 14-05-2009 20:41:39 15.6 C 11.44 g/m*3 15.6 C 0 km/h
1228 14-05-2009 20:56:39 15.3 C 11.36 g/m*3 15.3 C 0 km/h
1229 14-05-2009 21:11:39 15.3 C 11.49 g/m*3 15.3 C 0 km/h
1230 14-05-2009 21:26:39 15.1 C 11.35 g/m*3 15.1 C 0 km/h
1231 14-05-2009 21:41:39 15 C 11.41 g/m*3 15 C 0 km/h
1232 14-05-2009 21:56:39 14.5 C 11.19 g/m*3 14.5 C 0 km/h
1233 14-05-2009 22:11:39 14.1 C 10.92 g/m*3 14.1 C 0 km/h
1234 14-05-2009 22:26:39 14 C 10.98 g/m*3 14 C 0 km/h
1235 14-05-2009 22:41:39 13.6 C 10.83 g/m*3 13.6 C 0 km/h
1236 14-05-2009 22:56:39 13.6 C 10.83 g/m*3 13.6 C 0 km/h
1237 14-05-2009 23:11:39 13.3 C 10.74 g/m*3 13.3 C 0 km/h
1238 14-05-2009 23:26:39 13.2 C 10.68 g/m*3 13.2 C 0 km/h
1239 14-05-2009 23:41:39 13.2 C 10.68 g/m*3 13.2 C 0 km/h
1240 14-05-2009 23:56:40 13 C 10.55 g/m*3 13 C 0 km/h
1241 15-05-2009 00:11:40 12.9 C 10.59 g/m*3 12.9 C 0 km/h
1242 15-05-2009 00:26:40 12.9 C 10.59 g/m*3 12.9 C 0 km/h
1243 15-05-2009 00:41:40 12.7 C 10.46 g/m*3 12.7 C 0 km/h
1244 15-05-2009 00:56:40 12.8 C 10.53 g/m*3 12.8 C 0 km/h
1245 15-05-2009 01:11:40 12.9 C 10.59 g/m*3 12.9 C 0 km/h
1246 15-05-2009 01:26:40 13 C 10.43 g/m*3 13 C 0 km/h
1247 15-05-2009 01:41:40 13.1 C 10.5 g/m*3 13.1 C 0 km/h
1248 15-05-2009 01:56:40 13 C 10.43 g/m*3 13 C 0 km/h
1249 15-05-2009 02:11:40 13.1 C 10.38 g/m*3 13.1 C 0 km/h
1250 15-05-2009 02:26:40 13.1 C 10.38 g/m*3 13.1 C 0 km/h
Sensor: Nr:Datum:Temp:Abs-Feuchte:Windchill:Wind:
Aussen-T/F 1251 15-05-2009 02:41:40 13.1 C 10.38 g/m*3 13.1 C 0 km/h
1252 15-05-2009 02:56:40 13.1 C 10.38 g/m*3 13.1 C 0 km/h
1253 15-05-2009 03:11:40 13.1 C 10.38 g/m*3 13.1 C 0 km/h
1254 15-05-2009 03:26:40 13.2 C 10.45 g/m*3 13.2 C 0 km/h
1255 15-05-2009 03:41:40 13.3 C 10.51 g/m*3 13.3 C 0 km/h
1256 15-05-2009 03:56:40 13.2 C 10.45 g/m*3 13.2 C 0 km/h
1257 15-05-2009 04:11:40 13.4 C 10.69 g/m*3 13.4 C 0 km/h
1258 15-05-2009 04:26:40 13.4 C 10.58 g/m*3 13.4 C 0 km/h
1259 15-05-2009 04:41:41 13.4 C 10.58 g/m*3 13.4 C 0 km/h
1260 15-05-2009 04:56:41 13.4 C 10.69 g/m*3 13.4 C 0 km/h
1261 15-05-2009 05:11:41 13.5 C 10.76 g/m*3 13.5 C 0 km/h
1262 15-05-2009 05:26:41 13.6 C 10.83 g/m*3 13.6 C 0 km/h
1263 15-05-2009 05:41:41 13.7 C 10.89 g/m*3 13.7 C 0 km/h
1264 15-05-2009 05:56:41 13.8 C 10.96 g/m*3 13.8 C 0 km/h
1265 15-05-2009 06:11:41 13.7 C 10.78 g/m*3 13.7 C 0 km/h
1266 15-05-2009 06:26:41 13.8 C 10.84 g/m*3 13.8 C 0 km/h
1267 15-05-2009 06:41:41 14.1 C 11.04 g/m*3 14.1 C 0 km/h
1268 15-05-2009 06:56:41 14.4 C 11.13 g/m*3 14.4 C 0 km/h
1269 15-05-2009 07:11:41 14.6 C 11.26 g/m*3 14.6 C 0 km/h
1270 15-05-2009 07:26:41 14.6 C 11.14 g/m*3 14.6 C 0 km/h
1271 15-05-2009 07:41:41 14.7 C 11.21 g/m*3 14.7 C 0 km/h
1272 15-05-2009 07:56:41 15 C 11.41 g/m*3 15 C 0 km/h
1273 15-05-2009 08:11:41 15.8 C 12.11 g/m*3 15.8 C 0 km/h
1274 15-05-2009 08:26:41 16.3 C 11.93 g/m*3 16.3 C 0 km/h
1275 15-05-2009 08:41:41 16.4 C 11.17 g/m*3 16.4 C 0 km/h
Sensor: Nr:Datum:Temp:Abs-Feuchte:Windchill:Wind:
Aussen-T/F 1276 15-05-2009 08:56:41 16.5 C 10.67 g/m*3 16.5 C 0 km/h
1277 15-05-2009 09:11:41 16.7 C 10.8 g/m*3 16.7 C 0 km/h
1278 15-05-2009 09:26:41 16.7 C 10.23 g/m*3 16.7 C 0 km/h
1279 15-05-2009 09:41:42 16.8 C 10.29 g/m*3 16.8 C 0 km/h
1280 15-05-2009 09:56:02 17.2 C 9.96 g/m*3 17.2 C 0 km/h
1281 15-05-2009 10:11:01 17.1 C 9.9 g/m*3 17.1 C 0 km/h
1282 15-05-2009 10:26:02 17.9 C 9.77 g/m*3 17.9 C 0 km/h
1283 15-05-2009 10:41:02 18.4 C 9.59 g/m*3 18.4 C 0 km/h
1284 15-05-2009 10:56:01 18.6 C 9.71 g/m*3 18.6 C 0 km/h
1285 15-05-2009 11:11:02 19.3 C 9.29 g/m*3 19.3 C 0 km/h
1286 15-05-2009 11:26:02 20.1 C 9.04 g/m*3 20.1 C 0 km/h
1287 15-05-2009 11:41:01 20.6 C 9.31 g/m*3 20.6 C 0 km/h
1288 15-05-2009 11:56:01 20.6 C 8.95 g/m*3 20.6 C 0 km/h
1289 15-05-2009 12:11:01 19.9 C 8.59 g/m*3 19.9 C 0 km/h
1290 15-05-2009 12:26:00 20 C 8.64 g/m*3 20 C 0 km/h
1291 15-05-2009 12:41:00 20.4 C 8.49 g/m*3 20.4 C 0 km/h
1292 15-05-2009 12:56:00 19.2 C 8.9 g/m*3 19.2 C 0 km/h
1293 15-05-2009 13:11:00 17.5 C 9.84 g/m*3 17.5 C 0 km/h
1294 15-05-2009 13:26:00 17 C 10.42 g/m*3 17 C 0 km/h
1295 15-05-2009 13:41:00 17.5 C 10.59 g/m*3 17.5 C 0 km/h
1296 15-05-2009 13:56:59 18.2 C 10.26 g/m*3 18.2 C 0 km/h
1297 15-05-2009 14:10:59 17.8 C 9.71 g/m*3 17.8 C 0 km/h
1298 15-05-2009 14:26:00 17.9 C 10.08 g/m*3 17.9 C 0 km/h
1299 15-05-2009 14:41:59 17.3 C 9.87 g/m*3 17.3 C 0 km/h
1300 15-05-2009 14:56:59 16.9 C 9.49 g/m*3 16.9 C 0 km/h
Sensor: Nr:Datum:Temp:Abs-Feuchte:Windchill:Wind:
Aussen-T/F 1301 15-05-2009 15:11:59 16.5 C 9.97 g/m*3 16.5 C 0 km/h
1302 15-05-2009 15:26:59 15.9 C 10.43 g/m*3 15.9 C 0 km/h
1303 15-05-2009 15:41:58 16.7 C 11.23 g/m*3 16.7 C 0 km/h
1304 15-05-2009 15:56:59 17.6 C 11.4 g/m*3 17.6 C 0 km/h
1305 15-05-2009 16:11:59 18.3 C 10.94 g/m*3 18.3 C 0 km/h
1306 15-05-2009 16:26:58 18.4 C 10.7 g/m*3 18.4 C 0 km/h
1307 15-05-2009 16:41:58 18.2 C 10.72 g/m*3 18.2 C 0 km/h
1308 15-05-2009 16:56:58 18.3 C 10.79 g/m*3 18.3 C 0 km/h
1309 15-05-2009 17:11:58 18 C 10.75 g/m*3 18 C 0 km/h
1310 15-05-2009 17:26:57 16.3 C 9.43 g/m*3 16.3 C 0 km/h
1311 15-05-2009 17:41:57 16.4 C 10.05 g/m*3 16.4 C 0 km/h
1312 15-05-2009 17:49:57 16.2 C 10.2 g/m*3 16.2 C 0 km/h
1313 15-05-2009 18:01:57 15.9 C 10.16 g/m*3 15.9 C 0 km/h
1314 15-05-2009 18:13:57 15.7 C 10.17 g/m*3 15.7 C 0 km/h
1315 15-05-2009 18:25:57 15.5 C 9.91 g/m*3 15.5 C 0 km/h
1316 15-05-2009 18:37:56 15.3 C 9.92 g/m*3 15.3 C 0 km/h
1317 15-05-2009 18:49:57 14.5 C 9.33 g/m*3 14.5 C 0 km/h
1318 15-05-2009 19:01:56 14.1 C 9.22 g/m*3 14.1 C 0 km/h
1319 15-05-2009 19:13:56 13.8 C 9.41 g/m*3 13.8 C 0 km/h
1320 15-05-2009 19:25:56 13.7 C 9.59 g/m*3 13.7 C 0 km/h
1321 15-05-2009 19:37:57 13.5 C 9.71 g/m*3 13.5 C 0 km/h
1322 15-05-2009 19:49:56 13.5 C 9.83 g/m*3 13.5 C 0 km/h
1323 15-05-2009 20:01:56 13.5 C 9.83 g/m*3 13.5 C 0 km/h
1324 15-05-2009 20:13:56 13.3 C 9.82 g/m*3 13.3 C 0 km/h
1325 15-05-2009 20:25:56 13.2 C 9.76 g/m*3 13.2 C 0 km/h
Sensor: Nr:Datum:Temp:Abs-Feuchte:Windchill:Wind:
Aussen-T/F 1326 15-05-2009 20:37:56 13.2 C 9.76 g/m*3 13.2 C 0 km/h
1327 15-05-2009 20:49:55 13.1 C 9.81 g/m*3 13.1 C 0 km/h
1328 15-05-2009 21:01:56 12.8 C 9.74 g/m*3 12.8 C 0 km/h
1329 15-05-2009 21:13:56 12.7 C 9.8 g/m*3 12.7 C 0 km/h
1330 15-05-2009 21:25:55 12.5 C 9.68 g/m*3 12.5 C 0 km/h
1331 15-05-2009 21:37:55 12.5 C 9.78 g/m*3 12.5 C 0 km/h
1332 15-05-2009 21:49:55 12.5 C 9.78 g/m*3 12.5 C 0 km/h
1333 15-05-2009 22:01:55 12.5 C 9.89 g/m*3 12.5 C 0 km/h
1334 15-05-2009 22:13:55 12.5 C 9.89 g/m*3 12.5 C 0 km/h
1335 15-05-2009 22:25:55 12.5 C 10 g/m*3 12.5 C 0 km/h
1336 15-05-2009 22:37:54 12.5 C 10 g/m*3 12.5 C 0 km/h
1337 15-05-2009 22:49:55 12.6 C 10.07 g/m*3 12.6 C 0 km/h
1338 15-05-2009 23:01:54 12.6 C 10.07 g/m*3 12.6 C 0 km/h
1339 15-05-2009 23:13:54 12.5 C 10 g/m*3 12.5 C 0 km/h
1340 15-05-2009 23:25:54 12.4 C 9.94 g/m*3 12.4 C 0 km/h
1341 15-05-2009 23:37:54 12.2 C 9.71 g/m*3 12.2 C 0 km/h
1342 15-05-2009 23:49:54 12.4 C 9.4 g/m*3 12.4 C 0 km/h
1343 16-05-2009 00:01:53 12.4 C 8.96 g/m*3 12.4 C 0 km/h
1344 16-05-2009 00:13:53 12.3 C 8.8 g/m*3 12.3 C 0 km/h
1345 16-05-2009 00:25:54 12.3 C 8.9 g/m*3 12.3 C 0 km/h
1346 16-05-2009 00:37:53 12.3 C 8.9 g/m*3 12.3 C 0 km/h
1347 16-05-2009 00:49:54 12.2 C 8.74 g/m*3 12.2 C 0 km/h
1348 16-05-2009 01:01:53 12.1 C 8.58 g/m*3 12.1 C 0 km/h
1349 16-05-2009 01:13:53 12 C 8.63 g/m*3 12 C 0 km/h
1350 16-05-2009 01:25:53 11.4 C 8.52 g/m*3 11.4 C 0 km/h
Sensor: Nr:Datum:Temp:Abs-Feuchte:Windchill:Wind:
Aussen-T/F 1351 16-05-2009 01:37:52 11.1 C 8.46 g/m*3 11.1 C 0 km/h
1352 16-05-2009 01:49:53 10.8 C 8.3 g/m*3 10.8 C 0 km/h
1353 16-05-2009 02:01:53 10.5 C 8.05 g/m*3 10.5 C 0 km/h
1354 16-05-2009 02:13:53 10.3 C 8.04 g/m*3 10.3 C 0 km/h
1355 16-05-2009 02:25:52 10 C 7.89 g/m*3 10 C 0 km/h
1356 16-05-2009 02:37:53 9.7 C 8.02 g/m*3 9.7 C 0 km/h
1357 16-05-2009 02:50:53 9.6 C 8.06 g/m*3 9.6 C 0 km/h
1358 16-05-2009 03:02:53 9.6 C 8.15 g/m*3 9.6 C 0 km/h
1359 16-05-2009 03:14:54 9.4 C 8.05 g/m*3 9.4 C 0 km/h
1360 16-05-2009 03:26:54 9.3 C 8 g/m*3 9.3 C 0 km/h
1361 16-05-2009 03:38:53 9.3 C 8.09 g/m*3 9.3 C 0 km/h
1362 16-05-2009 03:50:53 9.2 C 8.04 g/m*3 9.2 C 0 km/h
1363 16-05-2009 04:02:53 9.1 C 7.99 g/m*3 9.1 C 0 km/h
1364 16-05-2009 04:14:53 9.1 C 7.99 g/m*3 9.1 C 0 km/h
1365 16-05-2009 04:26:53 9.4 C 8.05 g/m*3 9.4 C 0 km/h
1366 16-05-2009 04:38:53 9.4 C 7.96 g/m*3 9.4 C 0 km/h
1367 16-05-2009 04:50:53 8.9 C 7.8 g/m*3 8.9 C 0 km/h
1368 16-05-2009 05:02:52 8.7 C 7.7 g/m*3 8.7 C 0 km/h
1369 16-05-2009 05:14:52 8.4 C 7.55 g/m*3 8.4 C 0 km/h
1370 16-05-2009 05:26:52 8.3 C 7.5 g/m*3 8.3 C 0 km/h
1371 16-05-2009 05:38:52 8.2 C 7.45 g/m*3 8.2 C 0 km/h
1372 16-05-2009 05:50:52 8.1 C 7.41 g/m*3 8.1 C 0 km/h
1373 16-05-2009 06:02:52 8 C 7.36 g/m*3 8 C 0 km/h
1374 16-05-2009 06:14:51 8 C 7.36 g/m*3 8 C 0 km/h
1375 16-05-2009 06:26:51 8 C 7.36 g/m*3 8 C 0 km/h
Sensor: Nr:Datum:Temp:Abs-Feuchte:Windchill:Wind:
Aussen-T/F 1376 16-05-2009 06:38:52 8.2 C 7.45 g/m*3 8.2 C 0 km/h
1377 16-05-2009 06:50:51 8.4 C 7.47 g/m*3 8.4 C 0 km/h
1378 16-05-2009 07:02:52 8.6 C 7.48 g/m*3 8.6 C 0 km/h
1379 16-05-2009 07:14:51 8.9 C 7.45 g/m*3 8.9 C 0 km/h
1380 16-05-2009 07:26:51 8.9 C 7.53 g/m*3 8.9 C 0 km/h
1381 16-05-2009 07:38:51 9 C 7.58 g/m*3 9 C 0 km/h
1382 16-05-2009 07:50:51 9.2 C 7.59 g/m*3 9.2 C 0 km/h
1383 16-05-2009 08:02:51 9.5 C 7.65 g/m*3 9.5 C 0 km/h
1384 16-05-2009 08:14:50 9.8 C 7.7 g/m*3 9.8 C 0 km/h
1385 16-05-2009 08:26:50 10.7 C 7.37 g/m*3 10.7 C 0 km/h
1386 16-05-2009 08:38:50 10.9 C 6.96 g/m*3 10.9 C 0 km/h
1387 16-05-2009 08:50:50 10.9 C 7.06 g/m*3 10.9 C 0 km/h
1388 16-05-2009 09:02:50 10.9 C 7.06 g/m*3 10.9 C 0 km/h
1389 16-05-2009 09:14:50 11.2 C 7.2 g/m*3 11.2 C 0 km/h
1390 16-05-2009 09:26:50 11.7 C 7.22 g/m*3 11.7 C 0 km/h
1391 16-05-2009 09:38:50 12 C 7.14 g/m*3 12 C 0 km/h
1392 16-05-2009 09:50:50 12.6 C 7.19 g/m*3 12.6 C 0 km/h
1393 16-05-2009 10:02:49 12.4 C 6.99 g/m*3 12.4 C 0 km/h
1394 16-05-2009 10:14:49 12.8 C 6.61 g/m*3 12.8 C 0 km/h
1395 16-05-2009 10:26:49 12.8 C 6.61 g/m*3 12.8 C 0 km/h
1396 16-05-2009 10:38:49 13.6 C 6.59 g/m*3 13.6 C 0 km/h
1397 16-05-2009 10:50:49 13.8 C 6.2 g/m*3 13.8 C 0 km/h
1398 16-05-2009 11:02:48 13.7 C 6.39 g/m*3 13.7 C 0 km/h
1399 16-05-2009 11:14:49 13.6 C 6.24 g/m*3 13.6 C 0 km/h
1400 16-05-2009 11:26:49 13.6 C 6.24 g/m*3 13.6 C 0 km/h
Sensor: Nr:Datum:Temp:Abs-Feuchte:Windchill:Wind:
Aussen-T/F 1401 16-05-2009 11:38:49 14.1 C 6.07 g/m*3 14.1 C 0 km/h
1402 16-05-2009 11:50:48 14.6 C 6.13 g/m*3 14.6 C 0 km/h
1403 16-05-2009 12:02:49 15.8 C 6.19 g/m*3 15.8 C 0 km/h
1404 16-05-2009 12:14:48 15.8 C 5.65 g/m*3 15.8 C 0 km/h
1405 16-05-2009 12:26:48 16.2 C 5.52 g/m*3 16.2 C 0 km/h
1406 16-05-2009 12:38:48 17 C 5.5 g/m*3 17 C 0 km/h
1407 16-05-2009 12:50:48 16.7 C 5.12 g/m*3 16.7 C 0 km/h
1408 16-05-2009 13:02:48 16.8 C 5.29 g/m*3 16.8 C 0 km/h
1409 16-05-2009 13:14:47 16.4 C 5.16 g/m*3 16.4 C 0 km/h
1410 16-05-2009 13:26:47 15.8 C 5.52 g/m*3 15.8 C 0 km/h
1411 16-05-2009 13:38:47 16.6 C 5.65 g/m*3 16.6 C 0 km/h
1412 16-05-2009 13:50:47 17.1 C 5.39 g/m*3 17.1 C 0 km/h
1413 16-05-2009 14:02:47 17.7 C 5.43 g/m*3 17.7 C 0 km/h
1414 16-05-2009 14:14:47 17.1 C 5.39 g/m*3 17.1 C 0 km/h
1415 16-05-2009 14:26:47 17 C 5.5 g/m*3 17 C 0 km/h
1416 16-05-2009 14:38:47 17.4 C 5.48 g/m*3 17.4 C 0 km/h
1417 16-05-2009 14:50:47 17.4 C 5.48 g/m*3 17.4 C 0 km/h
1418 16-05-2009 15:02:46 17.8 C 5.77 g/m*3 17.8 C 0 km/h
1419 16-05-2009 15:14:46 18.2 C 5.75 g/m*3 18.2 C 0 km/h
1420 16-05-2009 15:26:46 17.6 C 5.55 g/m*3 17.6 C 0 km/h
1421 16-05-2009 15:38:47 17.8 C 5.77 g/m*3 17.8 C 0 km/h
1422 16-05-2009 15:50:46 17.6 C 6 g/m*3 17.6 C 0 km/h
1423 16-05-2009 16:02:46 17.4 C 5.93 g/m*3 17.4 C 0 km/h
1424 16-05-2009 16:14:46 17.7 C 6.04 g/m*3 17.7 C 0 km/h
1425 16-05-2009 16:26:46 17.7 C 6.04 g/m*3 17.7 C 0 km/h
Sensor: Nr:Datum:Temp:Abs-Feuchte:Windchill:Wind:
Aussen-T/F 1426 16-05-2009 16:38:46 19.1 C 5.9 g/m*3 19.1 C 0 km/h
1427 16-05-2009 16:50:45 19 C 5.7 g/m*3 19 C 0 km/h
1428 16-05-2009 17:02:46 19.1 C 6.07 g/m*3 19.1 C 0 km/h
1429 16-05-2009 17:14:45 18.7 C 5.92 g/m*3 18.7 C 0 km/h
1430 16-05-2009 17:26:45 18.2 C 5.91 g/m*3 18.2 C 0 km/h
1431 16-05-2009 17:38:45 18.5 C 6.01 g/m*3 18.5 C 0 km/h
1432 16-05-2009 17:50:45 18.2 C 6.06 g/m*3 18.2 C 0 km/h
1433 16-05-2009 18:02:45 20.4 C 5.84 g/m*3 20.4 C 0 km/h
1434 16-05-2009 18:14:45 20.7 C 5.76 g/m*3 20.7 C 0 km/h
1435 16-05-2009 18:26:45 20.9 C 5.83 g/m*3 20.9 C 0 km/h
1436 16-05-2009 18:38:48 21 C 5.68 g/m*3 21 C 0 km/h
1437 16-05-2009 18:50:44 20.7 C 6.12 g/m*3 20.7 C 0 km/h
1438 16-05-2009 19:02:44 21.6 C 6.07 g/m*3 21.6 C 0 km/h
1439 16-05-2009 19:14:44 20.8 C 6.16 g/m*3 20.8 C 0 km/h
1440 16-05-2009 19:26:44 20.7 C 5.94 g/m*3 20.7 C 0 km/h
1441 16-05-2009 19:38:44 20.2 C 6.29 g/m*3 20.2 C 0 km/h
1442 16-05-2009 19:50:43 19.3 C 7.13 g/m*3 19.3 C 0 km/h
1443 16-05-2009 20:02:44 18.7 C 7.2 g/m*3 18.7 C 0 km/h
1444 16-05-2009 20:14:44 17.7 C 7.69 g/m*3 17.7 C 0 km/h
1445 16-05-2009 20:26:44 17.3 C 7.96 g/m*3 17.3 C 0 km/h
1446 16-05-2009 20:38:43 16.7 C 7.82 g/m*3 16.7 C 0 km/h
1447 16-05-2009 20:50:44 16.1 C 7.54 g/m*3 16.1 C 0 km/h
1448 16-05-2009 21:02:43 15.6 C 7.71 g/m*3 15.6 C 0 km/h
1449 16-05-2009 21:14:43 15.2 C 7.4 g/m*3 15.2 C 0 km/h
1450 16-05-2009 21:26:43 14.4 C 7.54 g/m*3 14.4 C 0 km/h
Sensor: Nr:Datum:Temp:Abs-Feuchte:Windchill:Wind:
Aussen-T/F 1451 16-05-2009 21:38:42 14.1 C 7.52 g/m*3 14.1 C 0 km/h
1452 16-05-2009 21:50:43 13.5 C 7.49 g/m*3 13.5 C 0 km/h
1453 16-05-2009 22:02:43 13.3 C 7.51 g/m*3 13.3 C 0 km/h
1454 16-05-2009 22:14:42 13.3 C 7.51 g/m*3 13.3 C 0 km/h
1455 16-05-2009 22:26:42 13.2 C 7.81 g/m*3 13.2 C 0 km/h
1456 16-05-2009 22:38:43 13.1 C 7.76 g/m*3 13.1 C 0 km/h
1457 16-05-2009 22:50:42 13.1 C 7.65 g/m*3 13.1 C 0 km/h
1458 16-05-2009 23:02:42 13.1 C 7.65 g/m*3 13.1 C 0 km/h
1459 16-05-2009 23:14:41 13.2 C 7.81 g/m*3 13.2 C 0 km/h
1460 16-05-2009 23:26:41 13.5 C 7.49 g/m*3 13.5 C 0 km/h
1461 16-05-2009 23:38:42 13.8 C 7.39 g/m*3 13.8 C 0 km/h
1462 16-05-2009 23:50:41 14 C 7.12 g/m*3 14 C 0 km/h
1463 17-05-2009 00:02:41 14 C 7 g/m*3 14 C 0 km/h
1464 17-05-2009 00:14:41 13.9 C 7.19 g/m*3 13.9 C 0 km/h
1465 17-05-2009 00:26:41 13.9 C 7.31 g/m*3 13.9 C 0 km/h
1466 17-05-2009 00:38:41 13.9 C 7.31 g/m*3 13.9 C 0 km/h
1467 17-05-2009 00:50:41 13.6 C 7.41 g/m*3 13.6 C 0 km/h
1468 17-05-2009 01:02:41 13.4 C 7.32 g/m*3 13.4 C 0 km/h
1469 17-05-2009 01:14:40 13.5 C 7.37 g/m*3 13.5 C 0 km/h
1470 17-05-2009 01:26:40 13.7 C 7.22 g/m*3 13.7 C 0 km/h
1471 17-05-2009 01:38:41 13.6 C 7.3 g/m*3 13.6 C 0 km/h
1472 17-05-2009 01:50:40 13.4 C 7.21 g/m*3 13.4 C 0 km/h
1473 17-05-2009 02:02:40 13.6 C 7.3 g/m*3 13.6 C 0 km/h
1474 17-05-2009 02:14:40 13.5 C 7.37 g/m*3 13.5 C 0 km/h
1475 17-05-2009 02:26:40 13.2 C 7.35 g/m*3 13.2 C 0 km/h
Sensor: Nr:Datum:Temp:Abs-Feuchte:Windchill:Wind:
Aussen-T/F 1476 17-05-2009 02:38:40 13.1 C 7.42 g/m*3 13.1 C 0 km/h
1477 17-05-2009 02:51:01 12.8 C 7.5 g/m*3 12.8 C 0 km/h
1478 17-05-2009 03:03:01 12.6 C 7.41 g/m*3 12.6 C 0 km/h
1479 17-05-2009 03:15:01 12.1 C 7.4 g/m*3 12.1 C 0 km/h
1480 17-05-2009 03:27:02 11.8 C 7.37 g/m*3 11.8 C 0 km/h
1481 17-05-2009 03:39:01 11.6 C 7.48 g/m*3 11.6 C 0 km/h
1482 17-05-2009 03:51:01 11.5 C 7.54 g/m*3 11.5 C 0 km/h
1483 17-05-2009 04:03:01 11.6 C 7.48 g/m*3 11.6 C 0 km/h
1484 17-05-2009 04:15:02 11.5 C 7.54 g/m*3 11.5 C 0 km/h
1485 17-05-2009 04:27:02 12.1 C 7.18 g/m*3 12.1 C 0 km/h
1486 17-05-2009 04:39:01 12.2 C 7.12 g/m*3 12.2 C 0 km/h
1487 17-05-2009 04:51:01 11.9 C 7.31 g/m*3 11.9 C 0 km/h
1488 17-05-2009 05:03:01 11.7 C 7.43 g/m*3 11.7 C 0 km/h
1489 17-05-2009 05:15:01 11.3 C 7.34 g/m*3 11.3 C 0 km/h
1490 17-05-2009 05:27:01 11 C 7.41 g/m*3 11 C 0 km/h
1491 17-05-2009 05:39:01 10.8 C 7.41 g/m*3 10.8 C 0 km/h
1492 17-05-2009 05:51:02 10.7 C 7.46 g/m*3 10.7 C 0 km/h
1493 17-05-2009 06:03:01 10.7 C 7.46 g/m*3 10.7 C 0 km/h
1494 17-05-2009 06:15:02 10.6 C 7.52 g/m*3 10.6 C 0 km/h
1495 17-05-2009 06:27:02 10.5 C 7.57 g/m*3 10.5 C 0 km/h
1496 17-05-2009 06:39:01 10.8 C 7.71 g/m*3 10.8 C 0 km/h
1497 17-05-2009 06:51:02 11.1 C 7.76 g/m*3 11.1 C 0 km/h
1498 17-05-2009 07:03:01 11.4 C 7.8 g/m*3 11.4 C 0 km/h
1499 17-05-2009 07:15:01 11.9 C 8.05 g/m*3 11.9 C 0 km/h
1500 17-05-2009 07:27:01 12.1 C 7.94 g/m*3 12.1 C 0 km/h
Sensor: Nr:Datum:Temp:Abs-Feuchte:Windchill:Wind:
Aussen-T/F 1501 17-05-2009 07:39:02 12.1 C 7.72 g/m*3 12.1 C 0 km/h
1502 17-05-2009 07:51:02 12.1 C 7.61 g/m*3 12.1 C 0 km/h
1503 17-05-2009 08:03:01 11.7 C 7.95 g/m*3 11.7 C 0 km/h
1504 17-05-2009 08:15:02 11.4 C 8.11 g/m*3 11.4 C 0 km/h
1505 17-05-2009 08:27:02 11.9 C 8.68 g/m*3 11.9 C 0 km/h
1506 17-05-2009 08:39:01 12.1 C 8.69 g/m*3 12.1 C 0 km/h
1507 17-05-2009 08:51:02 12.4 C 8.96 g/m*3 12.4 C 0 km/h
1508 17-05-2009 09:03:01 12.8 C 9.07 g/m*3 12.8 C 0 km/h
1509 17-05-2009 09:15:01 13.3 C 9.13 g/m*3 13.3 C 0 km/h
1510 17-05-2009 09:27:01 13.8 C 9.17 g/m*3 13.8 C 0 km/h
1511 17-05-2009 09:39:01 14.4 C 8.53 g/m*3 14.4 C 0 km/h
1512 17-05-2009 09:51:01 15.2 C 8.7 g/m*3 15.2 C 0 km/h
1513 17-05-2009 10:03:02 15.7 C 8.43 g/m*3 15.7 C 0 km/h
1514 17-05-2009 10:15:01 15.3 C 8.1 g/m*3 15.3 C 0 km/h
1515 17-05-2009 10:27:01 15.4 C 7.88 g/m*3 15.4 C 0 km/h
1516 17-05-2009 10:39:02 16.3 C 7.91 g/m*3 16.3 C 0 km/h
1517 17-05-2009 10:51:01 17.5 C 8.05 g/m*3 17.5 C 0 km/h
1518 17-05-2009 11:03:02 17.9 C 8.24 g/m*3 17.9 C 0 km/h
1519 17-05-2009 11:15:01 18.5 C 8.23 g/m*3 18.5 C 0 km/h
1520 17-05-2009 11:27:01 18.6 C 7.8 g/m*3 18.6 C 0 km/h
1521 17-05-2009 11:39:01 20 C 8.64 g/m*3 20 C 0 km/h
1522 17-05-2009 11:51:01 21.2 C 8.52 g/m*3 21.2 C 0 km/h
1523 17-05-2009 12:03:01 22.3 C 8.29 g/m*3 22.3 C 0 km/h
1524 17-05-2009 12:15:02 21.9 C 7.72 g/m*3 21.9 C 0 km/h
1525 17-05-2009 12:27:02 21.3 C 8.39 g/m*3 21.3 C 0 km/h
Sensor: Nr:Datum:Temp:Abs-Feuchte:Windchill:Wind:
Aussen-T/F 1526 17-05-2009 12:39:01 20.4 C 8.49 g/m*3 20.4 C 0 km/h
1527 17-05-2009 12:51:02 21.3 C 8.39 g/m*3 21.3 C 0 km/h
1528 17-05-2009 13:03:01 22 C 8.35 g/m*3 22 C 0 km/h
1529 17-05-2009 13:15:02 22.7 C 8.28 g/m*3 22.7 C 0 km/h
1530 17-05-2009 13:27:02 22.2 C 7.85 g/m*3 22.2 C 0 km/h
1531 17-05-2009 13:39:01 23.3 C 7.95 g/m*3 23.3 C 0 km/h
1532 17-05-2009 13:51:01 22.8 C 7.72 g/m*3 22.8 C 0 km/h
1533 17-05-2009 14:03:01 22.4 C 7.94 g/m*3 22.4 C 0 km/h
1534 17-05-2009 14:15:01 22 C 7.76 g/m*3 22 C 0 km/h
1535 17-05-2009 14:27:01 21.3 C 7.46 g/m*3 21.3 C 0 km/h
1536 17-05-2009 14:39:02 21.2 C 7.6 g/m*3 21.2 C 0 km/h
1537 17-05-2009 14:51:01 21.4 C 7.69 g/m*3 21.4 C 0 km/h
1538 17-05-2009 15:03:02 21.9 C 7.72 g/m*3 21.9 C 0 km/h
1539 17-05-2009 15:15:01 22.8 C 7.92 g/m*3 22.8 C 0 km/h
1540 17-05-2009 15:27:01 23 C 7.6 g/m*3 23 C 0 km/h
1541 17-05-2009 15:39:01 23.4 C 7.78 g/m*3 23.4 C 0 km/h
1542 17-05-2009 15:51:01 23.3 C 7.32 g/m*3 23.3 C 0 km/h
1543 17-05-2009 16:03:01 23.5 C 6.98 g/m*3 23.5 C 0 km/h
1544 17-05-2009 16:15:01 23.4 C 6.73 g/m*3 23.4 C 0 km/h
1545 17-05-2009 16:27:01 23.9 C 6.92 g/m*3 23.9 C 0 km/h
1546 17-05-2009 16:39:01 23.5 C 6.56 g/m*3 23.5 C 0 km/h
1547 17-05-2009 16:51:01 24.2 C 5.94 g/m*3 24.2 C 0 km/h
1548 17-05-2009 17:03:01 24.1 C 6.13 g/m*3 24.1 C 0 km/h
1549 17-05-2009 17:15:02 24.1 C 6.13 g/m*3 24.1 C 0 km/h
1550 17-05-2009 17:27:02 24.5 C 6.27 g/m*3 24.5 C 0 km/h
Sensor: Nr:Datum:Temp:Abs-Feuchte:Windchill:Wind:
Aussen-T/F 1551 17-05-2009 17:39:01 24 C 6.53 g/m*3 24 C 0 km/h
1552 17-05-2009 17:51:02 23.3 C 6.48 g/m*3 23.3 C 0 km/h
1553 17-05-2009 18:03:01 22.9 C 6.54 g/m*3 22.9 C 0 km/h
1554 17-05-2009 18:15:01 22.1 C 6.64 g/m*3 22.1 C 0 km/h
1555 17-05-2009 18:27:02 21 C 6.41 g/m*3 21 C 0 km/h
1556 17-05-2009 18:39:01 20.9 C 6.74 g/m*3 20.9 C 0 km/h
1557 17-05-2009 18:51:01 20.4 C 7.25 g/m*3 20.4 C 0 km/h
1558 17-05-2009 19:03:01 20.5 C 7.12 g/m*3 20.5 C 0 km/h
1559 17-05-2009 19:15:01 20.9 C 7.29 g/m*3 20.9 C 0 km/h
1560 17-05-2009 19:27:01 20.7 C 7.56 g/m*3 20.7 C 0 km/h
1561 17-05-2009 19:39:02 20.4 C 7.43 g/m*3 20.4 C 0 km/h
1562 17-05-2009 19:51:01 20.1 C 7.3 g/m*3 20.1 C 0 km/h
1563 17-05-2009 20:03:02 19.7 C 7.64 g/m*3 19.7 C 0 km/h
1564 17-05-2009 20:15:01 19.5 C 7.72 g/m*3 19.5 C 0 km/h
1565 17-05-2009 20:27:01 19.3 C 7.96 g/m*3 19.3 C 0 km/h
1566 17-05-2009 20:39:01 18.9 C 8.59 g/m*3 18.9 C 0 km/h
1567 17-05-2009 20:51:01 19 C 8.15 g/m*3 19 C 0 km/h
1568 17-05-2009 21:03:01 18.9 C 8.1 g/m*3 18.9 C 0 km/h
1569 17-05-2009 21:15:01 18.5 C 7.59 g/m*3 18.5 C 0 km/h
1570 17-05-2009 21:27:01 18.3 C 7.66 g/m*3 18.3 C 0 km/h
1571 17-05-2009 21:39:02 18 C 7.68 g/m*3 18 C 0 km/h
1572 17-05-2009 21:51:01 17.7 C 7.69 g/m*3 17.7 C 0 km/h
1573 17-05-2009 22:03:02 17.5 C 7.45 g/m*3 17.5 C 0 km/h
1574 17-05-2009 22:15:01 17.3 C 7.37 g/m*3 17.3 C 0 km/h
1575 17-05-2009 22:27:01 17.2 C 7.47 g/m*3 17.2 C 0 km/h
Sensor: Nr:Datum:Temp:Abs-Feuchte:Windchill:Wind:
Aussen-T/F 1576 17-05-2009 22:39:01 16.9 C 7.19 g/m*3 16.9 C 0 km/h
1577 17-05-2009 22:51:01 16.8 C 7.15 g/m*3 16.8 C 0 km/h
1578 17-05-2009 23:03:01 16.6 C 7.35 g/m*3 16.6 C 0 km/h
1579 17-05-2009 23:15:01 16.3 C 7.08 g/m*3 16.3 C 0 km/h
1580 17-05-2009 23:27:01 16.2 C 6.9 g/m*3 16.2 C 0 km/h
1581 17-05-2009 23:39:01 16.2 C 6.48 g/m*3 16.2 C 0 km/h
1582 17-05-2009 23:51:02 16.2 C 6.48 g/m*3 16.2 C 0 km/h
1583 18-05-2009 00:03:01 16.1 C 6.58 g/m*3 16.1 C 0 km/h
1584 18-05-2009 00:15:01 15.8 C 6.87 g/m*3 15.8 C 0 km/h
1585 18-05-2009 00:27:01 15.6 C 7.05 g/m*3 15.6 C 0 km/h
1586 18-05-2009 00:39:01 15.4 C 7.09 g/m*3 15.4 C 0 km/h
1587 18-05-2009 00:51:01 15.4 C 7.23 g/m*3 15.4 C 0 km/h
1588 18-05-2009 01:03:01 15.1 C 7.22 g/m*3 15.1 C 0 km/h
1589 18-05-2009 01:15:02 14.9 C 7.39 g/m*3 14.9 C 0 km/h
1590 18-05-2009 01:27:02 14.7 C 7.43 g/m*3 14.7 C 0 km/h
1591 18-05-2009 01:39:01 14.7 C 7.3 g/m*3 14.7 C 0 km/h
1592 18-05-2009 01:51:02 14.5 C 7.21 g/m*3 14.5 C 0 km/h
1593 18-05-2009 02:03:01 14.5 C 7.34 g/m*3 14.5 C 0 km/h
1594 18-05-2009 02:15:02 14.3 C 7.25 g/m*3 14.3 C 0 km/h
1595 18-05-2009 02:27:02 14.2 C 7.33 g/m*3 14.2 C 0 km/h
1596 18-05-2009 02:39:01 14 C 7.36 g/m*3 14 C 0 km/h
1597 18-05-2009 02:51:30 13.7 C 7.34 g/m*3 13.7 C 0 km/h
1598 18-05-2009 03:03:30 13.6 C 7.3 g/m*3 13.6 C 0 km/h
1599 18-05-2009 03:15:29 13.3 C 7.28 g/m*3 13.3 C 0 km/h
1600 18-05-2009 03:27:29 13 C 7.26 g/m*3 13 C 0 km/h
Sensor: Nr:Datum:Temp:Abs-Feuchte:Windchill:Wind:
Aussen-T/F 1601 18-05-2009 03:39:29 12.6 C 7.3 g/m*3 12.6 C 0 km/h
1602 18-05-2009 03:51:29 12.8 C 7.5 g/m*3 12.8 C 0 km/h
1603 18-05-2009 04:03:28 13 C 7.6 g/m*3 13 C 0 km/h
1604 18-05-2009 04:15:29 13.1 C 7.65 g/m*3 13.1 C 0 km/h
1605 18-05-2009 04:27:29 12.8 C 7.62 g/m*3 12.8 C 0 km/h
1606 18-05-2009 04:39:28 12.4 C 7.43 g/m*3 12.4 C 0 km/h
1607 18-05-2009 04:51:28 12 C 7.46 g/m*3 12 C 0 km/h
1608 18-05-2009 05:03:28 11.6 C 7.38 g/m*3 11.6 C 0 km/h
1609 18-05-2009 05:15:28 11.7 C 7.64 g/m*3 11.7 C 0 km/h
1610 18-05-2009 05:27:28 11.2 C 7.4 g/m*3 11.2 C 0 km/h
1611 18-05-2009 05:39:28 11 C 7.41 g/m*3 11 C 0 km/h
1612 18-05-2009 05:51:28 10.9 C 7.56 g/m*3 10.9 C 0 km/h
1613 18-05-2009 06:03:28 10.8 C 7.61 g/m*3 10.8 C 0 km/h
1614 18-05-2009 06:15:27 10.7 C 7.66 g/m*3 10.7 C 0 km/h
1615 18-05-2009 06:27:27 10.7 C 7.76 g/m*3 10.7 C 0 km/h
1616 18-05-2009 06:39:27 10.7 C 7.86 g/m*3 10.7 C 0 km/h
1617 18-05-2009 06:51:27 10.8 C 7.91 g/m*3 10.8 C 0 km/h
1618 18-05-2009 07:03:27 11 C 7.91 g/m*3 11 C 0 km/h
1619 18-05-2009 07:15:27 11.3 C 8.06 g/m*3 11.3 C 0 km/h
1620 18-05-2009 07:27:27 11.4 C 8.11 g/m*3 11.4 C 0 km/h
1621 18-05-2009 07:39:27 11.6 C 8.21 g/m*3 11.6 C 0 km/h
1622 18-05-2009 07:51:27 11.9 C 8.26 g/m*3 11.9 C 0 km/h
1623 18-05-2009 08:03:26 12.1 C 8.26 g/m*3 12.1 C 0 km/h
1624 18-05-2009 08:15:26 12.4 C 8.3 g/m*3 12.4 C 0 km/h
1625 18-05-2009 08:27:26 12.8 C 8.51 g/m*3 12.8 C 0 km/h
Sensor: Nr:Datum:Temp:Abs-Feuchte:Windchill:Wind:
Aussen-T/F 1626 18-05-2009 08:39:26 13.2 C 8.38 g/m*3 13.2 C 0 km/h
1627 18-05-2009 08:51:26 13.7 C 8.41 g/m*3 13.7 C 0 km/h
1628 18-05-2009 09:03:25 14.8 C 8.11 g/m*3 14.8 C 0 km/h
1629 18-05-2009 09:15:26 15.4 C 7.49 g/m*3 15.4 C 0 km/h
1630 18-05-2009 09:27:26 15.2 C 7.53 g/m*3 15.2 C 0 km/h
1631 18-05-2009 09:39:26 15.2 C 7.53 g/m*3 15.2 C 0 km/h
1632 18-05-2009 09:51:25 15.9 C 7.58 g/m*3 15.9 C 0 km/h
1633 18-05-2009 10:03:26 16.5 C 7.44 g/m*3 16.5 C 0 km/h
1634 18-05-2009 10:15:25 16.7 C 7.25 g/m*3 16.7 C 0 km/h
1635 18-05-2009 10:27:25 17.1 C 6.99 g/m*3 17.1 C 0 km/h
1636 18-05-2009 10:39:25 16.5 C 7.02 g/m*3 16.5 C 0 km/h
1637 18-05-2009 10:51:25 16.6 C 7.06 g/m*3 16.6 C 0 km/h
1638 18-05-2009 11:03:25 17 C 6.95 g/m*3 17 C 0 km/h
1639 18-05-2009 11:15:24 17.3 C 6.78 g/m*3 17.3 C 0 km/h
1640 18-05-2009 11:27:24 18 C 6.45 g/m*3 18 C 0 km/h
1641 18-05-2009 11:39:24 17.6 C 6.3 g/m*3 17.6 C 0 km/h
1642 18-05-2009 11:51:24 18.4 C 6.29 g/m*3 18.4 C 0 km/h
1643 18-05-2009 12:03:24 18.5 C 6.17 g/m*3 18.5 C 0 km/h
1644 18-05-2009 12:15:24 18.7 C 6.24 g/m*3 18.7 C 0 km/h
1645 18-05-2009 12:27:24 19.4 C 6.01 g/m*3 19.4 C 0 km/h
1646 18-05-2009 12:39:24 19.3 C 5.47 g/m*3 19.3 C 0 km/h
1647 18-05-2009 12:51:24 19.3 C 4.98 g/m*3 19.3 C 0 km/h
1648 18-05-2009 13:03:23 19.2 C 5.11 g/m*3 19.2 C 0 km/h
1649 18-05-2009 13:15:23 20.6 C 5.19 g/m*3 20.6 C 0 km/h
1650 18-05-2009 13:27:23 20.8 C 3.98 g/m*3 20.8 C 0 km/h
Sensor: Nr:Datum:Temp:Abs-Feuchte:Windchill:Wind:
Aussen-T/F 1651 18-05-2009 13:39:24 21.1 C 3.69 g/m*3 21.1 C 0 km/h
1652 18-05-2009 13:51:23 21.1 C 3.69 g/m*3 21.1 C 0 km/h
1653 18-05-2009 14:03:23 20.7 C 3.6 g/m*3 20.7 C 0 km/h
1654 18-05-2009 14:15:23 20.6 C 3.58 g/m*3 20.6 C 0 km/h
1655 18-05-2009 14:27:23 20.8 C 3.62 g/m*3 20.8 C 0 km/h
1656 18-05-2009 14:39:23 20.9 C 3.64 g/m*3 20.9 C 0 km/h
1657 18-05-2009 14:51:22 21.6 C 3.79 g/m*3 21.6 C 0 km/h
1658 18-05-2009 15:03:23 22.5 C 3.99 g/m*3 22.5 C 0 km/h
1659 18-05-2009 15:15:22 22.2 C 3.93 g/m*3 22.2 C 0 km/h
1660 18-05-2009 15:27:22 21.2 C 3.89 g/m*3 21.2 C 0 km/h
1661 18-05-2009 15:39:22 22.3 C 3.95 g/m*3 22.3 C 0 km/h
1662 18-05-2009 15:51:21 22.6 C 4.02 g/m*3 22.6 C 0 km/h
1663 18-05-2009 16:03:22 22 C 4.08 g/m*3 22 C 0 km/h
1664 18-05-2009 16:15:22 21.8 C 4.22 g/m*3 21.8 C 0 km/h
1665 18-05-2009 16:27:22 21.4 C 4.12 g/m*3 21.4 C 0 km/h
1666 18-05-2009 16:39:21 22.6 C 4.02 g/m*3 22.6 C 0 km/h
1667 18-05-2009 16:51:22 22 C 3.88 g/m*3 22 C 0 km/h
1668 18-05-2009 17:03:21 21.8 C 4.22 g/m*3 21.8 C 0 km/h
1669 18-05-2009 17:15:21 22.8 C 4.27 g/m*3 22.8 C 0 km/h
1670 18-05-2009 17:27:21 22.8 C 4.06 g/m*3 22.8 C 0 km/h
1671 18-05-2009 17:39:21 22.2 C 4.12 g/m*3 22.2 C 0 km/h
1672 18-05-2009 17:51:21 23.1 C 4.13 g/m*3 23.1 C 0 km/h
1673 18-05-2009 18:03:21 22.4 C 3.97 g/m*3 22.4 C 0 km/h
1674 18-05-2009 18:15:20 22.8 C 4.27 g/m*3 22.8 C 0 km/h
1675 18-05-2009 18:27:20 22.6 C 4.02 g/m*3 22.6 C 0 km/h
Sensor: Nr:Datum:Temp:Abs-Feuchte:Windchill:Wind:
Aussen-T/F 1676 18-05-2009 18:39:21 23.6 C 4.25 g/m*3 23.6 C 0 km/h
1677 18-05-2009 18:51:20 23.7 C 4.28 g/m*3 23.7 C 0 km/h
1678 18-05-2009 19:03:20 23.4 C 4.21 g/m*3 23.4 C 0 km/h
1679 18-05-2009 19:15:19 23.4 C 4.21 g/m*3 23.4 C 0 km/h
1680 18-05-2009 19:27:19 23.3 C 4.18 g/m*3 23.3 C 0 km/h
1681 18-05-2009 19:39:20 22.3 C 4.15 g/m*3 22.3 C 0 km/h
1682 18-05-2009 19:51:19 22.1 C 4.68 g/m*3 22.1 C 0 km/h
1683 18-05-2009 20:03:20 22.3 C 4.74 g/m*3 22.3 C 0 km/h
1684 18-05-2009 20:15:19 21.8 C 4.99 g/m*3 21.8 C 0 km/h
1685 18-05-2009 20:27:19 21.6 C 5.12 g/m*3 21.6 C 0 km/h
1686 18-05-2009 20:39:19 20.4 C 4.78 g/m*3 20.4 C 0 km/h
1687 18-05-2009 20:51:19 19.4 C 5.01 g/m*3 19.4 C 0 km/h
1688 18-05-2009 21:03:19 18.5 C 5.06 g/m*3 18.5 C 0 km/h
1689 18-05-2009 21:15:19 17.9 C 5.8 g/m*3 17.9 C 0 km/h
1690 18-05-2009 21:27:19 17.3 C 5.3 g/m*3 17.3 C 0 km/h
1691 18-05-2009 21:39:19 17 C 5.5 g/m*3 17 C 0 km/h
1692 18-05-2009 21:51:18 16.7 C 5.4 g/m*3 16.7 C 0 km/h
1693 18-05-2009 22:04:20 16.1 C 5.48 g/m*3 16.1 C 0 km/h
1694 18-05-2009 22:16:20 15.9 C 5.82 g/m*3 15.9 C 0 km/h
1695 18-05-2009 22:28:20 15.2 C 5.58 g/m*3 15.2 C 0 km/h
1696 18-05-2009 22:40:20 14.8 C 5.83 g/m*3 14.8 C 0 km/h
1697 18-05-2009 22:52:20 14.6 C 5.76 g/m*3 14.6 C 0 km/h
1698 18-05-2009 23:04:20 14 C 5.91 g/m*3 14 C 0 km/h
1699 18-05-2009 23:16:20 13.9 C 6.11 g/m*3 13.9 C 0 km/h
1700 18-05-2009 23:28:20 13.6 C 6.12 g/m*3 13.6 C 0 km/h
Sensor: Nr:Datum:Temp:Abs-Feuchte:Windchill:Wind:
Aussen-T/F 1701 18-05-2009 23:40:20 13.5 C 6.2 g/m*3 13.5 C 0 km/h
1702 18-05-2009 23:52:20 12.9 C 6.76 g/m*3 12.9 C 0 km/h
1703 19-05-2009 00:04:20 12.8 C 6.72 g/m*3 12.8 C 0 km/h
1704 19-05-2009 00:16:20 12.6 C 6.75 g/m*3 12.6 C 0 km/h
1705 19-05-2009 00:28:20 12.5 C 6.71 g/m*3 12.5 C 0 km/h
1706 19-05-2009 00:40:20 12.4 C 6.66 g/m*3 12.4 C 0 km/h
1707 19-05-2009 00:52:20 12.1 C 6.43 g/m*3 12.1 C 0 km/h
1708 19-05-2009 01:04:20 12 C 6.5 g/m*3 12 C 0 km/h
1709 19-05-2009 01:16:20 11.6 C 6.65 g/m*3 11.6 C 0 km/h
1710 19-05-2009 01:28:20 11.4 C 6.57 g/m*3 11.4 C 0 km/h
1711 19-05-2009 01:40:20 11.2 C 6.49 g/m*3 11.2 C 0 km/h
1712 19-05-2009 01:52:21 11 C 6.51 g/m*3 11 C 0 km/h
1713 19-05-2009 02:04:21 10.9 C 6.47 g/m*3 10.9 C 0 km/h
1714 19-05-2009 02:16:21 10.7 C 6.48 g/m*3 10.7 C 0 km/h
1715 19-05-2009 02:28:21 10.4 C 6.46 g/m*3 10.4 C 0 km/h
1716 19-05-2009 02:40:21 10.2 C 6.47 g/m*3 10.2 C 0 km/h
1717 19-05-2009 02:52:21 10 C 6.58 g/m*3 10 C 0 km/h
1718 19-05-2009 03:04:21 9.9 C 6.63 g/m*3 9.9 C 0 km/h
1719 19-05-2009 03:16:21 9.8 C 6.59 g/m*3 9.8 C 0 km/h
1720 19-05-2009 03:28:21 9.7 C 6.64 g/m*3 9.7 C 0 km/h
1721 19-05-2009 03:40:21 9.4 C 6.51 g/m*3 9.4 C 0 km/h
1722 19-05-2009 03:52:21 9.3 C 6.56 g/m*3 9.3 C 0 km/h
1723 19-05-2009 04:04:21 9.3 C 6.56 g/m*3 9.3 C 0 km/h
1724 19-05-2009 04:16:21 9.1 C 6.65 g/m*3 9.1 C 0 km/h
1725 19-05-2009 04:28:21 8.9 C 6.66 g/m*3 8.9 C 0 km/h
Sensor: Nr:Datum:Temp:Abs-Feuchte:Windchill:Wind:
Aussen-T/F 1726 19-05-2009 04:40:21 8.8 C 6.7 g/m*3 8.8 C 0 km/h
1727 19-05-2009 04:52:21 8.6 C 6.7 g/m*3 8.6 C 0 km/h
1728 19-05-2009 05:04:21 8.5 C 6.57 g/m*3 8.5 C 0 km/h
1729 19-05-2009 05:16:21 8.4 C 6.62 g/m*3 8.4 C 0 km/h
1730 19-05-2009 05:28:21 8.2 C 6.62 g/m*3 8.2 C 0 km/h
1731 19-05-2009 05:40:22 8.2 C 6.62 g/m*3 8.2 C 0 km/h
1732 19-05-2009 05:52:22 8.1 C 6.57 g/m*3 8.1 C 0 km/h
1733 19-05-2009 06:04:22 8.1 C 6.57 g/m*3 8.1 C 0 km/h
1734 19-05-2009 06:16:20 8.1 C 6.57 g/m*3 8.1 C 0 km/h
1735 19-05-2009 06:28:20 8.1 C 6.66 g/m*3 8.1 C 0 km/h
1736 19-05-2009 06:40:19 8.2 C 6.7 g/m*3 8.2 C 0 km/h
1737 19-05-2009 06:52:19 9 C 7.05 g/m*3 9 C 0 km/h
1738 19-05-2009 07:04:20 9.5 C 7.01 g/m*3 9.5 C 0 km/h
1739 19-05-2009 07:16:19 9.7 C 6.91 g/m*3 9.7 C 0 km/h
1740 19-05-2009 07:28:19 9.6 C 6.87 g/m*3 9.6 C 0 km/h
1741 19-05-2009 07:40:19 9.6 C 6.78 g/m*3 9.6 C 0 km/h
1742 19-05-2009 07:52:19 9.7 C 6.82 g/m*3 9.7 C 0 km/h
1743 19-05-2009 08:04:19 10.3 C 6.9 g/m*3 10.3 C 0 km/h
1744 19-05-2009 08:16:18 10.5 C 6.69 g/m*3 10.5 C 0 km/h
1745 19-05-2009 08:28:18 10.5 C 6.69 g/m*3 10.5 C 0 km/h
1746 19-05-2009 08:40:18 10.8 C 6.72 g/m*3 10.8 C 0 km/h
1747 19-05-2009 08:52:18 11.5 C 6.82 g/m*3 11.5 C 0 km/h
1748 19-05-2009 09:04:18 12.5 C 6.93 g/m*3 12.5 C 0 km/h
1749 19-05-2009 09:16:18 13.1 C 6.85 g/m*3 13.1 C 0 km/h
1750 19-05-2009 09:28:18 14.1 C 7.04 g/m*3 14.1 C 0 km/h
Sensor: Nr:Datum:Temp:Abs-Feuchte:Windchill:Wind:
Aussen-T/F 1751 19-05-2009 09:40:18 14.3 C 7.25 g/m*3 14.3 C 0 km/h
1752 19-05-2009 09:52:18 15.8 C 7.27 g/m*3 15.8 C 0 km/h
1753 19-05-2009 10:04:17 15.8 C 7.27 g/m*3 15.8 C 0 km/h
1754 19-05-2009 10:16:17 16.2 C 7.45 g/m*3 16.2 C 0 km/h
1755 19-05-2009 10:28:18 16.8 C 7.29 g/m*3 16.8 C 0 km/h
1756 19-05-2009 10:40:17 17.7 C 7.54 g/m*3 17.7 C 0 km/h
1757 19-05-2009 10:52:17 18.9 C 7.29 g/m*3 18.9 C 0 km/h
1758 19-05-2009 11:04:16 19.7 C 7.3 g/m*3 19.7 C 0 km/h
1759 19-05-2009 11:16:17 19.9 C 7.04 g/m*3 19.9 C 0 km/h
1760 19-05-2009 11:28:17 20.4 C 6.72 g/m*3 20.4 C 0 km/h
1761 19-05-2009 11:40:17 21 C 6.05 g/m*3 21 C 0 km/h
1762 19-05-2009 11:52:16 21.2 C 6.12 g/m*3 21.2 C 0 km/h
1763 19-05-2009 12:04:17 22.1 C 6.05 g/m*3 22.1 C 0 km/h
1764 19-05-2009 12:16:16 22.8 C 5.69 g/m*3 22.8 C 0 km/h
1765 19-05-2009 12:28:16 22.4 C 5.56 g/m*3 22.4 C 0 km/h
1766 19-05-2009 12:40:16 21.9 C 5.4 g/m*3 21.9 C 0 km/h
1767 19-05-2009 12:52:15 25.1 C 5.09 g/m*3 25.1 C 0 km/h
1768 19-05-2009 13:04:16 23.5 C 5.92 g/m*3 23.5 C 0 km/h
1769 19-05-2009 13:16:16 23.6 C 5.32 g/m*3 23.6 C 0 km/h
1770 19-05-2009 13:28:16 23.9 C 4.76 g/m*3 23.9 C 0 km/h
1771 19-05-2009 13:40:15 24.8 C 4.55 g/m*3 24.8 C 0 km/h
1772 19-05-2009 13:52:16 24.2 C 5.06 g/m*3 24.2 C 0 km/h
1773 19-05-2009 14:04:15 23.8 C 5.16 g/m*3 23.8 C 0 km/h
1774 19-05-2009 14:16:15 23.5 C 6.56 g/m*3 23.5 C 0 km/h
1775 19-05-2009 14:28:16 23.7 C 7.06 g/m*3 23.7 C 0 km/h
Sensor: Nr:Datum:Temp:Abs-Feuchte:Windchill:Wind:
Aussen-T/F 1776 19-05-2009 14:40:14 22.7 C 7.27 g/m*3 22.7 C 0 km/h
1777 19-05-2009 14:52:15 24.1 C 6.35 g/m*3 24.1 C 0 km/h
1778 19-05-2009 15:04:14 25.4 C 5.18 g/m*3 25.4 C 0 km/h
1779 19-05-2009 15:16:14 24.1 C 6.78 g/m*3 24.1 C 0 km/h
1780 19-05-2009 15:28:14 23.2 C 7.48 g/m*3 23.2 C 0 km/h
1781 19-05-2009 15:40:15 26 C 5.6 g/m*3 26 C 0 km/h
1782 19-05-2009 15:52:14 27.4 C 5.79 g/m*3 27.4 C 0 km/h
1783 19-05-2009 16:04:14 27.7 C 5.35 g/m*3 27.7 C 0 km/h
1784 19-05-2009 16:16:13 28.2 C 5.5 g/m*3 28.2 C 0 km/h
1785 19-05-2009 16:28:13 27.9 C 5.41 g/m*3 27.9 C 0 km/h
1786 19-05-2009 16:40:14 27.3 C 6.54 g/m*3 27.3 C 0 km/h
1787 19-05-2009 16:52:13 26.5 C 6.01 g/m*3 26.5 C 0 km/h
1788 19-05-2009 17:04:13 25.9 C 6.29 g/m*3 25.9 C 0 km/h
1789 19-05-2009 17:16:14 24.9 C 7.1 g/m*3 24.9 C 0 km/h
1790 19-05-2009 17:28:14 21.6 C 10.05 g/m*3 21.6 C 0 km/h
1791 19-05-2009 17:40:13 23.8 C 10.54 g/m*3 23.8 C 0 km/h
1792 19-05-2009 17:52:13 23.6 C 9.57 g/m*3 23.6 C 0 km/h
1793 19-05-2009 18:04:13 23.7 C 8.98 g/m*3 23.7 C 0 km/h
1794 19-05-2009 18:16:13 25.1 C 7.18 g/m*3 25.1 C 0 km/h
1795 19-05-2009 18:28:14 24.9 C 8.7 g/m*3 24.9 C 0 km/h
1796 19-05-2009 18:40:12 24.1 C 8.53 g/m*3 24.1 C 0 km/h
1797 19-05-2009 18:52:12 23.7 C 9.41 g/m*3 23.7 C 0 km/h
1798 19-05-2009 19:04:12 23.1 C 9.3 g/m*3 23.1 C 0 km/h
1799 19-05-2009 19:16:12 22 C 8.93 g/m*3 22 C 0 km/h
1800 19-05-2009 19:28:12 21.6 C 8.72 g/m*3 21.6 C 0 km/h
Sensor: Nr:Datum:Temp:Abs-Feuchte:Windchill:Wind:
Aussen-T/F 1801 19-05-2009 19:40:12 21.2 C 9.08 g/m*3 21.2 C 0 km/h
1802 19-05-2009 19:52:12 20.6 C 9.31 g/m*3 20.6 C 0 km/h
1803 19-05-2009 20:04:12 18.5 C 8.54 g/m*3 18.5 C 0 km/h
1804 19-05-2009 20:16:11 16.9 C 9.21 g/m*3 16.9 C 0 km/h
1805 19-05-2009 20:28:11 15.7 C 9.63 g/m*3 15.7 C 0 km/h
1806 19-05-2009 20:40:12 15.6 C 10.24 g/m*3 15.6 C 0 km/h
1807 19-05-2009 20:52:11 16.1 C 10.55 g/m*3 16.1 C 0 km/h
1808 19-05-2009 21:04:11 15.9 C 10.56 g/m*3 15.9 C 0 km/h
1809 19-05-2009 21:16:11 15.9 C 10.7 g/m*3 15.9 C 0 km/h
1810 19-05-2009 21:28:12 15.8 C 10.36 g/m*3 15.8 C 0 km/h
1811 19-05-2009 21:40:10 15.7 C 10.17 g/m*3 15.7 C 0 km/h
1812 19-05-2009 21:52:11 15.6 C 10.11 g/m*3 15.6 C 0 km/h
1813 19-05-2009 22:04:10 15.3 C 9.79 g/m*3 15.3 C 0 km/h
1814 19-05-2009 22:16:10 15.3 C 9.66 g/m*3 15.3 C 0 km/h
1815 19-05-2009 22:28:10 15 C 9.49 g/m*3 15 C 0 km/h
1816 19-05-2009 22:41:13 14.7 C 9.44 g/m*3 14.7 C 0 km/h
1817 19-05-2009 22:53:13 14.7 C 9.44 g/m*3 14.7 C 0 km/h
1818 19-05-2009 23:05:13 14.4 C 9.27 g/m*3 14.4 C 0 km/h
1819 19-05-2009 23:17:13 14.2 C 9.28 g/m*3 14.2 C 0 km/h
1820 19-05-2009 23:29:13 14.1 C 9.22 g/m*3 14.1 C 0 km/h
1821 19-05-2009 23:41:13 13.9 C 9.47 g/m*3 13.9 C 0 km/h
1822 19-05-2009 23:53:13 13.7 C 9.24 g/m*3 13.7 C 0 km/h
1823 20-05-2009 00:05:13 13.6 C 9.3 g/m*3 13.6 C 0 km/h
1824 20-05-2009 00:17:13 13.3 C 9.01 g/m*3 13.3 C 0 km/h
1825 20-05-2009 00:29:13 13.4 C 9.07 g/m*3 13.4 C 0 km/h
Sensor: Nr:Datum:Temp:Abs-Feuchte:Windchill:Wind:
Aussen-T/F 1826 20-05-2009 00:41:13 13.2 C 8.96 g/m*3 13.2 C 0 km/h
1827 20-05-2009 00:53:14 13.1 C 8.9 g/m*3 13.1 C 0 km/h
1828 20-05-2009 01:05:14 13 C 8.85 g/m*3 13 C 0 km/h
1829 20-05-2009 01:17:14 12.8 C 8.85 g/m*3 12.8 C 0 km/h
1830 20-05-2009 01:29:14 12.6 C 8.74 g/m*3 12.6 C 0 km/h
1831 20-05-2009 01:41:14 12.5 C 8.69 g/m*3 12.5 C 0 km/h
1832 20-05-2009 01:53:14 12.4 C 8.74 g/m*3 12.4 C 0 km/h
1833 20-05-2009 02:05:14 12.2 C 8.63 g/m*3 12.2 C 0 km/h
1834 20-05-2009 02:17:14 12.1 C 8.69 g/m*3 12.1 C 0 km/h
1835 20-05-2009 02:29:14 12 C 8.63 g/m*3 12 C 0 km/h
1836 20-05-2009 02:41:14 11.8 C 8.53 g/m*3 11.8 C 0 km/h
1837 20-05-2009 02:53:14 11.8 C 8.63 g/m*3 11.8 C 0 km/h
1838 20-05-2009 03:05:14 11.8 C 8.74 g/m*3 11.8 C 0 km/h
1839 20-05-2009 03:17:14 11.5 C 8.68 g/m*3 11.5 C 0 km/h
1840 20-05-2009 03:29:14 11.3 C 8.67 g/m*3 11.3 C 0 km/h
1841 20-05-2009 03:41:14 11.1 C 8.56 g/m*3 11.1 C 0 km/h
1842 20-05-2009 03:53:14 11.1 C 8.66 g/m*3 11.1 C 0 km/h
1843 20-05-2009 04:05:14 11 C 8.61 g/m*3 11 C 0 km/h
1844 20-05-2009 04:17:14 10.9 C 8.55 g/m*3 10.9 C 0 km/h
1845 20-05-2009 04:29:15 10.8 C 8.5 g/m*3 10.8 C 0 km/h
1846 20-05-2009 04:41:15 10.6 C 8.39 g/m*3 10.6 C 0 km/h
1847 20-05-2009 04:53:15 10.4 C 8.38 g/m*3 10.4 C 0 km/h
1848 20-05-2009 05:05:15 10.3 C 8.33 g/m*3 10.3 C 0 km/h
1849 20-05-2009 05:17:15 10.3 C 8.43 g/m*3 10.3 C 0 km/h
1850 20-05-2009 05:29:15 10.2 C 8.37 g/m*3 10.2 C 0 km/h
Sensor: Nr:Datum:Temp:Abs-Feuchte:Windchill:Wind:
Aussen-T/F 1851 20-05-2009 05:41:15 10 C 8.27 g/m*3 10 C 0 km/h
1852 20-05-2009 05:53:15 10.1 C 8.32 g/m*3 10.1 C 0 km/h
1853 20-05-2009 06:05:15 10.2 C 8.37 g/m*3 10.2 C 0 km/h
1854 20-05-2009 06:17:15 10.4 C 8.48 g/m*3 10.4 C 0 km/h
1855 20-05-2009 06:29:15 10.6 C 8.49 g/m*3 10.6 C 0 km/h
1856 20-05-2009 06:41:15 10.7 C 8.55 g/m*3 10.7 C 0 km/h
1857 20-05-2009 06:53:12 10.8 C 8.5 g/m*3 10.8 C 0 km/h
1858 20-05-2009 07:05:12 10.9 C 8.55 g/m*3 10.9 C 0 km/h
1859 20-05-2009 07:17:11 11 C 8.61 g/m*3 11 C 0 km/h
1860 20-05-2009 07:29:11 11 C 8.61 g/m*3 11 C 0 km/h
1861 20-05-2009 07:41:12 11.4 C 8.72 g/m*3 11.4 C 0 km/h
1862 20-05-2009 07:53:11 11.5 C 8.68 g/m*3 11.5 C 0 km/h
1863 20-05-2009 08:05:11 11.7 C 8.79 g/m*3 11.7 C 0 km/h
1864 20-05-2009 08:17:10 12.1 C 8.79 g/m*3 12.1 C 0 km/h
1865 20-05-2009 08:29:10 12.8 C 8.85 g/m*3 12.8 C 0 km/h
1866 20-05-2009 08:41:11 13.2 C 8.73 g/m*3 13.2 C 0 km/h
1867 20-05-2009 08:53:10 13.9 C 8.87 g/m*3 13.9 C 0 km/h
1868 20-05-2009 09:05:10 14 C 8.68 g/m*3 14 C 0 km/h
1869 20-05-2009 09:17:11 14.4 C 8.9 g/m*3 14.4 C 0 km/h
1870 20-05-2009 09:29:11 15 C 8.98 g/m*3 15 C 0 km/h
1871 20-05-2009 09:41:10 15.9 C 9.21 g/m*3 15.9 C 0 km/h
1872 20-05-2009 09:53:10 16.6 C 9.04 g/m*3 16.6 C 0 km/h
1873 20-05-2009 10:05:10 17 C 9.26 g/m*3 17 C 0 km/h
1874 20-05-2009 10:17:10 17.5 C 9.54 g/m*3 17.5 C 0 km/h
1875 20-05-2009 10:29:10 17.8 C 9.71 g/m*3 17.8 C 0 km/h
Sensor: Nr:Datum:Temp:Abs-Feuchte:Windchill:Wind:
Aussen-T/F 1876 20-05-2009 10:41:10 17.9 C 9.31 g/m*3 17.9 C 0 km/h
1877 20-05-2009 10:53:10 18.6 C 9.39 g/m*3 18.6 C 0 km/h
1878 20-05-2009 11:05:10 19.2 C 8.9 g/m*3 19.2 C 0 km/h
1879 20-05-2009 11:17:09 20.4 C 8.85 g/m*3 20.4 C 0 km/h
1880 20-05-2009 11:29:09 20.8 C 8.69 g/m*3 20.8 C 0 km/h
1881 20-05-2009 11:41:09 21.6 C 8.53 g/m*3 21.6 C 0 km/h
1882 20-05-2009 11:53:09 22.5 C 8.39 g/m*3 22.5 C 0 km/h
1883 20-05-2009 12:05:09 23.1 C 8.27 g/m*3 23.1 C 0 km/h
1884 20-05-2009 12:17:08 23.4 C 7.99 g/m*3 23.4 C 0 km/h
1885 20-05-2009 12:29:08 24.2 C 7.7 g/m*3 24.2 C 0 km/h
1886 20-05-2009 12:41:08 24.7 C 7.24 g/m*3 24.7 C 0 km/h
1887 20-05-2009 12:53:08 25.2 C 7.45 g/m*3 25.2 C 0 km/h
1888 20-05-2009 13:05:08 25.5 C 7.1 g/m*3 25.5 C 0 km/h
1889 20-05-2009 13:17:08 26.6 C 7.3 g/m*3 26.6 C 0 km/h
1890 20-05-2009 13:29:08 26.8 C 6.62 g/m*3 26.8 C 0 km/h
1891 20-05-2009 13:41:08 26.3 C 6.68 g/m*3 26.3 C 0 km/h
1892 20-05-2009 13:53:08 26 C 6.57 g/m*3 26 C 0 km/h
1893 20-05-2009 14:05:07 25.4 C 7.06 g/m*3 25.4 C 0 km/h
1894 20-05-2009 14:17:08 25.5 C 7.1 g/m*3 25.5 C 0 km/h
1895 20-05-2009 14:29:08 26.4 C 7.22 g/m*3 26.4 C 0 km/h
1896 20-05-2009 14:41:07 27.2 C 7.03 g/m*3 27.2 C 0 km/h
1897 20-05-2009 14:53:07 28 C 6.8 g/m*3 28 C 0 km/h
1898 20-05-2009 15:05:07 28.1 C 7.11 g/m*3 28.1 C 0 km/h
1899 20-05-2009 15:17:07 27.9 C 7.57 g/m*3 27.9 C 0 km/h
1900 20-05-2009 15:29:07 28.4 C 6.95 g/m*3 28.4 C 0 km/h
Sensor: Nr:Datum:Temp:Abs-Feuchte:Windchill:Wind:
Aussen-T/F 1901 20-05-2009 15:41:07 28.6 C 7.31 g/m*3 28.6 C 0 km/h
1902 20-05-2009 15:53:06 28.7 C 7.35 g/m*3 28.7 C 0 km/h
1903 20-05-2009 16:05:07 28 C 7.07 g/m*3 28 C 0 km/h
1904 20-05-2009 16:17:06 27.7 C 7.49 g/m*3 27.7 C 0 km/h
1905 20-05-2009 16:29:06 26.4 C 7.97 g/m*3 26.4 C 0 km/h
1906 20-05-2009 16:41:06 27 C 6.95 g/m*3 27 C 0 km/h
1907 20-05-2009 16:53:06 28.2 C 7.42 g/m*3 28.2 C 0 km/h
1908 20-05-2009 17:05:06 28.8 C 7.1 g/m*3 28.8 C 0 km/h
1909 20-05-2009 17:17:06 28.2 C 8.25 g/m*3 28.2 C 0 km/h
1910 20-05-2009 17:29:06 27.7 C 8.29 g/m*3 27.7 C 0 km/h
1911 20-05-2009 17:41:05 27.4 C 8.68 g/m*3 27.4 C 0 km/h
1912 20-05-2009 17:53:06 26.8 C 8.65 g/m*3 26.8 C 0 km/h
1913 20-05-2009 18:05:05 27.7 C 8.56 g/m*3 27.7 C 0 km/h
1914 20-05-2009 18:17:05 26.5 C 8.76 g/m*3 26.5 C 0 km/h
1915 20-05-2009 18:29:06 26.3 C 8.91 g/m*3 26.3 C 0 km/h
1916 20-05-2009 18:41:05 26.1 C 8.81 g/m*3 26.1 C 0 km/h
1917 20-05-2009 18:53:05 25.5 C 9.71 g/m*3 25.5 C 0 km/h
1918 20-05-2009 19:05:05 24.8 C 9.79 g/m*3 24.8 C 0 km/h
1919 20-05-2009 19:17:04 24.5 C 9.85 g/m*3 24.5 C 0 km/h
1920 20-05-2009 19:29:04 23.9 C 9.95 g/m*3 23.9 C 0 km/h
1921 20-05-2009 19:41:05 23.8 C 9.9 g/m*3 23.8 C 0 km/h
1922 20-05-2009 19:53:04 23.5 C 10.15 g/m*3 23.5 C 0 km/h
1923 20-05-2009 20:05:04 23.1 C 10.13 g/m*3 23.1 C 0 km/h
1924 20-05-2009 20:17:04 22.2 C 10.41 g/m*3 22.2 C 0 km/h
1925 20-05-2009 20:29:04 21.8 C 10.55 g/m*3 21.8 C 0 km/h
Sensor: Nr:Datum:Temp:Abs-Feuchte:Windchill:Wind:
Aussen-T/F 1926 20-05-2009 20:41:04 21.5 C 10.37 g/m*3 21.5 C 0 km/h
1927 20-05-2009 20:53:03 21.3 C 10.62 g/m*3 21.3 C 0 km/h
1928 20-05-2009 21:05:04 20.8 C 10.5 g/m*3 20.8 C 0 km/h
1929 20-05-2009 21:17:04 20.4 C 10.26 g/m*3 20.4 C 0 km/h
1930 20-05-2009 21:29:04 20.3 C 10.38 g/m*3 20.3 C 0 km/h
1931 20-05-2009 21:41:03 19.8 C 10.42 g/m*3 19.8 C 0 km/h
1932 20-05-2009 21:53:04 19.5 C 10.24 g/m*3 19.5 C 0 km/h
1933 20-05-2009 22:05:03 19.2 C 10.22 g/m*3 19.2 C 0 km/h
1934 20-05-2009 22:17:03 19.1 C 10.33 g/m*3 19.1 C 0 km/h
1935 20-05-2009 22:29:03 19 C 10.27 g/m*3 19 C 0 km/h
1936 20-05-2009 22:41:02 18.9 C 10.53 g/m*3 18.9 C 0 km/h
1937 20-05-2009 22:54:04 18.7 C 10.73 g/m*3 18.7 C 0 km/h
1938 20-05-2009 23:06:04 18.4 C 10.54 g/m*3 18.4 C 0 km/h
1939 20-05-2009 23:18:04 18.3 C 10.79 g/m*3 18.3 C 0 km/h
1940 20-05-2009 23:30:04 18.2 C 10.72 g/m*3 18.2 C 0 km/h
1941 20-05-2009 23:42:04 18.2 C 11.04 g/m*3 18.2 C 0 km/h
1942 20-05-2009 23:54:04 18.1 C 10.82 g/m*3 18.1 C 0 km/h
1943 21-05-2009 00:06:04 17.7 C 10.86 g/m*3 17.7 C 0 km/h
1944 21-05-2009 00:18:04 17.5 C 10.73 g/m*3 17.5 C 0 km/h
1945 21-05-2009 00:30:04 17.5 C 10.88 g/m*3 17.5 C 0 km/h
1946 21-05-2009 00:42:04 17.4 C 10.82 g/m*3 17.4 C 0 km/h
1947 21-05-2009 00:54:04 17.1 C 10.77 g/m*3 17.1 C 0 km/h
1948 21-05-2009 01:06:04 16.9 C 10.79 g/m*3 16.9 C 0 km/h
1949 21-05-2009 01:18:04 16.8 C 10.87 g/m*3 16.8 C 0 km/h
1950 21-05-2009 01:30:04 16.4 C 10.61 g/m*3 16.4 C 0 km/h
Sensor: Nr:Datum:Temp:Abs-Feuchte:Windchill:Wind:
Aussen-T/F 1951 21-05-2009 01:42:04 16.2 C 10.62 g/m*3 16.2 C 0 km/h
1952 21-05-2009 01:54:04 16.2 C 10.48 g/m*3 16.2 C 0 km/h
1953 21-05-2009 02:06:04 16 C 10.49 g/m*3 16 C 0 km/h
1954 21-05-2009 02:18:05 15.7 C 10.44 g/m*3 15.7 C 0 km/h
1955 21-05-2009 02:30:05 15.6 C 10.51 g/m*3 15.6 C 0 km/h
1956 21-05-2009 02:42:05 15.4 C 10.38 g/m*3 15.4 C 0 km/h
1957 21-05-2009 02:54:05 15.2 C 10.25 g/m*3 15.2 C 0 km/h
1958 21-05-2009 03:06:05 15.2 C 10.25 g/m*3 15.2 C 0 km/h
1959 21-05-2009 03:18:05 15.2 C 10.25 g/m*3 15.2 C 0 km/h
1960 21-05-2009 03:30:05 15 C 10.26 g/m*3 15 C 0 km/h
1961 21-05-2009 03:42:05 15 C 10.26 g/m*3 15 C 0 km/h
1962 21-05-2009 03:54:05 15 C 10.13 g/m*3 15 C 0 km/h
1963 21-05-2009 04:06:05 14.9 C 10.32 g/m*3 14.9 C 0 km/h
1964 21-05-2009 04:18:05 14.7 C 10.32 g/m*3 14.7 C 0 km/h
1965 21-05-2009 04:30:05 14.7 C 10.32 g/m*3 14.7 C 0 km/h
1966 21-05-2009 04:42:05 14.7 C 10.32 g/m*3 14.7 C 0 km/h
1967 21-05-2009 04:54:05 14.7 C 10.2 g/m*3 14.7 C 0 km/h
1968 21-05-2009 05:06:05 14.7 C 10.2 g/m*3 14.7 C 0 km/h
1969 21-05-2009 05:18:05 14.6 C 10.14 g/m*3 14.6 C 0 km/h
1970 21-05-2009 05:30:05 14.5 C 10.07 g/m*3 14.5 C 0 km/h
1971 21-05-2009 05:42:05 14.6 C 10.14 g/m*3 14.6 C 0 km/h
1972 21-05-2009 05:54:05 14.6 C 10.14 g/m*3 14.6 C 0 km/h
1973 21-05-2009 06:06:06 14.6 C 10.26 g/m*3 14.6 C 0 km/h
1974 21-05-2009 06:18:06 14.3 C 10.2 g/m*3 14.3 C 0 km/h
1975 21-05-2009 06:30:06 14.4 C 10.26 g/m*3 14.4 C 0 km/h
Sensor: Nr:Datum:Temp:Abs-Feuchte:Windchill:Wind:
Aussen-T/F 1976 21-05-2009 06:42:06 14.5 C 10.32 g/m*3 14.5 C 0 km/h
1977 21-05-2009 06:54:06 14.5 C 10.32 g/m*3 14.5 C 0 km/h
1978 21-05-2009 07:06:06 14.6 C 10.39 g/m*3 14.6 C 0 km/h
1979 21-05-2009 07:18:03 14.4 C 10.38 g/m*3 14.4 C 0 km/h
1980 21-05-2009 07:30:04 14.6 C 10.64 g/m*3 14.6 C 0 km/h
1981 21-05-2009 07:42:04 14.7 C 10.7 g/m*3 14.7 C 0 km/h
1982 21-05-2009 07:54:03 14.8 C 10.64 g/m*3 14.8 C 0 km/h
1983 21-05-2009 08:06:03 15.1 C 10.71 g/m*3 15.1 C 0 km/h
1984 21-05-2009 08:18:04 15.6 C 10.91 g/m*3 15.6 C 0 km/h
1985 21-05-2009 08:30:03 16 C 10.63 g/m*3 16 C 0 km/h
1986 21-05-2009 08:42:03 16.3 C 10.54 g/m*3 16.3 C 0 km/h
1987 21-05-2009 08:54:03 16.6 C 10.59 g/m*3 16.6 C 0 km/h
1988 21-05-2009 09:06:03 16.3 C 10.68 g/m*3 16.3 C 0 km/h
1989 21-05-2009 09:18:03 16.6 C 11.02 g/m*3 16.6 C 0 km/h
1990 21-05-2009 09:30:03 17.3 C 10.9 g/m*3 17.3 C 0 km/h
1991 21-05-2009 09:42:03 18.1 C 10.66 g/m*3 18.1 C 0 km/h
1992 21-05-2009 09:54:03 18.6 C 10.82 g/m*3 18.6 C 0 km/h
1993 21-05-2009 10:06:02 19.5 C 10.74 g/m*3 19.5 C 0 km/h
1994 21-05-2009 10:18:02 20.3 C 10.55 g/m*3 20.3 C 0 km/h
1995 21-05-2009 10:30:02 20.9 C 10.56 g/m*3 20.9 C 0 km/h
1996 21-05-2009 10:42:02 21.7 C 10.87 g/m*3 21.7 C 0 km/h
1997 21-05-2009 10:54:02 22.5 C 10.59 g/m*3 22.5 C 0 km/h
1998 21-05-2009 11:06:01 22.4 C 9.73 g/m*3 22.4 C 0 km/h
1999 21-05-2009 11:18:02 22.3 C 9.48 g/m*3 22.3 C 0 km/h
2000 21-05-2009 11:30:01 23.2 C 9.36 g/m*3 23.2 C 0 km/h
Sensor: Nr:Datum:Temp:Abs-Feuchte:Windchill:Wind:
Aussen-T/F 2001 21-05-2009 11:42:01 23 C 9.25 g/m*3 23 C 0 km/h
2002 21-05-2009 11:54:02 23.7 C 9.2 g/m*3 23.7 C 0 km/h
2003 21-05-2009 12:06:01 24.5 C 9.18 g/m*3 24.5 C 0 km/h
2004 21-05-2009 12:18:01 24.3 C 9.52 g/m*3 24.3 C 0 km/h
2005 21-05-2009 12:30:01 25.2 C 9.31 g/m*3 25.2 C 0 km/h
2006 21-05-2009 12:42:01 26.1 C 9.06 g/m*3 26.1 C 0 km/h
2007 21-05-2009 12:54:01 27.4 C 9.21 g/m*3 27.4 C 0 km/h
2008 21-05-2009 13:06:01 27.2 C 8.85 g/m*3 27.2 C 0 km/h
2009 21-05-2009 13:18:00 26.4 C 8.96 g/m*3 26.4 C 0 km/h
2010 21-05-2009 13:30:01 26.7 C 9.37 g/m*3 26.7 C 0 km/h
2011 21-05-2009 13:42:01 26.7 C 9.37 g/m*3 26.7 C 0 km/h
2012 21-05-2009 13:54:00 25.1 C 9.26 g/m*3 25.1 C 0 km/h
2013 21-05-2009 14:06:00 24.6 C 9.45 g/m*3 24.6 C 0 km/h
2014 21-05-2009 14:18:00 24.6 C 9.23 g/m*3 24.6 C 0 km/h
2015 21-05-2009 14:30:00 24.1 C 9.41 g/m*3 24.1 C 0 km/h
2016 21-05-2009 14:42:00 25.3 C 9.13 g/m*3 25.3 C 0 km/h
2017 21-05-2009 14:54:59 26.9 C 8.96 g/m*3 26.9 C 0 km/h
2018 21-05-2009 15:05:59 26.4 C 8.71 g/m*3 26.4 C 0 km/h
2019 21-05-2009 15:18:00 25.4 C 9.18 g/m*3 25.4 C 0 km/h
2020 21-05-2009 15:30:59 24.5 C 9.18 g/m*3 24.5 C 0 km/h
2021 21-05-2009 15:42:59 24.2 C 9.02 g/m*3 24.2 C 0 km/h
2022 21-05-2009 15:54:59 25 C 9.21 g/m*3 25 C 0 km/h
2023 21-05-2009 16:06:59 24.8 C 9.1 g/m*3 24.8 C 0 km/h
2024 21-05-2009 16:18:59 24.1 C 8.53 g/m*3 24.1 C 0 km/h
2025 21-05-2009 16:30:59 24.6 C 9 g/m*3 24.6 C 0 km/h
Sensor: Nr:Datum:Temp:Abs-Feuchte:Windchill:Wind:
Aussen-T/F 2026 21-05-2009 16:42:59 25.8 C 9.39 g/m*3 25.8 C 0 km/h
2027 21-05-2009 16:54:58 24.7 C 9.05 g/m*3 24.7 C 0 km/h
2028 21-05-2009 17:06:58 25.1 C 9.03 g/m*3 25.1 C 0 km/h
2029 21-05-2009 17:18:59 25.1 C 9.03 g/m*3 25.1 C 0 km/h
2030 21-05-2009 17:30:58 24.8 C 9.1 g/m*3 24.8 C 0 km/h
2031 21-05-2009 17:42:58 24.4 C 9.79 g/m*3 24.4 C 0 km/h
2032 21-05-2009 17:54:58 23.5 C 9.94 g/m*3 23.5 C 0 km/h
2033 21-05-2009 18:06:58 23.3 C 9.41 g/m*3 23.3 C 0 km/h
2034 21-05-2009 18:18:58 23.1 C 10.54 g/m*3 23.1 C 0 km/h
2035 21-05-2009 18:30:57 22.7 C 10.3 g/m*3 22.7 C 0 km/h
2036 21-05-2009 18:42:57 22.4 C 10.13 g/m*3 22.4 C 0 km/h
2037 21-05-2009 18:54:58 22.3 C 10.07 g/m*3 22.3 C 0 km/h
2038 21-05-2009 19:06:57 22 C 9.9 g/m*3 22 C 0 km/h
2039 21-05-2009 19:18:57 21.9 C 9.84 g/m*3 21.9 C 0 km/h
2040 21-05-2009 19:30:57 21.9 C 9.84 g/m*3 21.9 C 0 km/h
2041 21-05-2009 19:42:57 21.7 C 9.92 g/m*3 21.7 C 0 km/h
2042 21-05-2009 19:54:57 21.6 C 9.67 g/m*3 21.6 C 0 km/h
2043 21-05-2009 20:06:56 20.9 C 9.29 g/m*3 20.9 C 0 km/h
2044 21-05-2009 20:18:56 19.4 C 9.18 g/m*3 19.4 C 0 km/h
2045 21-05-2009 20:30:57 19.3 C 9.79 g/m*3 19.3 C 0 km/h
2046 21-05-2009 20:42:57 17.4 C 11.41 g/m*3 17.4 C 0 km/h
2047 21-05-2009 20:54:56 16.4 C 11.86 g/m*3 16.4 C 0 km/h
2048 21-05-2009 21:06:56 16.2 C 12 g/m*3 16.2 C 0 km/h
2049 21-05-2009 21:18:55 16.1 C 12.06 g/m*3 16.1 C 0 km/h
2050 21-05-2009 21:30:56 16.1 C 12.2 g/m*3 16.1 C 0 km/h
Sensor: Nr:Datum:Temp:Abs-Feuchte:Windchill:Wind:
Aussen-T/F 2051 21-05-2009 21:42:56 16.2 C 12.27 g/m*3 16.2 C 0 km/h
2052 21-05-2009 21:54:55 16.2 C 12.27 g/m*3 16.2 C 0 km/h
2053 21-05-2009 22:06:55 15.8 C 12.11 g/m*3 15.8 C 0 km/h
2054 21-05-2009 22:18:56 15.8 C 12.11 g/m*3 15.8 C 0 km/h
2055 21-05-2009 22:30:55 15.8 C 12.11 g/m*3 15.8 C 0 km/h
2056 21-05-2009 22:42:55 15.7 C 12.04 g/m*3 15.7 C 0 km/h
2057 21-05-2009 22:54:55 15.4 C 11.69 g/m*3 15.4 C 0 km/h
2058 21-05-2009 23:06:55 15 C 11.16 g/m*3 15 C 0 km/h
2059 21-05-2009 23:18:55 14.6 C 10.89 g/m*3 14.6 C 0 km/h
2060 21-05-2009 23:30:54 14.1 C 10.44 g/m*3 14.1 C 0 km/h
2061 21-05-2009 23:42:54 13.7 C 10.07 g/m*3 13.7 C 0 km/h
2062 21-05-2009 23:54:54 13.8 C 10.13 g/m*3 13.8 C 0 km/h
2063 22-05-2009 00:06:54 13.5 C 9.83 g/m*3 13.5 C 0 km/h
2064 22-05-2009 00:18:55 13.4 C 9.65 g/m*3 13.4 C 0 km/h
2065 22-05-2009 00:30:54 13.3 C 9.7 g/m*3 13.3 C 0 km/h
2066 22-05-2009 00:42:54 13.3 C 9.7 g/m*3 13.3 C 0 km/h
2067 22-05-2009 00:54:54 13.4 C 9.88 g/m*3 13.4 C 0 km/h
2068 22-05-2009 01:06:53 13.3 C 9.82 g/m*3 13.3 C 0 km/h
2069 22-05-2009 01:18:54 13.4 C 9.88 g/m*3 13.4 C 0 km/h
2070 22-05-2009 01:30:53 13.2 C 9.64 g/m*3 13.2 C 0 km/h
2071 22-05-2009 01:42:53 13.1 C 9.47 g/m*3 13.1 C 0 km/h
2072 22-05-2009 01:54:53 13.3 C 9.7 g/m*3 13.3 C 0 km/h
2073 22-05-2009 02:06:53 13.4 C 9.65 g/m*3 13.4 C 0 km/h
2074 22-05-2009 02:18:53 13.4 C 9.42 g/m*3 13.4 C 0 km/h
2075 22-05-2009 02:30:53 13.5 C 9.36 g/m*3 13.5 C 0 km/h
Sensor: Nr:Datum:Temp:Abs-Feuchte:Windchill:Wind:
Aussen-T/F 2076 22-05-2009 02:42:53 13.3 C 9.24 g/m*3 13.3 C 0 km/h
2077 22-05-2009 02:56:01 13.2 C 9.19 g/m*3 13.2 C 0 km/h
2078 22-05-2009 03:08:01 13.1 C 9.01 g/m*3 13.1 C 0 km/h
2079 22-05-2009 03:20:02 13.2 C 9.07 g/m*3 13.2 C 0 km/h
2080 22-05-2009 03:32:01 13.4 C 9.18 g/m*3 13.4 C 0 km/h
2081 22-05-2009 03:44:01 13.5 C 9.24 g/m*3 13.5 C 0 km/h
2082 22-05-2009 03:56:01 13.2 C 9.19 g/m*3 13.2 C 0 km/h
2083 22-05-2009 04:07:53 13.1 C 9.24 g/m*3 13.1 C 0 km/h
2084 22-05-2009 04:19:54 13 C 9.07 g/m*3 13 C 0 km/h
2085 22-05-2009 04:31:54 13.1 C 9.01 g/m*3 13.1 C 0 km/h
2086 22-05-2009 04:43:54 13 C 8.85 g/m*3 13 C 0 km/h
2087 22-05-2009 04:55:54 12.8 C 8.85 g/m*3 12.8 C 0 km/h
2088 22-05-2009 05:07:53 12.9 C 8.9 g/m*3 12.9 C 0 km/h
2089 22-05-2009 05:19:53 13 C 8.96 g/m*3 13 C 0 km/h
2090 22-05-2009 05:31:53 12.9 C 8.9 g/m*3 12.9 C 0 km/h
2091 22-05-2009 05:43:53 13 C 8.85 g/m*3 13 C 0 km/h
2092 22-05-2009 05:55:53 12.8 C 8.74 g/m*3 12.8 C 0 km/h
2093 22-05-2009 06:07:53 12.7 C 8.79 g/m*3 12.7 C 0 km/h
2094 22-05-2009 06:19:52 12.4 C 8.52 g/m*3 12.4 C 0 km/h
2095 22-05-2009 06:31:52 12.5 C 8.58 g/m*3 12.5 C 0 km/h
2096 22-05-2009 06:43:52 12.5 C 8.69 g/m*3 12.5 C 0 km/h
2097 22-05-2009 06:55:52 12.7 C 8.91 g/m*3 12.7 C 0 km/h
2098 22-05-2009 07:07:52 13.2 C 9.19 g/m*3 13.2 C 0 km/h
2099 22-05-2009 07:19:52 13.5 C 9.47 g/m*3 13.5 C 0 km/h
2100 22-05-2009 07:31:52 13.7 C 9.35 g/m*3 13.7 C 0 km/h
Sensor: Nr:Datum:Temp:Abs-Feuchte:Windchill:Wind:
Aussen-T/F 2101 22-05-2009 07:43:52 13.9 C 9.23 g/m*3 13.9 C 0 km/h
2102 22-05-2009 07:55:52 13.8 C 9.17 g/m*3 13.8 C 0 km/h
2103 22-05-2009 08:07:51 13.8 C 9.17 g/m*3 13.8 C 0 km/h
2104 22-05-2009 08:19:51 14.1 C 9.22 g/m*3 14.1 C 0 km/h
2105 22-05-2009 08:31:51 14.5 C 9.58 g/m*3 14.5 C 0 km/h
2106 22-05-2009 08:43:51 14.9 C 9.05 g/m*3 14.9 C 0 km/h
2107 22-05-2009 08:55:51 15.3 C 8.49 g/m*3 15.3 C 0 km/h
2108 22-05-2009 09:07:51 16 C 8.17 g/m*3 16 C 0 km/h
2109 22-05-2009 09:19:51 16.3 C 8.32 g/m*3 16.3 C 0 km/h
2110 22-05-2009 09:31:50 16.5 C 8 g/m*3 16.5 C 0 km/h
2111 22-05-2009 09:43:51 17.1 C 7.42 g/m*3 17.1 C 0 km/h
2112 22-05-2009 09:55:51 16.9 C 6.62 g/m*3 16.9 C 0 km/h
2113 22-05-2009 10:07:50 17.2 C 6.59 g/m*3 17.2 C 0 km/h
2114 22-05-2009 10:19:51 17.7 C 6.49 g/m*3 17.7 C 0 km/h
2115 22-05-2009 10:31:51 17.6 C 6.75 g/m*3 17.6 C 0 km/h
2116 22-05-2009 10:43:50 18.7 C 7.68 g/m*3 18.7 C 0 km/h
2117 22-05-2009 10:55:50 19.5 C 7.22 g/m*3 19.5 C 0 km/h
2118 22-05-2009 11:07:50 20 C 6.91 g/m*3 20 C 0 km/h
2119 22-05-2009 11:19:49 20.3 C 7.03 g/m*3 20.3 C 0 km/h
2120 22-05-2009 11:31:50 20.7 C 7.2 g/m*3 20.7 C 0 km/h
2121 22-05-2009 11:43:49 20.7 C 6.66 g/m*3 20.7 C 0 km/h
2122 22-05-2009 11:55:49 20.2 C 6.29 g/m*3 20.2 C 0 km/h
2123 22-05-2009 12:07:49 20.2 C 6.47 g/m*3 20.2 C 0 km/h
2124 22-05-2009 12:19:49 20 C 6.39 g/m*3 20 C 0 km/h
2125 22-05-2009 12:31:49 21.7 C 6.68 g/m*3 21.7 C 0 km/h
Sensor: Nr:Datum:Temp:Abs-Feuchte:Windchill:Wind:
Aussen-T/F 2126 22-05-2009 12:43:49 21.7 C 6.29 g/m*3 21.7 C 0 km/h
2127 22-05-2009 12:55:49 22.3 C 5.53 g/m*3 22.3 C 0 km/h
2128 22-05-2009 13:07:49 22.8 C 4.47 g/m*3 22.8 C 0 km/h
2129 22-05-2009 13:19:49 23.1 C 4.13 g/m*3 23.1 C 0 km/h
2130 22-05-2009 13:31:48 22.4 C 3.97 g/m*3 22.4 C 0 km/h
2131 22-05-2009 13:43:49 22.5 C 5.19 g/m*3 22.5 C 0 km/h
2132 22-05-2009 13:55:49 22.7 C 4.65 g/m*3 22.7 C 0 km/h
2133 22-05-2009 14:07:48 23 C 4.11 g/m*3 23 C 0 km/h
2134 22-05-2009 14:19:48 22.9 C 4.09 g/m*3 22.9 C 0 km/h
2135 22-05-2009 14:31:48 22.9 C 4.09 g/m*3 22.9 C 0 km/h
2136 22-05-2009 14:43:48 22.9 C 4.09 g/m*3 22.9 C 0 km/h
2137 22-05-2009 14:55:48 23.2 C 4.16 g/m*3 23.2 C 0 km/h
2138 22-05-2009 15:07:48 23.8 C 4.73 g/m*3 23.8 C 0 km/h
2139 22-05-2009 15:19:47 23.6 C 4.25 g/m*3 23.6 C 0 km/h
2140 22-05-2009 15:31:48 23.8 C 4.3 g/m*3 23.8 C 0 km/h
2141 22-05-2009 15:43:47 24.5 C 4.48 g/m*3 24.5 C 0 km/h
2142 22-05-2009 15:55:47 23.8 C 4.3 g/m*3 23.8 C 0 km/h
2143 22-05-2009 16:07:47 24.7 C 4.53 g/m*3 24.7 C 0 km/h
2144 22-05-2009 16:19:46 24.4 C 4.45 g/m*3 24.4 C 0 km/h
2145 22-05-2009 16:31:47 22.5 C 3.99 g/m*3 22.5 C 0 km/h
2146 22-05-2009 16:43:46 21.9 C 4.05 g/m*3 21.9 C 0 km/h
2147 22-05-2009 16:55:46 23 C 4.32 g/m*3 23 C 0 km/h
2148 22-05-2009 17:07:47 23.1 C 4.13 g/m*3 23.1 C 0 km/h
2149 22-05-2009 17:19:46 22.8 C 4.27 g/m*3 22.8 C 0 km/h
2150 22-05-2009 17:31:46 23.6 C 4.25 g/m*3 23.6 C 0 km/h
Sensor: Nr:Datum:Temp:Abs-Feuchte:Windchill:Wind:
Aussen-T/F 2151 22-05-2009 17:43:45 23.8 C 4.3 g/m*3 23.8 C 0 km/h
2152 22-05-2009 17:55:45 23.7 C 4.28 g/m*3 23.7 C 0 km/h
2153 22-05-2009 18:07:46 24.1 C 4.38 g/m*3 24.1 C 0 km/h
2154 22-05-2009 18:19:46 24.5 C 4.48 g/m*3 24.5 C 0 km/h
2155 22-05-2009 18:31:45 23.9 C 4.33 g/m*3 23.9 C 0 km/h
2156 22-05-2009 18:43:46 23.2 C 4.16 g/m*3 23.2 C 0 km/h
2157 22-05-2009 18:55:46 24.4 C 4.45 g/m*3 24.4 C 0 km/h
2158 22-05-2009 19:07:45 23.7 C 4.28 g/m*3 23.7 C 0 km/h
2159 22-05-2009 19:19:45 24.1 C 4.38 g/m*3 24.1 C 0 km/h
2160 22-05-2009 19:31:44 23.4 C 4.21 g/m*3 23.4 C 0 km/h
2161 22-05-2009 19:43:45 23.8 C 4.3 g/m*3 23.8 C 0 km/h
2162 22-05-2009 19:55:45 23.8 C 4.3 g/m*3 23.8 C 0 km/h
2163 22-05-2009 20:07:44 22.8 C 4.06 g/m*3 22.8 C 0 km/h
2164 22-05-2009 20:19:44 21.8 C 3.84 g/m*3 21.8 C 0 km/h
2165 22-05-2009 20:31:45 21.2 C 4.26 g/m*3 21.2 C 0 km/h
2166 22-05-2009 20:43:44 20.3 C 4.22 g/m*3 20.3 C 0 km/h
2167 22-05-2009 20:55:44 19.6 C 4.56 g/m*3 19.6 C 0 km/h
2168 22-05-2009 21:07:44 19.3 C 4.98 g/m*3 19.3 C 0 km/h
2169 22-05-2009 21:19:44 18.6 C 4.62 g/m*3 18.6 C 0 km/h
2170 22-05-2009 21:31:44 18.3 C 5 g/m*3 18.3 C 0 km/h
2171 22-05-2009 21:43:44 18.1 C 4.64 g/m*3 18.1 C 0 km/h
2172 22-05-2009 21:55:44 17.7 C 4.68 g/m*3 17.7 C 0 km/h
2173 22-05-2009 22:07:43 17.5 C 4.92 g/m*3 17.5 C 0 km/h
2174 22-05-2009 22:19:44 17.2 C 4.69 g/m*3 17.2 C 0 km/h
2175 22-05-2009 22:32:44 16.8 C 5 g/m*3 16.8 C 0 km/h
Sensor: Nr:Datum:Temp:Abs-Feuchte:Windchill:Wind:
Aussen-T/F 2176 22-05-2009 22:44:44 16.3 C 4.99 g/m*3 16.3 C 0 km/h
2177 22-05-2009 22:56:44 16.1 C 5.21 g/m*3 16.1 C 0 km/h
2178 22-05-2009 23:08:44 15.9 C 5.42 g/m*3 15.9 C 0 km/h
2179 22-05-2009 23:20:44 15.5 C 5.55 g/m*3 15.5 C 0 km/h
2180 22-05-2009 23:32:44 14.8 C 5.83 g/m*3 14.8 C 0 km/h
2181 22-05-2009 23:44:44 14.4 C 5.93 g/m*3 14.4 C 0 km/h
2182 22-05-2009 23:56:44 14.2 C 5.86 g/m*3 14.2 C 0 km/h
2183 23-05-2009 00:08:44 13.8 C 5.96 g/m*3 13.8 C 0 km/h
2184 23-05-2009 00:20:45 13.5 C 6.08 g/m*3 13.5 C 0 km/h
2185 23-05-2009 00:32:45 13.4 C 6.16 g/m*3 13.4 C 0 km/h
2186 23-05-2009 00:44:45 13.2 C 6.2 g/m*3 13.2 C 0 km/h
2187 23-05-2009 00:56:45 13 C 6.12 g/m*3 13 C 0 km/h
2188 23-05-2009 01:08:45 12.9 C 6.31 g/m*3 12.9 C 0 km/h
2189 23-05-2009 01:20:45 12.5 C 6.27 g/m*3 12.5 C 0 km/h
2190 23-05-2009 01:32:45 12.3 C 6.3 g/m*3 12.3 C 0 km/h
2191 23-05-2009 01:44:45 12.1 C 6.33 g/m*3 12.1 C 0 km/h
2192 23-05-2009 01:56:45 12 C 6.5 g/m*3 12 C 0 km/h
2193 23-05-2009 02:08:45 11.8 C 6.53 g/m*3 11.8 C 0 km/h
2194 23-05-2009 02:20:45 11.5 C 6.51 g/m*3 11.5 C 0 km/h
2195 23-05-2009 02:32:45 11.1 C 6.55 g/m*3 11.1 C 0 km/h
2196 23-05-2009 02:44:45 10.9 C 6.66 g/m*3 10.9 C 0 km/h
2197 23-05-2009 02:56:45 10.6 C 6.64 g/m*3 10.6 C 0 km/h
2198 23-05-2009 03:08:45 10.6 C 6.73 g/m*3 10.6 C 0 km/h
2199 23-05-2009 03:20:45 10.5 C 6.79 g/m*3 10.5 C 0 km/h
2200 23-05-2009 03:32:45 10.4 C 6.65 g/m*3 10.4 C 0 km/h
Sensor: Nr:Datum:Temp:Abs-Feuchte:Windchill:Wind:
Aussen-T/F 2201 23-05-2009 03:44:45 10.3 C 6.61 g/m*3 10.3 C 0 km/h
2202 23-05-2009 03:56:45 10.2 C 6.66 g/m*3 10.2 C 0 km/h
2203 23-05-2009 04:08:46 10.1 C 6.62 g/m*3 10.1 C 0 km/h
2204 23-05-2009 04:20:46 9.9 C 6.72 g/m*3 9.9 C 0 km/h
2205 23-05-2009 04:32:46 9.6 C 6.6 g/m*3 9.6 C 0 km/h
2206 23-05-2009 04:44:46 9.5 C 6.64 g/m*3 9.5 C 0 km/h
2207 23-05-2009 04:56:46 9.5 C 6.64 g/m*3 9.5 C 0 km/h
2208 23-05-2009 05:08:46 9.4 C 6.69 g/m*3 9.4 C 0 km/h
2209 23-05-2009 05:20:46 9.2 C 6.61 g/m*3 9.2 C 0 km/h
2210 23-05-2009 05:32:46 9.2 C 6.7 g/m*3 9.2 C 0 km/h
2211 23-05-2009 05:44:46 9.1 C 6.57 g/m*3 9.1 C 0 km/h
2212 23-05-2009 05:56:46 9 C 6.52 g/m*3 9 C 0 km/h
2213 23-05-2009 06:08:46 8.8 C 6.7 g/m*3 8.8 C 0 km/h
2214 23-05-2009 06:20:46 8.9 C 6.83 g/m*3 8.9 C 0 km/h
2215 23-05-2009 06:32:46 9 C 6.88 g/m*3 9 C 0 km/h
2216 23-05-2009 06:44:46 9 C 6.88 g/m*3 9 C 0 km/h
2217 23-05-2009 06:56:46 9 C 6.88 g/m*3 9 C 0 km/h
2218 23-05-2009 07:08:44 9.2 C 6.97 g/m*3 9.2 C 0 km/h
2219 23-05-2009 07:20:44 9.1 C 6.92 g/m*3 9.1 C 0 km/h
2220 23-05-2009 07:32:45 9.2 C 6.97 g/m*3 9.2 C 0 km/h
2221 23-05-2009 07:44:44 9.6 C 7.15 g/m*3 9.6 C 0 km/h
2222 23-05-2009 07:56:44 9.8 C 6.96 g/m*3 9.8 C 0 km/h
2223 23-05-2009 08:08:44 10.2 C 7.04 g/m*3 10.2 C 0 km/h
2224 23-05-2009 08:20:44 10.6 C 7.12 g/m*3 10.6 C 0 km/h
2225 23-05-2009 08:32:44 11 C 7.11 g/m*3 11 C 0 km/h
Sensor: Nr:Datum:Temp:Abs-Feuchte:Windchill:Wind:
Aussen-T/F 2226 23-05-2009 08:44:43 11.4 C 7.29 g/m*3 11.4 C 0 km/h
2227 23-05-2009 08:56:43 12 C 7.14 g/m*3 12 C 0 km/h
2228 23-05-2009 09:08:44 12.6 C 7.3 g/m*3 12.6 C 0 km/h
2229 23-05-2009 09:20:43 13.2 C 7.23 g/m*3 13.2 C 0 km/h
2230 23-05-2009 09:32:43 13.8 C 7.39 g/m*3 13.8 C 0 km/h
2231 23-05-2009 09:44:43 14.2 C 7.33 g/m*3 14.2 C 0 km/h
2232 23-05-2009 09:56:43 15.2 C 7.66 g/m*3 15.2 C 0 km/h
2233 23-05-2009 10:08:43 16 C 7.77 g/m*3 16 C 0 km/h
2234 23-05-2009 10:20:43 16.9 C 7.19 g/m*3 16.9 C 0 km/h
2235 23-05-2009 10:32:02 17.8 C 6.68 g/m*3 17.8 C 0 km/h
2236 23-05-2009 10:44:02 18.6 C 6.37 g/m*3 18.6 C 0 km/h
2237 23-05-2009 10:56:02 18.9 C 5.99 g/m*3 18.9 C 0 km/h
2238 23-05-2009 11:08:02 19.5 C 6.21 g/m*3 19.5 C 0 km/h
2239 23-05-2009 11:20:02 19.7 C 6.11 g/m*3 19.7 C 0 km/h
2240 23-05-2009 11:32:03 19.8 C 5.98 g/m*3 19.8 C 0 km/h
2241 23-05-2009 11:44:03 20.8 C 6.16 g/m*3 20.8 C 0 km/h
2242 23-05-2009 11:56:02 21.6 C 5.88 g/m*3 21.6 C 0 km/h
2243 23-05-2009 12:08:02 22 C 5.43 g/m*3 22 C 0 km/h
2244 23-05-2009 12:20:01 23.1 C 5.17 g/m*3 23.1 C 0 km/h
2245 23-05-2009 12:32:01 23.9 C 5.41 g/m*3 23.9 C 0 km/h
2246 23-05-2009 12:44:01 24.5 C 5.37 g/m*3 24.5 C 0 km/h
2247 23-05-2009 12:56:01 24.2 C 4.84 g/m*3 24.2 C 0 km/h
2248 23-05-2009 13:08:01 24.9 C 5.04 g/m*3 24.9 C 0 km/h
2249 23-05-2009 13:20:01 26.2 C 4.92 g/m*3 26.2 C 0 km/h
2250 23-05-2009 13:32:00 25.8 C 4.82 g/m*3 25.8 C 0 km/h
Sensor: Nr:Datum:Temp:Abs-Feuchte:Windchill:Wind:
Aussen-T/F 2251 23-05-2009 13:44:00 26.8 C 5.09 g/m*3 26.8 C 0 km/h
2252 23-05-2009 13:56:01 26.3 C 4.95 g/m*3 26.3 C 0 km/h
2253 23-05-2009 14:08:00 26 C 5.11 g/m*3 26 C 0 km/h
2254 23-05-2009 14:20:00 25.7 C 5.03 g/m*3 25.7 C 0 km/h
2255 23-05-2009 14:32:00 26.1 C 4.9 g/m*3 26.1 C 0 km/h
2256 23-05-2009 14:44:00 26.7 C 5.32 g/m*3 26.7 C 0 km/h
2257 23-05-2009 14:56:00 27.4 C 5.26 g/m*3 27.4 C 0 km/h
2258 23-05-2009 15:08:00 27.3 C 5.23 g/m*3 27.3 C 0 km/h
2259 23-05-2009 15:20:59 27.6 C 5.32 g/m*3 27.6 C 0 km/h
2260 23-05-2009 15:44:00 28.5 C 5.59 g/m*3 28.5 C 0 km/h
2261 23-05-2009 15:44:59 29.3 C 5.84 g/m*3 29.3 C 0 km/h
2262 23-05-2009 15:56:59 28.9 C 5.71 g/m*3 28.9 C 0 km/h
2263 23-05-2009 16:08:59 29.9 C 6.03 g/m*3 29.9 C 0 km/h
2264 23-05-2009 16:19:59 29.2 C 5.81 g/m*3 29.2 C 0 km/h
2265 23-05-2009 16:32:59 30.1 C 6.1 g/m*3 30.1 C 0 km/h
2266 23-05-2009 16:44:59 30.4 C 6.2 g/m*3 30.4 C 0 km/h
2267 23-05-2009 16:56:59 30.9 C 6.37 g/m*3 30.9 C 0 km/h
2268 23-05-2009 17:08:58 30.4 C 6.2 g/m*3 30.4 C 0 km/h
2269 23-05-2009 17:20:59 30.8 C 6.33 g/m*3 30.8 C 0 km/h
2270 23-05-2009 17:32:58 30.8 C 6.33 g/m*3 30.8 C 0 km/h
2271 23-05-2009 17:44:59 31.2 C 6.47 g/m*3 31.2 C 0 km/h
2272 23-05-2009 17:56:59 30.7 C 6.3 g/m*3 30.7 C 0 km/h
2273 23-05-2009 18:08:58 30.1 C 6.1 g/m*3 30.1 C 0 km/h
2274 23-05-2009 18:20:58 30.5 C 6.23 g/m*3 30.5 C 0 km/h
2275 23-05-2009 18:32:57 29.9 C 6.03 g/m*3 29.9 C 0 km/h
Sensor: Nr:Datum:Temp:Abs-Feuchte:Windchill:Wind:
Aussen-T/F 2276 23-05-2009 18:44:58 28.6 C 5.9 g/m*3 28.6 C 0 km/h
2277 23-05-2009 18:56:59 28.3 C 7.74 g/m*3 28.3 C 0 km/h
2278 23-05-2009 19:08:57 26.8 C 7.38 g/m*3 26.8 C 0 km/h
2279 23-05-2009 19:20:57 25.5 C 7.58 g/m*3 25.5 C 0 km/h
2280 23-05-2009 19:32:58 24.6 C 7.43 g/m*3 24.6 C 0 km/h
2281 23-05-2009 19:44:57 24 C 6.96 g/m*3 24 C 0 km/h
2282 23-05-2009 19:56:57 23.8 C 7.53 g/m*3 23.8 C 0 km/h
2283 23-05-2009 20:08:57 23.4 C 7.15 g/m*3 23.4 C 0 km/h
2284 23-05-2009 20:20:57 23.1 C 7.03 g/m*3 23.1 C 0 km/h
2285 23-05-2009 20:32:57 22.8 C 7.11 g/m*3 22.8 C 0 km/h
2286 23-05-2009 20:44:56 22.4 C 6.75 g/m*3 22.4 C 0 km/h
2287 23-05-2009 20:56:56 22 C 6.99 g/m*3 22 C 0 km/h
2288 23-05-2009 21:08:56 21.5 C 7.54 g/m*3 21.5 C 0 km/h
2289 23-05-2009 21:20:56 21 C 7.51 g/m*3 21 C 0 km/h
2290 23-05-2009 21:32:56 20.7 C 7.56 g/m*3 20.7 C 0 km/h
2291 23-05-2009 21:44:56 20.6 C 7.52 g/m*3 20.6 C 0 km/h
2292 23-05-2009 21:56:56 20.3 C 7.56 g/m*3 20.3 C 0 km/h
2293 23-05-2009 22:08:55 20.2 C 7.34 g/m*3 20.2 C 0 km/h
2294 23-05-2009 22:20:56 20 C 7.43 g/m*3 20 C 0 km/h
2295 23-05-2009 22:32:56 20 C 7.43 g/m*3 20 C 0 km/h
2296 23-05-2009 22:45:03 19.7 C 7.64 g/m*3 19.7 C 0 km/h
2297 23-05-2009 22:57:03 19.6 C 7.6 g/m*3 19.6 C 0 km/h
2298 23-05-2009 23:09:03 19.4 C 7.84 g/m*3 19.4 C 0 km/h
2299 23-05-2009 23:21:03 19.1 C 8.03 g/m*3 19.1 C 0 km/h
2300 23-05-2009 23:33:03 19.1 C 8.2 g/m*3 19.1 C 0 km/h
Sensor: Nr:Datum:Temp:Abs-Feuchte:Windchill:Wind:
Aussen-T/F 2301 23-05-2009 23:45:04 18.9 C 7.94 g/m*3 18.9 C 0 km/h
2302 23-05-2009 23:57:04 18.5 C 7.59 g/m*3 18.5 C 0 km/h

Legende:
   Min
   Max


Maximal/Minimal-Werte vom 03.05.2009 - 23.05.2009

Sensor Min Max Avg
Temp
(Aussen-T/F)
6.4 °C
04-05-2009  07:06:00
31.2 °C
23-05-2009  17:44:59
15.6 °C
Abs-Feuchte
(Aussen-T/F)
2.56 g/m*3
04-05-2009  15:06:54
12.27 g/m*3
21-05-2009  21:42:56
7.76 g/m*3
Windchill
(Aussen-T/F)
6.4 C
04-05-2009  07:06:00
31.2 C
23-05-2009  17:44:59
15.6 C

Die Daten stammen von einer Davis Vantage Pro 2 Wetter-Station und werden unter Linux mit der Software wview2wettercgi und aufbereitet. Alle Angaben erfolgen ohne Gewähr für ihre Vollständigkeit oder Richtigkeit.
Kontakt: Rainer Krienke krienke@uni-koblenz.de . Meine Webseiten an der Uni Koblenz oder privat.
Version: $Revision: 0.78 $